<?xml version='1.0' encoding='UTF-8'?><gpx version="1.1" creator="JPX - https://github.com/jenetics/jpx" xmlns="http://www.topografix.com/GPX/1/1"><trk><trkseg><trkpt lat="43.6797974" lon="10.9435695"><ele>127.00000000000001</ele><time>2026-05-01T07:50:29.27Z</time></trkpt><trkpt lat="43.6797468" lon="10.9434893"><ele>127.0</ele><time>2026-05-01T07:50:34.607Z</time></trkpt><trkpt lat="43.6796418" lon="10.9433921"><ele>127.0</ele><time>2026-05-01T07:50:43.851Z</time></trkpt><trkpt lat="43.6795805" lon="10.9433394"><ele>127.0</ele><time>2026-05-01T07:50:49.802Z</time></trkpt><trkpt lat="43.6795235" lon="10.9432757"><ele>127.00000000000001</ele><time>2026-05-01T07:50:55.85Z</time></trkpt><trkpt lat="43.6794757" lon="10.9432162"><ele>127.0</ele><time>2026-05-01T07:51:00.836Z</time></trkpt><trkpt lat="43.6794173" lon="10.9431646"><ele>127.28571428571429</ele><time>2026-05-01T07:51:06.847Z</time></trkpt><trkpt lat="43.6793529" lon="10.9431177"><ele>127.57142857142856</ele><time>2026-05-01T07:51:12.854Z</time></trkpt><trkpt lat="43.6792917" lon="10.9430744"><ele>127.85714285714285</ele><time>2026-05-01T07:51:18.836Z</time></trkpt><trkpt lat="43.6792322" lon="10.943036"><ele>128.14285714285714</ele><time>2026-05-01T07:51:24.853Z</time></trkpt><trkpt lat="43.6791623" lon="10.9430002"><ele>128.42857142857142</ele><time>2026-05-01T07:51:31.379Z</time></trkpt><trkpt lat="43.679103" lon="10.9429396"><ele>128.7142857142857</ele><time>2026-05-01T07:51:37.877Z</time></trkpt><trkpt lat="43.6790711" lon="10.9428511"><ele>129.0</ele><time>2026-05-01T07:51:46.836Z</time></trkpt><trkpt lat="43.6790698" lon="10.94276"><ele>128.99999999999997</ele><time>2026-05-01T07:52:05.871Z</time></trkpt><trkpt lat="43.6790579" lon="10.9426672"><ele>129.0</ele><time>2026-05-01T07:52:13.835Z</time></trkpt><trkpt lat="43.6789969" lon="10.9426299"><ele>129.0</ele><time>2026-05-01T07:52:19.851Z</time></trkpt><trkpt lat="43.6789259" lon="10.942634"><ele>129.0</ele><time>2026-05-01T07:52:23.836Z</time></trkpt><trkpt lat="43.6788705" lon="10.9425903"><ele>129.0</ele><time>2026-05-01T07:52:28.836Z</time></trkpt><trkpt lat="43.6788098" lon="10.9425439"><ele>128.99999999999997</ele><time>2026-05-01T07:52:34.859Z</time></trkpt><trkpt lat="43.6787607" lon="10.9424692"><ele>129.0</ele><time>2026-05-01T07:52:40.836Z</time></trkpt><trkpt lat="43.6787151" lon="10.9423911"><ele>128.42857142857142</ele><time>2026-05-01T07:52:46.85Z</time></trkpt><trkpt lat="43.6786672" lon="10.9423327"><ele>127.85714285714286</ele><time>2026-05-01T07:52:51.857Z</time></trkpt><trkpt lat="43.6786056" lon="10.9422861"><ele>127.28571428571428</ele><time>2026-05-01T07:52:58.853Z</time></trkpt><trkpt lat="43.6785577" lon="10.9422208"><ele>126.71428571428571</ele><time>2026-05-01T07:53:05.794Z</time></trkpt><trkpt lat="43.6785243" lon="10.9421394"><ele>126.14285714285714</ele><time>2026-05-01T07:53:11.835Z</time></trkpt><trkpt lat="43.6784825" lon="10.9420709"><ele>125.57142857142857</ele><time>2026-05-01T07:53:17.852Z</time></trkpt><trkpt lat="43.6784353" lon="10.942011"><ele>125.0</ele><time>2026-05-01T07:53:23.838Z</time></trkpt><trkpt lat="43.6784002" lon="10.9419377"><ele>125.42857142857142</ele><time>2026-05-01T07:53:29.841Z</time></trkpt><trkpt lat="43.678355" lon="10.9418666"><ele>125.85714285714286</ele><time>2026-05-01T07:53:36.797Z</time></trkpt><trkpt lat="43.6783013" lon="10.9417927"><ele>126.28571428571428</ele><time>2026-05-01T07:53:44.836Z</time></trkpt><trkpt lat="43.6782556" lon="10.9417322"><ele>126.71428571428571</ele><time>2026-05-01T07:53:49.755Z</time></trkpt><trkpt lat="43.6782076" lon="10.9416751"><ele>127.14285714285714</ele><time>2026-05-01T07:53:54.842Z</time></trkpt><trkpt lat="43.678148" lon="10.9416118"><ele>127.57142857142857</ele><time>2026-05-01T07:53:59.836Z</time></trkpt><trkpt lat="43.6780907" lon="10.9415483"><ele>128.0</ele><time>2026-05-01T07:54:04.785Z</time></trkpt><trkpt lat="43.6780342" lon="10.9414998"><ele>128.0</ele><time>2026-05-01T07:54:09.791Z</time></trkpt><trkpt lat="43.6779708" lon="10.9414447"><ele>127.99999999999999</ele><time>2026-05-01T07:54:14.836Z</time></trkpt><trkpt lat="43.6779062" lon="10.941394"><ele>128.0</ele><time>2026-05-01T07:54:19.836Z</time></trkpt><trkpt lat="43.6778428" lon="10.9413533"><ele>128.0</ele><time>2026-05-01T07:54:24.836Z</time></trkpt><trkpt lat="43.6777808" lon="10.9413065"><ele>127.99999999999999</ele><time>2026-05-01T07:54:29.858Z</time></trkpt><trkpt lat="43.6777152" lon="10.9412579"><ele>128.0</ele><time>2026-05-01T07:54:35.836Z</time></trkpt><trkpt lat="43.6776473" lon="10.9412123"><ele>128.0</ele><time>2026-05-01T07:54:41.811Z</time></trkpt><trkpt lat="43.6775847" lon="10.9411727"><ele>128.0</ele><time>2026-05-01T07:54:46.836Z</time></trkpt><trkpt lat="43.677522" lon="10.9411445"><ele>127.99999999999999</ele><time>2026-05-01T07:54:51.858Z</time></trkpt><trkpt lat="43.6774605" lon="10.9411177"><ele>128.0</ele><time>2026-05-01T07:54:56.854Z</time></trkpt><trkpt lat="43.6774011" lon="10.9410848"><ele>128.0</ele><time>2026-05-01T07:55:01.835Z</time></trkpt><trkpt lat="43.6773301" lon="10.9410574"><ele>127.99999999999999</ele><time>2026-05-01T07:55:07.836Z</time></trkpt><trkpt lat="43.6772622" lon="10.9410334"><ele>128.0</ele><time>2026-05-01T07:55:19.836Z</time></trkpt><trkpt lat="43.6772602" lon="10.9409336"><ele>128.0</ele><time>2026-05-01T07:55:25.77Z</time></trkpt><trkpt lat="43.6772749" lon="10.9408396"><ele>128.0</ele><time>2026-05-01T07:55:30.817Z</time></trkpt><trkpt lat="43.6772494" lon="10.9407565"><ele>127.99999999999999</ele><time>2026-05-01T07:55:35.836Z</time></trkpt><trkpt lat="43.6772196" lon="10.940676"><ele>128.0</ele><time>2026-05-01T07:55:40.77Z</time></trkpt><trkpt lat="43.6771798" lon="10.940583"><ele>128.0</ele><time>2026-05-01T07:55:46.827Z</time></trkpt><trkpt lat="43.6771505" lon="10.9405024"><ele>127.99999999999999</ele><time>2026-05-01T07:55:51.835Z</time></trkpt><trkpt lat="43.6771223" lon="10.9404173"><ele>128.0</ele><time>2026-05-01T07:55:56.831Z</time></trkpt><trkpt lat="43.6770904" lon="10.9403237"><ele>128.0</ele><time>2026-05-01T07:56:02.835Z</time></trkpt><trkpt lat="43.6770665" lon="10.9402407"><ele>128.0</ele><time>2026-05-01T07:56:07.847Z</time></trkpt><trkpt lat="43.6770364" lon="10.9401608"><ele>127.99999999999999</ele><time>2026-05-01T07:56:12.853Z</time></trkpt><trkpt lat="43.6770004" lon="10.940087"><ele>128.0</ele><time>2026-05-01T07:56:17.835Z</time></trkpt><trkpt lat="43.6769747" lon="10.9400073"><ele>128.0</ele><time>2026-05-01T07:56:22.835Z</time></trkpt><trkpt lat="43.6769425" lon="10.9399216"><ele>127.99999999999999</ele><time>2026-05-01T07:56:28.854Z</time></trkpt><trkpt lat="43.6768941" lon="10.9398457"><ele>128.0</ele><time>2026-05-01T07:56:38.836Z</time></trkpt><trkpt lat="43.6768641" lon="10.9397656"><ele>128.0</ele><time>2026-05-01T07:56:43.853Z</time></trkpt><trkpt lat="43.6768425" lon="10.9396713"><ele>127.85714285714285</ele><time>2026-05-01T07:56:49.836Z</time></trkpt><trkpt lat="43.6768146" lon="10.9395835"><ele>127.7142857142857</ele><time>2026-05-01T07:56:55.836Z</time></trkpt><trkpt lat="43.6767876" lon="10.9394912"><ele>127.57142857142857</ele><time>2026-05-01T07:57:01.835Z</time></trkpt><trkpt lat="43.6767554" lon="10.9394163"><ele>127.42857142857142</ele><time>2026-05-01T07:57:13.836Z</time></trkpt><trkpt lat="43.6767236" lon="10.939334"><ele>127.28571428571428</ele><time>2026-05-01T07:57:18.836Z</time></trkpt><trkpt lat="43.6766867" lon="10.9392551"><ele>127.14285714285714</ele><time>2026-05-01T07:57:23.836Z</time></trkpt><trkpt lat="43.6766548" lon="10.9391616"><ele>127.0</ele><time>2026-05-01T07:57:29.836Z</time></trkpt><trkpt lat="43.6766031" lon="10.9390861"><ele>126.28571428571429</ele><time>2026-05-01T07:57:35.84Z</time></trkpt><trkpt lat="43.6765539" lon="10.9390241"><ele>125.57142857142856</ele><time>2026-05-01T07:57:40.836Z</time></trkpt><trkpt lat="43.6765005" lon="10.9389674"><ele>124.85714285714285</ele><time>2026-05-01T07:57:45.803Z</time></trkpt><trkpt lat="43.6764567" lon="10.9389033"><ele>124.14285714285714</ele><time>2026-05-01T07:57:50.799Z</time></trkpt><trkpt lat="43.6764251" lon="10.9388158"><ele>123.42857142857142</ele><time>2026-05-01T07:57:56.835Z</time></trkpt><trkpt lat="43.676399" lon="10.9387356"><ele>122.7142857142857</ele><time>2026-05-01T07:58:01.855Z</time></trkpt><trkpt lat="43.676351" lon="10.9386597"><ele>121.99999999999999</ele><time>2026-05-01T07:58:07.772Z</time></trkpt><trkpt lat="43.6763006" lon="10.9386031"><ele>121.99999999999999</ele><time>2026-05-01T07:58:12.835Z</time></trkpt><trkpt lat="43.6762669" lon="10.9385295"><ele>122.0</ele><time>2026-05-01T07:58:17.838Z</time></trkpt><trkpt lat="43.6762201" lon="10.9384615"><ele>121.99999999999999</ele><time>2026-05-01T07:58:23.836Z</time></trkpt><trkpt lat="43.6761724" lon="10.9383852"><ele>121.99999999999999</ele><time>2026-05-01T07:58:29.853Z</time></trkpt><trkpt lat="43.6761278" lon="10.938316"><ele>122.0</ele><time>2026-05-01T07:58:34.859Z</time></trkpt><trkpt lat="43.6760872" lon="10.9382363"><ele>121.99999999999999</ele><time>2026-05-01T07:58:40.836Z</time></trkpt><trkpt lat="43.6760588" lon="10.9381538"><ele>121.99999999999999</ele><time>2026-05-01T07:58:45.853Z</time></trkpt><trkpt lat="43.6760359" lon="10.9380506"><ele>120.99999999999999</ele><time>2026-05-01T07:58:51.836Z</time></trkpt><trkpt lat="43.6760322" lon="10.9379626"><ele>120.0</ele><time>2026-05-01T07:58:56.836Z</time></trkpt><trkpt lat="43.6760306" lon="10.9378747"><ele>118.99999999999999</ele><time>2026-05-01T07:59:01.752Z</time></trkpt><trkpt lat="43.6760291" lon="10.9377786"><ele>117.99999999999999</ele><time>2026-05-01T07:59:07.836Z</time></trkpt><trkpt lat="43.6760705" lon="10.9376986"><ele>117.0</ele><time>2026-05-01T07:59:13.868Z</time></trkpt><trkpt lat="43.6760949" lon="10.9376142"><ele>115.99999999999999</ele><time>2026-05-01T07:59:19.836Z</time></trkpt><trkpt lat="43.6761179" lon="10.9375303"><ele>114.99999999999999</ele><time>2026-05-01T07:59:24.836Z</time></trkpt><trkpt lat="43.6761421" lon="10.9374482"><ele>112.85714285714285</ele><time>2026-05-01T07:59:29.835Z</time></trkpt><trkpt lat="43.676162" lon="10.9373587"><ele>110.71428571428571</ele><time>2026-05-01T07:59:34.836Z</time></trkpt><trkpt lat="43.6761842" lon="10.9372741"><ele>108.57142857142857</ele><time>2026-05-01T07:59:39.836Z</time></trkpt><trkpt lat="43.6762033" lon="10.9371806"><ele>106.42857142857142</ele><time>2026-05-01T07:59:44.829Z</time></trkpt><trkpt lat="43.6762254" lon="10.9370872"><ele>104.28571428571428</ele><time>2026-05-01T07:59:50.866Z</time></trkpt><trkpt lat="43.6762572" lon="10.936999"><ele>102.14285714285715</ele><time>2026-05-01T07:59:56.835Z</time></trkpt><trkpt lat="43.6762878" lon="10.9369053"><ele>100.0</ele><time>2026-05-01T08:00:02.853Z</time></trkpt><trkpt lat="43.6763146" lon="10.9368234"><ele>100.00000000000001</ele><time>2026-05-01T08:00:07.836Z</time></trkpt><trkpt lat="43.6763434" lon="10.9367425"><ele>100.0</ele><time>2026-05-01T08:00:12.836Z</time></trkpt><trkpt lat="43.6763706" lon="10.9366635"><ele>100.0</ele><time>2026-05-01T08:00:17.853Z</time></trkpt><trkpt lat="43.6764055" lon="10.9365719"><ele>100.0</ele><time>2026-05-01T08:00:22.835Z</time></trkpt><trkpt lat="43.6764306" lon="10.9364912"><ele>100.0</ele><time>2026-05-01T08:00:27.836Z</time></trkpt><trkpt lat="43.6764552" lon="10.936411"><ele>100.00000000000001</ele><time>2026-05-01T08:00:32.821Z</time></trkpt><trkpt lat="43.6764718" lon="10.9363122"><ele>100.0</ele><time>2026-05-01T08:00:38.849Z</time></trkpt><trkpt lat="43.6765013" lon="10.9362205"><ele>99.57142857142858</ele><time>2026-05-01T08:01:04.855Z</time></trkpt><trkpt lat="43.6765374" lon="10.9361357"><ele>99.14285714285714</ele><time>2026-05-01T08:01:10.844Z</time></trkpt><trkpt lat="43.6765783" lon="10.9360596"><ele>98.71428571428572</ele><time>2026-05-01T08:01:16.851Z</time></trkpt><trkpt lat="43.6766258" lon="10.9359808"><ele>98.28571428571429</ele><time>2026-05-01T08:01:22.836Z</time></trkpt><trkpt lat="43.6766646" lon="10.9359014"><ele>97.85714285714286</ele><time>2026-05-01T08:01:27.805Z</time></trkpt><trkpt lat="43.6767009" lon="10.9358282"><ele>97.42857142857143</ele><time>2026-05-01T08:01:32.79Z</time></trkpt><trkpt lat="43.6767265" lon="10.935742"><ele>97.0</ele><time>2026-05-01T08:01:38.836Z</time></trkpt><trkpt lat="43.6767325" lon="10.9356395"><ele>96.42857142857143</ele><time>2026-05-01T08:01:44.865Z</time></trkpt><trkpt lat="43.6767367" lon="10.9355347"><ele>95.85714285714286</ele><time>2026-05-01T08:01:50.879Z</time></trkpt><trkpt lat="43.676762" lon="10.935451"><ele>95.28571428571429</ele><time>2026-05-01T08:01:55.836Z</time></trkpt><trkpt lat="43.6767826" lon="10.935354"><ele>94.71428571428572</ele><time>2026-05-01T08:02:02.852Z</time></trkpt><trkpt lat="43.6768034" lon="10.9352588"><ele>94.14285714285714</ele><time>2026-05-01T08:02:07.835Z</time></trkpt><trkpt lat="43.6768224" lon="10.9351608"><ele>93.57142857142858</ele><time>2026-05-01T08:02:14.836Z</time></trkpt><trkpt lat="43.6768381" lon="10.9350695"><ele>93.0</ele><time>2026-05-01T08:02:20.845Z</time></trkpt><trkpt lat="43.6768468" lon="10.9349819"><ele>92.00000000000001</ele><time>2026-05-01T08:02:25.84Z</time></trkpt><trkpt lat="43.6768576" lon="10.9348822"><ele>91.0</ele><time>2026-05-01T08:02:30.836Z</time></trkpt><trkpt lat="43.6768704" lon="10.9347798"><ele>90.0</ele><time>2026-05-01T08:02:37.847Z</time></trkpt><trkpt lat="43.6768709" lon="10.9346819"><ele>89.0</ele><time>2026-05-01T08:02:41.835Z</time></trkpt><trkpt lat="43.676856" lon="10.9345827"><ele>88.0</ele><time>2026-05-01T08:02:46.777Z</time></trkpt><trkpt lat="43.6768422" lon="10.9344748"><ele>87.00000000000001</ele><time>2026-05-01T08:02:52.836Z</time></trkpt><trkpt lat="43.6768275" lon="10.9343704"><ele>86.0</ele><time>2026-05-01T08:03:00.848Z</time></trkpt><trkpt lat="43.6768213" lon="10.9342775"><ele>84.57142857142858</ele><time>2026-05-01T08:03:04.852Z</time></trkpt><trkpt lat="43.6768174" lon="10.9341624"><ele>83.14285714285714</ele><time>2026-05-01T08:03:12.841Z</time></trkpt><trkpt lat="43.6768032" lon="10.9340739"><ele>81.71428571428572</ele><time>2026-05-01T08:03:16.836Z</time></trkpt><trkpt lat="43.6767959" lon="10.9339749"><ele>80.28571428571429</ele><time>2026-05-01T08:03:23.766Z</time></trkpt><trkpt lat="43.6767872" lon="10.9338727"><ele>78.85714285714286</ele><time>2026-05-01T08:03:28.835Z</time></trkpt><trkpt lat="43.6767713" lon="10.9337791"><ele>77.42857142857143</ele><time>2026-05-01T08:03:35.831Z</time></trkpt><trkpt lat="43.6767688" lon="10.9336858"><ele>76.0</ele><time>2026-05-01T08:03:43.561Z</time></trkpt><trkpt lat="43.6767703" lon="10.9335942"><ele>76.0</ele><time>2026-05-01T08:03:48.835Z</time></trkpt><trkpt lat="43.676773" lon="10.9335062"><ele>76.0</ele><time>2026-05-01T08:03:52.835Z</time></trkpt><trkpt lat="43.6767705" lon="10.9334136"><ele>76.0</ele><time>2026-05-01T08:03:59.784Z</time></trkpt><trkpt lat="43.6767705" lon="10.9333145"><ele>76.0</ele><time>2026-05-01T08:04:05.835Z</time></trkpt><trkpt lat="43.6767722" lon="10.9332223"><ele>76.0</ele><time>2026-05-01T08:04:10.835Z</time></trkpt><trkpt lat="43.6767706" lon="10.9331293"><ele>76.0</ele><time>2026-05-01T08:04:15.836Z</time></trkpt><trkpt lat="43.676756" lon="10.9330334"><ele>76.0</ele><time>2026-05-01T08:04:22.836Z</time></trkpt><trkpt lat="43.6767493" lon="10.9329468"><ele>75.57142857142857</ele><time>2026-05-01T08:04:26.851Z</time></trkpt><trkpt lat="43.6767348" lon="10.9328497"><ele>75.14285714285715</ele><time>2026-05-01T08:04:31.836Z</time></trkpt><trkpt lat="43.6767241" lon="10.932758"><ele>74.71428571428572</ele><time>2026-05-01T08:04:36.836Z</time></trkpt><trkpt lat="43.6767122" lon="10.9326635"><ele>74.28571428571428</ele><time>2026-05-01T08:04:41.836Z</time></trkpt><trkpt lat="43.6766941" lon="10.9325462"><ele>73.85714285714286</ele><time>2026-05-01T08:04:48.836Z</time></trkpt><trkpt lat="43.6766732" lon="10.9324617"><ele>73.42857142857143</ele><time>2026-05-01T08:04:54.835Z</time></trkpt><trkpt lat="43.6766442" lon="10.9323811"><ele>73.0</ele><time>2026-05-01T08:04:59.836Z</time></trkpt><trkpt lat="43.6766255" lon="10.9322846"><ele>72.42857142857143</ele><time>2026-05-01T08:05:05.835Z</time></trkpt><trkpt lat="43.6765957" lon="10.9321976"><ele>71.85714285714286</ele><time>2026-05-01T08:05:11.836Z</time></trkpt><trkpt lat="43.6765546" lon="10.9321215"><ele>71.28571428571429</ele><time>2026-05-01T08:05:17.737Z</time></trkpt><trkpt lat="43.6765295" lon="10.9320337"><ele>70.71428571428572</ele><time>2026-05-01T08:05:24.882Z</time></trkpt><trkpt lat="43.676476" lon="10.9319436"><ele>70.14285714285715</ele><time>2026-05-01T08:05:31.836Z</time></trkpt><trkpt lat="43.676447" lon="10.9318648"><ele>69.57142857142857</ele><time>2026-05-01T08:05:36.836Z</time></trkpt><trkpt lat="43.6764226" lon="10.9317795"><ele>69.0</ele><time>2026-05-01T08:05:41.84Z</time></trkpt><trkpt lat="43.6763924" lon="10.931696"><ele>68.0</ele><time>2026-05-01T08:05:47.835Z</time></trkpt><trkpt lat="43.676361" lon="10.9316095"><ele>67.0</ele><time>2026-05-01T08:05:53.835Z</time></trkpt><trkpt lat="43.6763419" lon="10.9315253"><ele>66.0</ele><time>2026-05-01T08:05:59.79Z</time></trkpt><trkpt lat="43.676312" lon="10.9314409"><ele>65.0</ele><time>2026-05-01T08:06:05.835Z</time></trkpt><trkpt lat="43.6762805" lon="10.9313581"><ele>64.0</ele><time>2026-05-01T08:06:13.839Z</time></trkpt><trkpt lat="43.6762469" lon="10.9312736"><ele>63.0</ele><time>2026-05-01T08:06:18.835Z</time></trkpt><trkpt lat="43.6762028" lon="10.9312002"><ele>62.0</ele><time>2026-05-01T08:06:24.836Z</time></trkpt><trkpt lat="43.6761599" lon="10.9311284"><ele>62.0</ele><time>2026-05-01T08:06:30.821Z</time></trkpt><trkpt lat="43.6761086" lon="10.9310552"><ele>62.00000000000001</ele><time>2026-05-01T08:06:34.836Z</time></trkpt><trkpt lat="43.6760627" lon="10.9309919"><ele>62.0</ele><time>2026-05-01T08:06:40.836Z</time></trkpt><trkpt lat="43.6760098" lon="10.9309408"><ele>62.0</ele><time>2026-05-01T08:06:47.736Z</time></trkpt><trkpt lat="43.6759636" lon="10.9308706"><ele>62.00000000000001</ele><time>2026-05-01T08:06:53.836Z</time></trkpt><trkpt lat="43.6759086" lon="10.9307979"><ele>62.0</ele><time>2026-05-01T08:07:00.836Z</time></trkpt><trkpt lat="43.6758522" lon="10.9307141"><ele>62.0</ele><time>2026-05-01T08:07:06.836Z</time></trkpt><trkpt lat="43.6757991" lon="10.9306619"><ele>60.85714285714286</ele><time>2026-05-01T08:07:12.835Z</time></trkpt><trkpt lat="43.6757522" lon="10.9306014"><ele>59.71428571428572</ele><time>2026-05-01T08:07:17.835Z</time></trkpt><trkpt lat="43.6757098" lon="10.9305064"><ele>58.57142857142857</ele><time>2026-05-01T08:07:23.836Z</time></trkpt><trkpt lat="43.6756958" lon="10.9304213"><ele>57.42857142857143</ele><time>2026-05-01T08:07:28.835Z</time></trkpt><trkpt lat="43.6756893" lon="10.9303183"><ele>56.285714285714285</ele><time>2026-05-01T08:07:36.741Z</time></trkpt><trkpt lat="43.6757111" lon="10.9302297"><ele>55.14285714285714</ele><time>2026-05-01T08:07:40.835Z</time></trkpt><trkpt lat="43.6757213" lon="10.930135"><ele>54.0</ele><time>2026-05-01T08:07:46.836Z</time></trkpt><trkpt lat="43.675741" lon="10.9300438"><ele>52.166666666666664</ele><time>2026-05-01T08:07:52.842Z</time></trkpt><trkpt lat="43.6757603" lon="10.9299569"><ele>50.333333333333336</ele><time>2026-05-01T08:07:58.835Z</time></trkpt><trkpt lat="43.6757894" lon="10.9298318"><ele>48.5</ele><time>2026-05-01T08:08:05.835Z</time></trkpt><trkpt lat="43.675797" lon="10.9297316"><ele>46.66666666666667</ele><time>2026-05-01T08:08:10.842Z</time></trkpt><trkpt lat="43.6758255" lon="10.9296354"><ele>44.833333333333336</ele><time>2026-05-01T08:08:15.835Z</time></trkpt><trkpt lat="43.6758472" lon="10.9295385"><ele>43.0</ele><time>2026-05-01T08:08:21.84Z</time></trkpt><trkpt lat="43.6758696" lon="10.929447"><ele>43.00000000000001</ele><time>2026-05-01T08:08:29.841Z</time></trkpt><trkpt lat="43.6758853" lon="10.9293503"><ele>43.0</ele><time>2026-05-01T08:08:33.836Z</time></trkpt><trkpt lat="43.675891" lon="10.9292593"><ele>43.0</ele><time>2026-05-01T08:08:38.836Z</time></trkpt><trkpt lat="43.6758976" lon="10.9291684"><ele>43.0</ele><time>2026-05-01T08:08:44.799Z</time></trkpt><trkpt lat="43.6758855" lon="10.9290663"><ele>43.0</ele><time>2026-05-01T08:08:50.859Z</time></trkpt><trkpt lat="43.6758893" lon="10.9289665"><ele>43.00000000000001</ele><time>2026-05-01T08:08:56.836Z</time></trkpt><trkpt lat="43.6758918" lon="10.9288704"><ele>43.0</ele><time>2026-05-01T08:09:02.842Z</time></trkpt><trkpt lat="43.6758928" lon="10.9287754"><ele>42.57142857142858</ele><time>2026-05-01T08:09:08.836Z</time></trkpt><trkpt lat="43.6758945" lon="10.9286723"><ele>42.142857142857146</ele><time>2026-05-01T08:09:15.547Z</time></trkpt><trkpt lat="43.6759541" lon="10.9287183"><ele>41.714285714285715</ele><time>2026-05-01T08:09:24.835Z</time></trkpt><trkpt lat="43.6759064" lon="10.9286523"><ele>41.28571428571429</ele><time>2026-05-01T08:09:59.785Z</time></trkpt><trkpt lat="43.6758983" lon="10.928554"><ele>40.85714285714286</ele><time>2026-05-01T08:10:04.836Z</time></trkpt><trkpt lat="43.6758933" lon="10.9284552"><ele>40.42857142857143</ele><time>2026-05-01T08:10:10.872Z</time></trkpt><trkpt lat="43.6758844" lon="10.9283551"><ele>40.0</ele><time>2026-05-01T08:10:17.836Z</time></trkpt><trkpt lat="43.6758763" lon="10.9282544"><ele>39.857142857142854</ele><time>2026-05-01T08:10:23.836Z</time></trkpt><trkpt lat="43.6758706" lon="10.9281667"><ele>39.714285714285715</ele><time>2026-05-01T08:10:28.836Z</time></trkpt><trkpt lat="43.6759035" lon="10.9280852"><ele>39.57142857142857</ele><time>2026-05-01T08:10:34.812Z</time></trkpt><trkpt lat="43.6759585" lon="10.9280361"><ele>39.42857142857143</ele><time>2026-05-01T08:10:42.794Z</time></trkpt><trkpt lat="43.6760059" lon="10.9279614"><ele>39.285714285714285</ele><time>2026-05-01T08:10:46.835Z</time></trkpt><trkpt lat="43.6760595" lon="10.9279115"><ele>39.142857142857146</ele><time>2026-05-01T08:10:51.837Z</time></trkpt><trkpt lat="43.6761096" lon="10.9278513"><ele>39.0</ele><time>2026-05-01T08:10:58.835Z</time></trkpt><trkpt lat="43.6761654" lon="10.9277853"><ele>39.0</ele><time>2026-05-01T08:11:04.836Z</time></trkpt><trkpt lat="43.6762141" lon="10.9277157"><ele>39.0</ele><time>2026-05-01T08:11:09.85Z</time></trkpt><trkpt lat="43.6762615" lon="10.9276458"><ele>39.0</ele><time>2026-05-01T08:11:14.838Z</time></trkpt><trkpt lat="43.6763114" lon="10.9275748"><ele>39.0</ele><time>2026-05-01T08:11:20.836Z</time></trkpt><trkpt lat="43.6763491" lon="10.9274978"><ele>39.0</ele><time>2026-05-01T08:11:32.76Z</time></trkpt><trkpt lat="43.6764032" lon="10.9274402"><ele>39.0</ele><time>2026-05-01T08:11:37.836Z</time></trkpt><trkpt lat="43.6764392" lon="10.927364"><ele>39.0</ele><time>2026-05-01T08:11:42.883Z</time></trkpt><trkpt lat="43.6764844" lon="10.9272989"><ele>39.0</ele><time>2026-05-01T08:11:48.836Z</time></trkpt><trkpt lat="43.6765309" lon="10.9272245"><ele>39.0</ele><time>2026-05-01T08:11:57.835Z</time></trkpt><trkpt lat="43.6765787" lon="10.9271488"><ele>39.0</ele><time>2026-05-01T08:12:01.836Z</time></trkpt><trkpt lat="43.676623" lon="10.927075"><ele>39.0</ele><time>2026-05-01T08:12:08.836Z</time></trkpt><trkpt lat="43.676669" lon="10.9270034"><ele>39.0</ele><time>2026-05-01T08:12:13.814Z</time></trkpt><trkpt lat="43.6767147" lon="10.9269273"><ele>39.0</ele><time>2026-05-01T08:12:19.836Z</time></trkpt><trkpt lat="43.6767665" lon="10.9268602"><ele>39.0</ele><time>2026-05-01T08:12:24.841Z</time></trkpt><trkpt lat="43.6768151" lon="10.9267996"><ele>39.0</ele><time>2026-05-01T08:12:29.836Z</time></trkpt><trkpt lat="43.6768653" lon="10.9267224"><ele>39.0</ele><time>2026-05-01T08:12:35.836Z</time></trkpt><trkpt lat="43.6768995" lon="10.9266466"><ele>39.0</ele><time>2026-05-01T08:12:40.861Z</time></trkpt><trkpt lat="43.6769361" lon="10.926565"><ele>39.0</ele><time>2026-05-01T08:12:46.835Z</time></trkpt><trkpt lat="43.6769733" lon="10.9264893"><ele>39.0</ele><time>2026-05-01T08:12:52.836Z</time></trkpt><trkpt lat="43.677017" lon="10.9264049"><ele>39.0</ele><time>2026-05-01T08:12:58.836Z</time></trkpt><trkpt lat="43.6770535" lon="10.9263306"><ele>39.0</ele><time>2026-05-01T08:13:03.861Z</time></trkpt><trkpt lat="43.6770948" lon="10.9262469"><ele>39.285714285714285</ele><time>2026-05-01T08:13:09.836Z</time></trkpt><trkpt lat="43.6771339" lon="10.9261659"><ele>39.57142857142857</ele><time>2026-05-01T08:13:15.877Z</time></trkpt><trkpt lat="43.6771724" lon="10.9260847"><ele>39.857142857142854</ele><time>2026-05-01T08:13:21.835Z</time></trkpt><trkpt lat="43.6772167" lon="10.9260153"><ele>40.14285714285714</ele><time>2026-05-01T08:13:27.835Z</time></trkpt><trkpt lat="43.6772671" lon="10.9259445"><ele>40.42857142857143</ele><time>2026-05-01T08:13:33.841Z</time></trkpt><trkpt lat="43.6773042" lon="10.9258585"><ele>40.71428571428571</ele><time>2026-05-01T08:13:39.757Z</time></trkpt><trkpt lat="43.6773292" lon="10.9257704"><ele>41.0</ele><time>2026-05-01T08:13:45.838Z</time></trkpt><trkpt lat="43.6773381" lon="10.925671"><ele>40.99999999999999</ele><time>2026-05-01T08:13:51.835Z</time></trkpt><trkpt lat="43.6773546" lon="10.9255707"><ele>41.0</ele><time>2026-05-01T08:13:57.836Z</time></trkpt><trkpt lat="43.6773833" lon="10.9254718"><ele>41.0</ele><time>2026-05-01T08:14:03.841Z</time></trkpt><trkpt lat="43.6774072" lon="10.9253755"><ele>41.0</ele><time>2026-05-01T08:14:09.835Z</time></trkpt><trkpt lat="43.6774286" lon="10.9252907"><ele>41.0</ele><time>2026-05-01T08:14:14.794Z</time></trkpt><trkpt lat="43.6774451" lon="10.9252032"><ele>40.99999999999999</ele><time>2026-05-01T08:14:19.836Z</time></trkpt><trkpt lat="43.6774681" lon="10.9251043"><ele>41.0</ele><time>2026-05-01T08:14:25.835Z</time></trkpt><trkpt lat="43.6774879" lon="10.92501"><ele>40.99999999999999</ele><time>2026-05-01T08:14:31.839Z</time></trkpt><trkpt lat="43.6775034" lon="10.9249124"><ele>41.0</ele><time>2026-05-01T08:14:38.736Z</time></trkpt><trkpt lat="43.6775171" lon="10.9248256"><ele>41.0</ele><time>2026-05-01T08:14:45.836Z</time></trkpt><trkpt lat="43.6775281" lon="10.9247244"><ele>41.0</ele><time>2026-05-01T08:14:51.835Z</time></trkpt><trkpt lat="43.6775491" lon="10.9246254"><ele>41.0</ele><time>2026-05-01T08:14:57.835Z</time></trkpt><trkpt lat="43.6775527" lon="10.9245294"><ele>40.99999999999999</ele><time>2026-05-01T08:15:03.836Z</time></trkpt><trkpt lat="43.6775702" lon="10.9244433"><ele>41.0</ele><time>2026-05-01T08:15:09.835Z</time></trkpt><trkpt lat="43.6775829" lon="10.9243469"><ele>40.99999999999999</ele><time>2026-05-01T08:15:14.835Z</time></trkpt><trkpt lat="43.6776069" lon="10.9242497"><ele>41.0</ele><time>2026-05-01T08:15:20.791Z</time></trkpt><trkpt lat="43.6776277" lon="10.9241584"><ele>41.0</ele><time>2026-05-01T08:15:27.835Z</time></trkpt><trkpt lat="43.6776496" lon="10.9240552"><ele>41.0</ele><time>2026-05-01T08:15:33.835Z</time></trkpt><trkpt lat="43.6776932" lon="10.9239846"><ele>41.0</ele><time>2026-05-01T08:15:39.736Z</time></trkpt><trkpt lat="43.6777092" lon="10.923884"><ele>40.99999999999999</ele><time>2026-05-01T08:15:45.764Z</time></trkpt><trkpt lat="43.6777034" lon="10.923795"><ele>41.0</ele><time>2026-05-01T08:15:51.835Z</time></trkpt><trkpt lat="43.6777262" lon="10.9237117"><ele>41.14285714285714</ele><time>2026-05-01T08:15:56.835Z</time></trkpt><trkpt lat="43.6777422" lon="10.9236196"><ele>41.285714285714285</ele><time>2026-05-01T08:16:01.835Z</time></trkpt><trkpt lat="43.6777403" lon="10.9235222"><ele>41.42857142857143</ele><time>2026-05-01T08:16:07.836Z</time></trkpt><trkpt lat="43.6777522" lon="10.9234197"><ele>41.57142857142857</ele><time>2026-05-01T08:16:14.836Z</time></trkpt><trkpt lat="43.6777795" lon="10.9233404"><ele>41.714285714285715</ele><time>2026-05-01T08:16:20.836Z</time></trkpt><trkpt lat="43.6777859" lon="10.9232493"><ele>41.857142857142854</ele><time>2026-05-01T08:16:26.836Z</time></trkpt><trkpt lat="43.6777996" lon="10.9231451"><ele>42.0</ele><time>2026-05-01T08:16:31.853Z</time></trkpt><trkpt lat="43.6778167" lon="10.9230563"><ele>42.57142857142857</ele><time>2026-05-01T08:16:37.836Z</time></trkpt><trkpt lat="43.6778419" lon="10.9229644"><ele>43.14285714285714</ele><time>2026-05-01T08:16:42.835Z</time></trkpt><trkpt lat="43.6778503" lon="10.9228703"><ele>43.714285714285715</ele><time>2026-05-01T08:16:49.842Z</time></trkpt><trkpt lat="43.677884" lon="10.922785"><ele>44.285714285714285</ele><time>2026-05-01T08:16:54.837Z</time></trkpt><trkpt lat="43.6779206" lon="10.9226922"><ele>44.857142857142854</ele><time>2026-05-01T08:17:01.837Z</time></trkpt><trkpt lat="43.6779597" lon="10.922615"><ele>45.42857142857143</ele><time>2026-05-01T08:17:08.837Z</time></trkpt><trkpt lat="43.678003" lon="10.9225383"><ele>46.0</ele><time>2026-05-01T08:17:15.838Z</time></trkpt><trkpt lat="43.6780432" lon="10.9224458"><ele>46.0</ele><time>2026-05-01T08:17:22.837Z</time></trkpt><trkpt lat="43.6780805" lon="10.9223655"><ele>46.0</ele><time>2026-05-01T08:17:27.837Z</time></trkpt><trkpt lat="43.6781214" lon="10.9222733"><ele>46.0</ele><time>2026-05-01T08:17:34.836Z</time></trkpt><trkpt lat="43.6781549" lon="10.9221965"><ele>46.0</ele><time>2026-05-01T08:17:40.841Z</time></trkpt><trkpt lat="43.6781929" lon="10.9221161"><ele>46.0</ele><time>2026-05-01T08:17:46.837Z</time></trkpt><trkpt lat="43.6782266" lon="10.922031"><ele>46.0</ele><time>2026-05-01T08:17:52.837Z</time></trkpt><trkpt lat="43.6782591" lon="10.9219507"><ele>46.0</ele><time>2026-05-01T08:17:58.837Z</time></trkpt><trkpt lat="43.6782998" lon="10.9218672"><ele>46.0</ele><time>2026-05-01T08:18:05.837Z</time></trkpt><trkpt lat="43.6783262" lon="10.921769"><ele>46.0</ele><time>2026-05-01T08:18:12.83Z</time></trkpt><trkpt lat="43.6783663" lon="10.9216759"><ele>46.0</ele><time>2026-05-01T08:18:19.837Z</time></trkpt><trkpt lat="43.6784018" lon="10.9215702"><ele>46.0</ele><time>2026-05-01T08:18:26.85Z</time></trkpt><trkpt lat="43.6784294" lon="10.9214889"><ele>46.0</ele><time>2026-05-01T08:18:30.836Z</time></trkpt><trkpt lat="43.6784809" lon="10.9214266"><ele>46.0</ele><time>2026-05-01T08:18:36.813Z</time></trkpt><trkpt lat="43.6785385" lon="10.9213795"><ele>46.0</ele><time>2026-05-01T08:18:41.831Z</time></trkpt><trkpt lat="43.6785979" lon="10.9213211"><ele>45.85714285714286</ele><time>2026-05-01T08:18:48.836Z</time></trkpt><trkpt lat="43.6786437" lon="10.9212475"><ele>45.71428571428571</ele><time>2026-05-01T08:18:54.837Z</time></trkpt><trkpt lat="43.6786977" lon="10.9211904"><ele>45.57142857142857</ele><time>2026-05-01T08:18:59.837Z</time></trkpt><trkpt lat="43.678762" lon="10.9211812"><ele>45.42857142857143</ele><time>2026-05-01T08:19:06.837Z</time></trkpt><trkpt lat="43.6788325" lon="10.9211879"><ele>45.28571428571429</ele><time>2026-05-01T08:19:11.837Z</time></trkpt><trkpt lat="43.678888" lon="10.9212399"><ele>45.14285714285714</ele><time>2026-05-01T08:19:16.836Z</time></trkpt><trkpt lat="43.6789286" lon="10.921315"><ele>45.0</ele><time>2026-05-01T08:19:23.837Z</time></trkpt><trkpt lat="43.678968" lon="10.9213965"><ele>45.0</ele><time>2026-05-01T08:19:29.837Z</time></trkpt><trkpt lat="43.6790089" lon="10.9214767"><ele>45.0</ele><time>2026-05-01T08:19:35.853Z</time></trkpt><trkpt lat="43.6790392" lon="10.9215589"><ele>45.0</ele><time>2026-05-01T08:19:40.836Z</time></trkpt><trkpt lat="43.679082" lon="10.9216394"><ele>45.0</ele><time>2026-05-01T08:19:46.837Z</time></trkpt><trkpt lat="43.6791224" lon="10.9217131"><ele>45.0</ele><time>2026-05-01T08:19:53.837Z</time></trkpt><trkpt lat="43.6791681" lon="10.9217905"><ele>45.0</ele><time>2026-05-01T08:19:59.836Z</time></trkpt><trkpt lat="43.6792083" lon="10.9218728"><ele>45.0</ele><time>2026-05-01T08:20:05.837Z</time></trkpt><trkpt lat="43.6792408" lon="10.9219691"><ele>45.857142857142854</ele><time>2026-05-01T08:20:12.837Z</time></trkpt><trkpt lat="43.6792476" lon="10.9220585"><ele>46.714285714285715</ele><time>2026-05-01T08:20:18.836Z</time></trkpt><trkpt lat="43.679243" lon="10.9221596"><ele>47.57142857142857</ele><time>2026-05-01T08:20:25.845Z</time></trkpt><trkpt lat="43.6792319" lon="10.9222549"><ele>48.42857142857143</ele><time>2026-05-01T08:20:30.845Z</time></trkpt><trkpt lat="43.6792291" lon="10.9223543"><ele>49.28571428571429</ele><time>2026-05-01T08:20:37.844Z</time></trkpt><trkpt lat="43.6792202" lon="10.9224589"><ele>50.142857142857146</ele><time>2026-05-01T08:20:44.837Z</time></trkpt><trkpt lat="43.6792097" lon="10.922552"><ele>51.0</ele><time>2026-05-01T08:20:52.845Z</time></trkpt><trkpt lat="43.6791976" lon="10.9226514"><ele>51.42857142857143</ele><time>2026-05-01T08:20:58.844Z</time></trkpt><trkpt lat="43.6791924" lon="10.9227544"><ele>51.85714285714286</ele><time>2026-05-01T08:21:03.862Z</time></trkpt><trkpt lat="43.6791843" lon="10.9228563"><ele>52.285714285714285</ele><time>2026-05-01T08:21:09.845Z</time></trkpt><trkpt lat="43.6791803" lon="10.9229601"><ele>52.714285714285715</ele><time>2026-05-01T08:21:15.845Z</time></trkpt><trkpt lat="43.6791706" lon="10.923058"><ele>53.14285714285714</ele><time>2026-05-01T08:21:21.845Z</time></trkpt><trkpt lat="43.6791717" lon="10.9231521"><ele>53.57142857142857</ele><time>2026-05-01T08:21:27.836Z</time></trkpt><trkpt lat="43.6791604" lon="10.9232509"><ele>54.0</ele><time>2026-05-01T08:21:33.882Z</time></trkpt><trkpt lat="43.6791515" lon="10.9233392"><ele>54.57142857142857</ele><time>2026-05-01T08:21:38.837Z</time></trkpt><trkpt lat="43.6791435" lon="10.9234351"><ele>55.14285714285714</ele><time>2026-05-01T08:21:44.844Z</time></trkpt><trkpt lat="43.6791396" lon="10.9235331"><ele>55.71428571428572</ele><time>2026-05-01T08:21:50.844Z</time></trkpt><trkpt lat="43.6791396" lon="10.9236367"><ele>56.28571428571429</ele><time>2026-05-01T08:21:56.836Z</time></trkpt><trkpt lat="43.6791339" lon="10.9237292"><ele>56.85714285714286</ele><time>2026-05-01T08:22:02.841Z</time></trkpt><trkpt lat="43.6791312" lon="10.9238187"><ele>57.42857142857144</ele><time>2026-05-01T08:22:07.845Z</time></trkpt><trkpt lat="43.6791337" lon="10.9239194"><ele>58.00000000000001</ele><time>2026-05-01T08:22:13.837Z</time></trkpt><trkpt lat="43.6791373" lon="10.9240129"><ele>58.00000000000001</ele><time>2026-05-01T08:22:19.837Z</time></trkpt><trkpt lat="43.679142" lon="10.924116"><ele>58.0</ele><time>2026-05-01T08:22:25.837Z</time></trkpt><trkpt lat="43.6791442" lon="10.9242147"><ele>58.00000000000001</ele><time>2026-05-01T08:22:31.859Z</time></trkpt><trkpt lat="43.6791504" lon="10.9243121"><ele>58.00000000000001</ele><time>2026-05-01T08:22:37.845Z</time></trkpt><trkpt lat="43.6791585" lon="10.9244093"><ele>58.0</ele><time>2026-05-01T08:22:43.845Z</time></trkpt><trkpt lat="43.6791679" lon="10.9245125"><ele>58.00000000000001</ele><time>2026-05-01T08:22:50.837Z</time></trkpt><trkpt lat="43.6791774" lon="10.9246018"><ele>58.00000000000001</ele><time>2026-05-01T08:22:55.861Z</time></trkpt><trkpt lat="43.6791671" lon="10.9247129"><ele>58.85714285714286</ele><time>2026-05-01T08:23:02.836Z</time></trkpt><trkpt lat="43.6791699" lon="10.9248168"><ele>59.714285714285715</ele><time>2026-05-01T08:23:08.839Z</time></trkpt><trkpt lat="43.6791836" lon="10.9249191"><ele>60.57142857142857</ele><time>2026-05-01T08:23:16.845Z</time></trkpt><trkpt lat="43.6791959" lon="10.92501"><ele>61.42857142857143</ele><time>2026-05-01T08:23:21.866Z</time></trkpt><trkpt lat="43.6791954" lon="10.9251067"><ele>62.28571428571428</ele><time>2026-05-01T08:23:27.802Z</time></trkpt><trkpt lat="43.6792032" lon="10.9252006"><ele>63.14285714285714</ele><time>2026-05-01T08:23:34.837Z</time></trkpt><trkpt lat="43.6792092" lon="10.9253031"><ele>64.0</ele><time>2026-05-01T08:23:41.836Z</time></trkpt><trkpt lat="43.6792278" lon="10.9253878"><ele>64.57142857142857</ele><time>2026-05-01T08:23:47.845Z</time></trkpt><trkpt lat="43.6792462" lon="10.9254808"><ele>65.14285714285714</ele><time>2026-05-01T08:23:52.846Z</time></trkpt><trkpt lat="43.6792647" lon="10.9255677"><ele>65.71428571428571</ele><time>2026-05-01T08:23:57.845Z</time></trkpt><trkpt lat="43.6793017" lon="10.9256493"><ele>66.28571428571428</ele><time>2026-05-01T08:24:03.837Z</time></trkpt><trkpt lat="43.6793338" lon="10.9257424"><ele>66.85714285714286</ele><time>2026-05-01T08:24:10.845Z</time></trkpt><trkpt lat="43.6793651" lon="10.9258261"><ele>67.42857142857142</ele><time>2026-05-01T08:24:16.844Z</time></trkpt><trkpt lat="43.6793863" lon="10.9259247"><ele>68.0</ele><time>2026-05-01T08:24:22.845Z</time></trkpt><trkpt lat="43.6793981" lon="10.9260144"><ele>68.28571428571428</ele><time>2026-05-01T08:24:31.845Z</time></trkpt><trkpt lat="43.6794201" lon="10.9261015"><ele>68.57142857142857</ele><time>2026-05-01T08:24:38.845Z</time></trkpt><trkpt lat="43.6794332" lon="10.9261937"><ele>68.85714285714286</ele><time>2026-05-01T08:24:44.844Z</time></trkpt><trkpt lat="43.6794456" lon="10.9262867"><ele>69.14285714285714</ele><time>2026-05-01T08:24:49.837Z</time></trkpt><trkpt lat="43.6794709" lon="10.9263766"><ele>69.42857142857143</ele><time>2026-05-01T08:24:55.869Z</time></trkpt><trkpt lat="43.679503" lon="10.9264665"><ele>69.71428571428571</ele><time>2026-05-01T08:25:00.844Z</time></trkpt><trkpt lat="43.6795261" lon="10.9265536"><ele>70.0</ele><time>2026-05-01T08:25:07.786Z</time></trkpt><trkpt lat="43.6795564" lon="10.9266303"><ele>71.0</ele><time>2026-05-01T08:25:13.845Z</time></trkpt><trkpt lat="43.6796004" lon="10.9267177"><ele>72.0</ele><time>2026-05-01T08:25:20.845Z</time></trkpt><trkpt lat="43.6796421" lon="10.9267899"><ele>73.0</ele><time>2026-05-01T08:25:27.845Z</time></trkpt><trkpt lat="43.6796874" lon="10.9268541"><ele>74.0</ele><time>2026-05-01T08:25:32.845Z</time></trkpt><trkpt lat="43.6797329" lon="10.9269389"><ele>75.0</ele><time>2026-05-01T08:25:39.844Z</time></trkpt><trkpt lat="43.6797795" lon="10.9270197"><ele>76.0</ele><time>2026-05-01T08:25:45.845Z</time></trkpt><trkpt lat="43.6798206" lon="10.927106"><ele>77.0</ele><time>2026-05-01T08:25:50.837Z</time></trkpt><trkpt lat="43.679852" lon="10.9271956"><ele>77.28571428571429</ele><time>2026-05-01T08:25:57.836Z</time></trkpt><trkpt lat="43.679874" lon="10.9272844"><ele>77.57142857142857</ele><time>2026-05-01T08:26:04.837Z</time></trkpt><trkpt lat="43.6799019" lon="10.9273833"><ele>77.85714285714286</ele><time>2026-05-01T08:26:10.836Z</time></trkpt><trkpt lat="43.6799237" lon="10.9274711"><ele>78.14285714285714</ele><time>2026-05-01T08:26:16.837Z</time></trkpt><trkpt lat="43.6799478" lon="10.9275671"><ele>78.42857142857143</ele><time>2026-05-01T08:26:23.859Z</time></trkpt><trkpt lat="43.6799814" lon="10.9276581"><ele>78.71428571428572</ele><time>2026-05-01T08:26:29.836Z</time></trkpt><trkpt lat="43.6800098" lon="10.9277434"><ele>79.0</ele><time>2026-05-01T08:26:35.836Z</time></trkpt><trkpt lat="43.6800401" lon="10.927827"><ele>79.00000000000001</ele><time>2026-05-01T08:26:41.837Z</time></trkpt><trkpt lat="43.6800632" lon="10.9279115"><ele>79.0</ele><time>2026-05-01T08:26:55.837Z</time></trkpt><trkpt lat="43.6801043" lon="10.9279935"><ele>79.0</ele><time>2026-05-01T08:27:01.837Z</time></trkpt><trkpt lat="43.6801456" lon="10.9280734"><ele>79.0</ele><time>2026-05-01T08:27:08.84Z</time></trkpt><trkpt lat="43.6801875" lon="10.9281546"><ele>79.0</ele><time>2026-05-01T08:27:13.695Z</time></trkpt><trkpt lat="43.6802273" lon="10.9282238"><ele>79.00000000000001</ele><time>2026-05-01T08:27:18.837Z</time></trkpt><trkpt lat="43.6802804" lon="10.9283069"><ele>79.0</ele><time>2026-05-01T08:27:26.361Z</time></trkpt><trkpt lat="43.680319" lon="10.9283793"><ele>79.71428571428572</ele><time>2026-05-01T08:27:31.837Z</time></trkpt><trkpt lat="43.6803615" lon="10.9284459"><ele>80.42857142857143</ele><time>2026-05-01T08:27:37.838Z</time></trkpt><trkpt lat="43.6804058" lon="10.9285161"><ele>81.14285714285714</ele><time>2026-05-01T08:27:42.837Z</time></trkpt><trkpt lat="43.6804551" lon="10.9285937"><ele>81.85714285714286</ele><time>2026-05-01T08:27:48.838Z</time></trkpt><trkpt lat="43.6804922" lon="10.9286651"><ele>82.57142857142857</ele><time>2026-05-01T08:27:54.81Z</time></trkpt><trkpt lat="43.6805272" lon="10.9287451"><ele>83.28571428571429</ele><time>2026-05-01T08:28:00.837Z</time></trkpt><trkpt lat="43.6805701" lon="10.9288262"><ele>84.0</ele><time>2026-05-01T08:28:06.838Z</time></trkpt><trkpt lat="43.6806144" lon="10.9289079"><ele>84.0</ele><time>2026-05-01T08:28:13.893Z</time></trkpt><trkpt lat="43.6806455" lon="10.928993"><ele>84.0</ele><time>2026-05-01T08:28:18.838Z</time></trkpt><trkpt lat="43.6806892" lon="10.9290773"><ele>84.0</ele><time>2026-05-01T08:28:24.838Z</time></trkpt><trkpt lat="43.6807265" lon="10.9291629"><ele>84.0</ele><time>2026-05-01T08:28:29.748Z</time></trkpt><trkpt lat="43.6807659" lon="10.9292431"><ele>84.0</ele><time>2026-05-01T08:28:35.826Z</time></trkpt><trkpt lat="43.6808078" lon="10.9293259"><ele>84.0</ele><time>2026-05-01T08:28:49.838Z</time></trkpt><trkpt lat="43.6808433" lon="10.9293997"><ele>84.0</ele><time>2026-05-01T08:28:53.838Z</time></trkpt><trkpt lat="43.6808844" lon="10.9294744"><ele>84.0</ele><time>2026-05-01T08:29:00.838Z</time></trkpt><trkpt lat="43.6809349" lon="10.929554"><ele>84.0</ele><time>2026-05-01T08:29:07.838Z</time></trkpt><trkpt lat="43.6809842" lon="10.9296259"><ele>84.0</ele><time>2026-05-01T08:29:14.838Z</time></trkpt><trkpt lat="43.6810378" lon="10.9297185"><ele>84.0</ele><time>2026-05-01T08:29:20.837Z</time></trkpt><trkpt lat="43.6810716" lon="10.9298022"><ele>84.0</ele><time>2026-05-01T08:29:27.817Z</time></trkpt><trkpt lat="43.6811147" lon="10.9298728"><ele>84.0</ele><time>2026-05-01T08:29:31.837Z</time></trkpt><trkpt lat="43.681162" lon="10.9299512"><ele>84.0</ele><time>2026-05-01T08:29:37.838Z</time></trkpt><trkpt lat="43.6812009" lon="10.9300324"><ele>84.85714285714286</ele><time>2026-05-01T08:29:45.838Z</time></trkpt><trkpt lat="43.6812419" lon="10.9301169"><ele>85.71428571428572</ele><time>2026-05-01T08:29:51.838Z</time></trkpt><trkpt lat="43.6812911" lon="10.930192"><ele>86.57142857142857</ele><time>2026-05-01T08:29:56.837Z</time></trkpt><trkpt lat="43.6813248" lon="10.930277"><ele>87.42857142857143</ele><time>2026-05-01T08:30:02.838Z</time></trkpt><trkpt lat="43.6813644" lon="10.9303622"><ele>88.28571428571429</ele><time>2026-05-01T08:30:08.838Z</time></trkpt><trkpt lat="43.6814089" lon="10.9304362"><ele>89.14285714285714</ele><time>2026-05-01T08:30:16.838Z</time></trkpt><trkpt lat="43.6814548" lon="10.9305075"><ele>90.0</ele><time>2026-05-01T08:30:21.86Z</time></trkpt><trkpt lat="43.6815018" lon="10.9305959"><ele>90.0</ele><time>2026-05-01T08:30:28.838Z</time></trkpt><trkpt lat="43.6815491" lon="10.9306643"><ele>90.0</ele><time>2026-05-01T08:30:34.837Z</time></trkpt><trkpt lat="43.6815931" lon="10.9307357"><ele>90.0</ele><time>2026-05-01T08:30:40.867Z</time></trkpt><trkpt lat="43.6816446" lon="10.9308268"><ele>90.0</ele><time>2026-05-01T08:30:47.838Z</time></trkpt><trkpt lat="43.6816857" lon="10.9309033"><ele>90.0</ele><time>2026-05-01T08:30:53.837Z</time></trkpt><trkpt lat="43.6817274" lon="10.9309722"><ele>90.0</ele><time>2026-05-01T08:30:58.838Z</time></trkpt><trkpt lat="43.6817706" lon="10.9310447"><ele>90.0</ele><time>2026-05-01T08:31:05.748Z</time></trkpt><trkpt lat="43.6818124" lon="10.9311233"><ele>90.28571428571428</ele><time>2026-05-01T08:31:10.838Z</time></trkpt><trkpt lat="43.6818557" lon="10.9312049"><ele>90.57142857142858</ele><time>2026-05-01T08:31:17.837Z</time></trkpt><trkpt lat="43.6819011" lon="10.931289"><ele>90.85714285714286</ele><time>2026-05-01T08:31:24.838Z</time></trkpt><trkpt lat="43.6819356" lon="10.9313677"><ele>91.14285714285714</ele><time>2026-05-01T08:31:30.838Z</time></trkpt><trkpt lat="43.6819736" lon="10.9314546"><ele>91.42857142857142</ele><time>2026-05-01T08:31:36.838Z</time></trkpt><trkpt lat="43.6820019" lon="10.9315335"><ele>91.71428571428572</ele><time>2026-05-01T08:31:42.838Z</time></trkpt><trkpt lat="43.6820341" lon="10.9316141"><ele>92.0</ele><time>2026-05-01T08:31:48.838Z</time></trkpt><trkpt lat="43.6820685" lon="10.9316941"><ele>94.14285714285715</ele><time>2026-05-01T08:31:54.838Z</time></trkpt><trkpt lat="43.6821042" lon="10.9317724"><ele>96.28571428571428</ele><time>2026-05-01T08:32:00.838Z</time></trkpt><trkpt lat="43.6821422" lon="10.9318498"><ele>98.42857142857143</ele><time>2026-05-01T08:32:06.837Z</time></trkpt><trkpt lat="43.6821865" lon="10.9319274"><ele>100.57142857142858</ele><time>2026-05-01T08:32:12.838Z</time></trkpt><trkpt lat="43.6822259" lon="10.9319961"><ele>102.71428571428572</ele><time>2026-05-01T08:32:18.837Z</time></trkpt><trkpt lat="43.6822693" lon="10.9320717"><ele>104.85714285714286</ele><time>2026-05-01T08:32:24.838Z</time></trkpt><trkpt lat="43.6823099" lon="10.9321408"><ele>107.0</ele><time>2026-05-01T08:32:30.838Z</time></trkpt><trkpt lat="43.6823532" lon="10.9322097"><ele>107.00000000000001</ele><time>2026-05-01T08:32:36.837Z</time></trkpt><trkpt lat="43.6823929" lon="10.9322857"><ele>107.0</ele><time>2026-05-01T08:32:42.838Z</time></trkpt><trkpt lat="43.6824339" lon="10.9323557"><ele>107.0</ele><time>2026-05-01T08:32:48.838Z</time></trkpt><trkpt lat="43.6824861" lon="10.9324277"><ele>107.0</ele><time>2026-05-01T08:32:54.857Z</time></trkpt><trkpt lat="43.6825423" lon="10.9324957"><ele>107.0</ele><time>2026-05-01T08:33:01.838Z</time></trkpt><trkpt lat="43.6826075" lon="10.9325317"><ele>107.00000000000001</ele><time>2026-05-01T08:33:06.837Z</time></trkpt><trkpt lat="43.6826759" lon="10.9325741"><ele>107.0</ele><time>2026-05-01T08:33:12.837Z</time></trkpt><trkpt lat="43.6827395" lon="10.9326181"><ele>108.57142857142858</ele><time>2026-05-01T08:33:19.838Z</time></trkpt><trkpt lat="43.6828118" lon="10.932658"><ele>110.14285714285714</ele><time>2026-05-01T08:33:24.838Z</time></trkpt><trkpt lat="43.682865" lon="10.9327167"><ele>111.71428571428572</ele><time>2026-05-01T08:33:30.838Z</time></trkpt><trkpt lat="43.6829165" lon="10.9327799"><ele>113.28571428571429</ele><time>2026-05-01T08:33:36.849Z</time></trkpt><trkpt lat="43.6829638" lon="10.932869"><ele>114.85714285714286</ele><time>2026-05-01T08:33:41.838Z</time></trkpt><trkpt lat="43.6830112" lon="10.9329462"><ele>116.42857142857143</ele><time>2026-05-01T08:33:46.838Z</time></trkpt><trkpt lat="43.6830576" lon="10.9330156"><ele>118.0</ele><time>2026-05-01T08:33:53.837Z</time></trkpt><trkpt lat="43.6831028" lon="10.9330818"><ele>118.0</ele><time>2026-05-01T08:33:58.838Z</time></trkpt><trkpt lat="43.6831513" lon="10.9331378"><ele>118.0</ele><time>2026-05-01T08:34:03.837Z</time></trkpt><trkpt lat="43.6832088" lon="10.9331969"><ele>118.0</ele><time>2026-05-01T08:34:08.838Z</time></trkpt><trkpt lat="43.6832637" lon="10.9332434"><ele>118.0</ele><time>2026-05-01T08:34:14.838Z</time></trkpt><trkpt lat="43.6833222" lon="10.9332759"><ele>118.0</ele><time>2026-05-01T08:34:19.837Z</time></trkpt><trkpt lat="43.6833941" lon="10.9333039"><ele>118.0</ele><time>2026-05-01T08:34:26.838Z</time></trkpt><trkpt lat="43.6834584" lon="10.9333259"><ele>118.0</ele><time>2026-05-01T08:34:31.838Z</time></trkpt><trkpt lat="43.6835316" lon="10.933332"><ele>118.0</ele><time>2026-05-01T08:34:38.838Z</time></trkpt><trkpt lat="43.6835928" lon="10.9333568"><ele>118.0</ele><time>2026-05-01T08:34:43.772Z</time></trkpt><trkpt lat="43.6836566" lon="10.9333894"><ele>118.0</ele><time>2026-05-01T08:34:48.727Z</time></trkpt><trkpt lat="43.683708" lon="10.9334402"><ele>118.0</ele><time>2026-05-01T08:34:52.837Z</time></trkpt><trkpt lat="43.6837756" lon="10.9334923"><ele>118.0</ele><time>2026-05-01T08:34:59.837Z</time></trkpt><trkpt lat="43.6838204" lon="10.9335627"><ele>118.0</ele><time>2026-05-01T08:35:05.837Z</time></trkpt><trkpt lat="43.6838877" lon="10.9336157"><ele>118.0</ele><time>2026-05-01T08:35:12.838Z</time></trkpt><trkpt lat="43.6839479" lon="10.9336548"><ele>118.14285714285714</ele><time>2026-05-01T08:35:17.837Z</time></trkpt><trkpt lat="43.6840172" lon="10.9337158"><ele>118.28571428571429</ele><time>2026-05-01T08:35:25.838Z</time></trkpt><trkpt lat="43.6840742" lon="10.9337698"><ele>118.42857142857143</ele><time>2026-05-01T08:35:32.779Z</time></trkpt><trkpt lat="43.684128" lon="10.9338206"><ele>118.57142857142857</ele><time>2026-05-01T08:35:36.837Z</time></trkpt><trkpt lat="43.6841808" lon="10.9338808"><ele>118.71428571428572</ele><time>2026-05-01T08:35:43.811Z</time></trkpt><trkpt lat="43.6842338" lon="10.9339502"><ele>118.85714285714286</ele><time>2026-05-01T08:35:48.768Z</time></trkpt><trkpt lat="43.6842739" lon="10.9340195"><ele>119.0</ele><time>2026-05-01T08:35:54.838Z</time></trkpt><trkpt lat="43.6843091" lon="10.9341002"><ele>119.0</ele><time>2026-05-01T08:36:00.837Z</time></trkpt><trkpt lat="43.6843533" lon="10.9341792"><ele>119.0</ele><time>2026-05-01T08:36:05.838Z</time></trkpt><trkpt lat="43.6843937" lon="10.9342607"><ele>119.0</ele><time>2026-05-01T08:36:09.837Z</time></trkpt><trkpt lat="43.6844289" lon="10.9343453"><ele>119.0</ele><time>2026-05-01T08:36:15.837Z</time></trkpt><trkpt lat="43.6844651" lon="10.9344209"><ele>119.0</ele><time>2026-05-01T08:36:19.86Z</time></trkpt><trkpt lat="43.6844943" lon="10.9344992"><ele>119.0</ele><time>2026-05-01T08:36:23.838Z</time></trkpt><trkpt lat="43.6845235" lon="10.9345792"><ele>119.0</ele><time>2026-05-01T08:36:30.837Z</time></trkpt><trkpt lat="43.6845606" lon="10.9346718"><ele>118.42857142857143</ele><time>2026-05-01T08:36:35.783Z</time></trkpt><trkpt lat="43.6845903" lon="10.9347592"><ele>117.85714285714286</ele><time>2026-05-01T08:36:42.789Z</time></trkpt><trkpt lat="43.6846409" lon="10.9348546"><ele>117.28571428571428</ele><time>2026-05-01T08:36:48.838Z</time></trkpt><trkpt lat="43.6846818" lon="10.9349466"><ele>116.71428571428571</ele><time>2026-05-01T08:36:53.837Z</time></trkpt><trkpt lat="43.6847166" lon="10.9350198"><ele>116.14285714285714</ele><time>2026-05-01T08:36:58.822Z</time></trkpt><trkpt lat="43.6847766" lon="10.9350662"><ele>115.57142857142856</ele><time>2026-05-01T08:37:04.838Z</time></trkpt><trkpt lat="43.6848342" lon="10.9350283"><ele>114.99999999999999</ele><time>2026-05-01T08:37:11.82Z</time></trkpt><trkpt lat="43.6848788" lon="10.9349665"><ele>114.99999999999999</ele><time>2026-05-01T08:37:15.838Z</time></trkpt><trkpt lat="43.6849243" lon="10.9348942"><ele>115.0</ele><time>2026-05-01T08:37:22.792Z</time></trkpt><trkpt lat="43.684968" lon="10.9348277"><ele>114.99999999999999</ele><time>2026-05-01T08:37:26.739Z</time></trkpt><trkpt lat="43.6850153" lon="10.9347687"><ele>114.99999999999999</ele><time>2026-05-01T08:37:30.838Z</time></trkpt><trkpt lat="43.6850655" lon="10.9346996"><ele>115.0</ele><time>2026-05-01T08:37:37.838Z</time></trkpt><trkpt lat="43.6851085" lon="10.9346359"><ele>114.99999999999999</ele><time>2026-05-01T08:37:41.838Z</time></trkpt><trkpt lat="43.6851699" lon="10.9345546"><ele>114.99999999999999</ele><time>2026-05-01T08:37:48.86Z</time></trkpt><trkpt lat="43.6852193" lon="10.9344969"><ele>114.99999999999999</ele><time>2026-05-01T08:37:54.837Z</time></trkpt><trkpt lat="43.6852745" lon="10.9344184"><ele>115.0</ele><time>2026-05-01T08:38:00.837Z</time></trkpt><trkpt lat="43.6853327" lon="10.9343493"><ele>114.99999999999999</ele><time>2026-05-01T08:38:06.837Z</time></trkpt><trkpt lat="43.6853822" lon="10.9342924"><ele>114.99999999999999</ele><time>2026-05-01T08:38:12.838Z</time></trkpt><trkpt lat="43.6854324" lon="10.9342308"><ele>115.0</ele><time>2026-05-01T08:38:18.819Z</time></trkpt><trkpt lat="43.6854592" lon="10.9341477"><ele>114.99999999999999</ele><time>2026-05-01T08:38:24.515Z</time></trkpt><trkpt lat="43.6854432" lon="10.9340418"><ele>114.99999999999999</ele><time>2026-05-01T08:38:29.845Z</time></trkpt><trkpt lat="43.6854283" lon="10.9339453"><ele>114.99999999999999</ele><time>2026-05-01T08:38:36.845Z</time></trkpt><trkpt lat="43.6854048" lon="10.9338539"><ele>115.0</ele><time>2026-05-01T08:38:42.845Z</time></trkpt><trkpt lat="43.6853937" lon="10.933767"><ele>114.99999999999999</ele><time>2026-05-01T08:38:47.844Z</time></trkpt><trkpt lat="43.6853747" lon="10.9336683"><ele>114.99999999999999</ele><time>2026-05-01T08:38:54.844Z</time></trkpt><trkpt lat="43.6853581" lon="10.9335762"><ele>115.0</ele><time>2026-05-01T08:38:59.845Z</time></trkpt><trkpt lat="43.6853444" lon="10.9334912"><ele>114.99999999999999</ele><time>2026-05-01T08:39:06.771Z</time></trkpt><trkpt lat="43.6853319" lon="10.9333946"><ele>114.99999999999999</ele><time>2026-05-01T08:39:11.845Z</time></trkpt><trkpt lat="43.6853154" lon="10.9332925"><ele>114.57142857142856</ele><time>2026-05-01T08:39:18.845Z</time></trkpt><trkpt lat="43.6852907" lon="10.9331901"><ele>114.14285714285714</ele><time>2026-05-01T08:39:25.844Z</time></trkpt><trkpt lat="43.6852743" lon="10.9330975"><ele>113.71428571428571</ele><time>2026-05-01T08:39:32.885Z</time></trkpt><trkpt lat="43.6852603" lon="10.9330047"><ele>113.28571428571428</ele><time>2026-05-01T08:39:37.845Z</time></trkpt><trkpt lat="43.6852413" lon="10.9329195"><ele>112.85714285714286</ele><time>2026-05-01T08:39:42.844Z</time></trkpt><trkpt lat="43.6852255" lon="10.9328184"><ele>112.42857142857143</ele><time>2026-05-01T08:39:48.845Z</time></trkpt><trkpt lat="43.6852087" lon="10.9327252"><ele>112.0</ele><time>2026-05-01T08:39:54.847Z</time></trkpt><trkpt lat="43.6851882" lon="10.9326232"><ele>114.28571428571428</ele><time>2026-05-01T08:39:59.844Z</time></trkpt><trkpt lat="43.6851675" lon="10.9325283"><ele>116.57142857142857</ele><time>2026-05-01T08:40:07.845Z</time></trkpt><trkpt lat="43.6851518" lon="10.932442"><ele>118.85714285714286</ele><time>2026-05-01T08:40:13.871Z</time></trkpt><trkpt lat="43.6851387" lon="10.9323421"><ele>121.14285714285714</ele><time>2026-05-01T08:40:18.844Z</time></trkpt><trkpt lat="43.685132" lon="10.9322534"><ele>123.42857142857142</ele><time>2026-05-01T08:40:24.845Z</time></trkpt><trkpt lat="43.6851632" lon="10.9321384"><ele>125.71428571428571</ele><time>2026-05-01T08:40:30.845Z</time></trkpt><trkpt lat="43.6852012" lon="10.9320553"><ele>128.0</ele><time>2026-05-01T08:40:37.861Z</time></trkpt><trkpt lat="43.6852292" lon="10.9319591"><ele>124.99999999999999</ele><time>2026-05-01T08:40:42.844Z</time></trkpt><trkpt lat="43.6852624" lon="10.9318762"><ele>122.0</ele><time>2026-05-01T08:40:49.827Z</time></trkpt><trkpt lat="43.6852909" lon="10.9317853"><ele>119.0</ele><time>2026-05-01T08:40:54.845Z</time></trkpt><trkpt lat="43.6853224" lon="10.9316976"><ele>116.0</ele><time>2026-05-01T08:40:59.729Z</time></trkpt><trkpt lat="43.6853484" lon="10.9316002"><ele>112.99999999999999</ele><time>2026-05-01T08:41:04.845Z</time></trkpt><trkpt lat="43.6853772" lon="10.9314913"><ele>110.0</ele><time>2026-05-01T08:41:11.845Z</time></trkpt><trkpt lat="43.6854103" lon="10.9313874"><ele>109.99999999999999</ele><time>2026-05-01T08:41:17.816Z</time></trkpt><trkpt lat="43.6854588" lon="10.9313284"><ele>110.0</ele><time>2026-05-01T08:41:24.846Z</time></trkpt><trkpt lat="43.6855313" lon="10.9312827"><ele>110.0</ele><time>2026-05-01T08:41:30.872Z</time></trkpt><trkpt lat="43.6855945" lon="10.9312939"><ele>110.0</ele><time>2026-05-01T08:41:34.844Z</time></trkpt><trkpt lat="43.6856556" lon="10.9313158"><ele>110.0</ele><time>2026-05-01T08:41:38.772Z</time></trkpt><trkpt lat="43.6857193" lon="10.9313483"><ele>109.99999999999999</ele><time>2026-05-01T08:41:43.849Z</time></trkpt><trkpt lat="43.6857827" lon="10.931377"><ele>110.0</ele><time>2026-05-01T08:41:48.845Z</time></trkpt><trkpt lat="43.6858446" lon="10.9314005"><ele>109.99999999999999</ele><time>2026-05-01T08:41:53.845Z</time></trkpt><trkpt lat="43.6859088" lon="10.9314266"><ele>110.0</ele><time>2026-05-01T08:41:58.845Z</time></trkpt><trkpt lat="43.6859653" lon="10.9314857"><ele>110.0</ele><time>2026-05-01T08:42:05.844Z</time></trkpt><trkpt lat="43.6860148" lon="10.93154"><ele>110.0</ele><time>2026-05-01T08:42:10.845Z</time></trkpt><trkpt lat="43.6860618" lon="10.9316004"><ele>110.0</ele><time>2026-05-01T08:42:15.845Z</time></trkpt><trkpt lat="43.686114" lon="10.9316638"><ele>109.99999999999999</ele><time>2026-05-01T08:42:20.845Z</time></trkpt><trkpt lat="43.6861664" lon="10.9317256"><ele>110.0</ele><time>2026-05-01T08:42:26.845Z</time></trkpt><trkpt lat="43.6862105" lon="10.9317962"><ele>109.14285714285714</ele><time>2026-05-01T08:42:30.845Z</time></trkpt><trkpt lat="43.686269" lon="10.931846"><ele>108.28571428571428</ele><time>2026-05-01T08:42:36.845Z</time></trkpt><trkpt lat="43.6863248" lon="10.9319083"><ele>107.42857142857142</ele><time>2026-05-01T08:42:42.845Z</time></trkpt><trkpt lat="43.6863743" lon="10.9319824"><ele>106.57142857142857</ele><time>2026-05-01T08:42:47.845Z</time></trkpt><trkpt lat="43.6864238" lon="10.9320588"><ele>105.71428571428572</ele><time>2026-05-01T08:42:52.845Z</time></trkpt><trkpt lat="43.6864755" lon="10.932114"><ele>104.85714285714285</ele><time>2026-05-01T08:42:57.845Z</time></trkpt><trkpt lat="43.6865214" lon="10.9321826"><ele>104.0</ele><time>2026-05-01T08:43:03.845Z</time></trkpt><trkpt lat="43.686575" lon="10.932252"><ele>104.0</ele><time>2026-05-01T08:43:08.845Z</time></trkpt><trkpt lat="43.6866343" lon="10.9323148"><ele>104.0</ele><time>2026-05-01T08:43:15.791Z</time></trkpt><trkpt lat="43.6866796" lon="10.932382"><ele>104.0</ele><time>2026-05-01T08:43:20.845Z</time></trkpt><trkpt lat="43.6867405" lon="10.9324311"><ele>104.0</ele><time>2026-05-01T08:43:25.845Z</time></trkpt><trkpt lat="43.6867945" lon="10.9324826"><ele>104.0</ele><time>2026-05-01T08:43:31.844Z</time></trkpt><trkpt lat="43.6868701" lon="10.9324774"><ele>104.0</ele><time>2026-05-01T08:43:38.749Z</time></trkpt><trkpt lat="43.6869353" lon="10.9325159"><ele>104.0</ele><time>2026-05-01T08:43:43.845Z</time></trkpt><trkpt lat="43.6870004" lon="10.9325304"><ele>104.14285714285714</ele><time>2026-05-01T08:43:48.846Z</time></trkpt><trkpt lat="43.6870775" lon="10.9325269"><ele>104.28571428571429</ele><time>2026-05-01T08:43:54.844Z</time></trkpt><trkpt lat="43.6871517" lon="10.9325272"><ele>104.42857142857143</ele><time>2026-05-01T08:44:04.818Z</time></trkpt><trkpt lat="43.6872233" lon="10.9325194"><ele>104.57142857142857</ele><time>2026-05-01T08:44:09.845Z</time></trkpt><trkpt lat="43.687298" lon="10.9325117"><ele>104.71428571428572</ele><time>2026-05-01T08:44:15.845Z</time></trkpt><trkpt lat="43.6873659" lon="10.9324805"><ele>104.85714285714286</ele><time>2026-05-01T08:44:20.845Z</time></trkpt><trkpt lat="43.6874348" lon="10.9324571"><ele>105.0</ele><time>2026-05-01T08:44:26.847Z</time></trkpt><trkpt lat="43.6874981" lon="10.9324383"><ele>105.0</ele><time>2026-05-01T08:44:34.707Z</time></trkpt><trkpt lat="43.6875669" lon="10.9324069"><ele>105.0</ele><time>2026-05-01T08:44:40.845Z</time></trkpt><trkpt lat="43.6876353" lon="10.9323855"><ele>105.0</ele><time>2026-05-01T08:44:45.809Z</time></trkpt><trkpt lat="43.6876969" lon="10.9323618"><ele>105.0</ele><time>2026-05-01T08:44:50.838Z</time></trkpt><trkpt lat="43.6877586" lon="10.9323357"><ele>105.0</ele><time>2026-05-01T08:44:55.844Z</time></trkpt><trkpt lat="43.6878221" lon="10.9323098"><ele>105.0</ele><time>2026-05-01T08:45:00.845Z</time></trkpt><trkpt lat="43.6878852" lon="10.9322883"><ele>105.0</ele><time>2026-05-01T08:45:05.837Z</time></trkpt><trkpt lat="43.687946" lon="10.9322588"><ele>104.85714285714286</ele><time>2026-05-01T08:45:10.845Z</time></trkpt><trkpt lat="43.6880069" lon="10.9322348"><ele>104.71428571428572</ele><time>2026-05-01T08:45:15.87Z</time></trkpt><trkpt lat="43.6880736" lon="10.9322112"><ele>104.57142857142857</ele><time>2026-05-01T08:45:22.845Z</time></trkpt><trkpt lat="43.6881348" lon="10.9321771"><ele>104.42857142857143</ele><time>2026-05-01T08:45:26.745Z</time></trkpt><trkpt lat="43.6881992" lon="10.9321484"><ele>104.28571428571429</ele><time>2026-05-01T08:45:32.844Z</time></trkpt><trkpt lat="43.6882734" lon="10.9321328"><ele>104.14285714285714</ele><time>2026-05-01T08:45:38.845Z</time></trkpt><trkpt lat="43.6883523" lon="10.9321028"><ele>104.0</ele><time>2026-05-01T08:45:44.845Z</time></trkpt><trkpt lat="43.6884145" lon="10.932085"><ele>104.0</ele><time>2026-05-01T08:45:51.849Z</time></trkpt><trkpt lat="43.6884861" lon="10.9320403"><ele>104.0</ele><time>2026-05-01T08:45:56.845Z</time></trkpt><trkpt lat="43.6885589" lon="10.9320005"><ele>104.0</ele><time>2026-05-01T08:46:01.845Z</time></trkpt><trkpt lat="43.6886296" lon="10.9319871"><ele>104.0</ele><time>2026-05-01T08:46:08.842Z</time></trkpt><trkpt lat="43.6886955" lon="10.9319585"><ele>104.0</ele><time>2026-05-01T08:46:13.845Z</time></trkpt><trkpt lat="43.6887584" lon="10.9319394"><ele>104.0</ele><time>2026-05-01T08:46:19.845Z</time></trkpt><trkpt lat="43.6888321" lon="10.9319024"><ele>104.0</ele><time>2026-05-01T08:46:25.845Z</time></trkpt><trkpt lat="43.6889058" lon="10.93188"><ele>102.57142857142857</ele><time>2026-05-01T08:46:31.844Z</time></trkpt><trkpt lat="43.6889751" lon="10.9318515"><ele>101.14285714285715</ele><time>2026-05-01T08:46:38.842Z</time></trkpt><trkpt lat="43.689041" lon="10.9318294"><ele>99.71428571428572</ele><time>2026-05-01T08:46:45.841Z</time></trkpt><trkpt lat="43.6891055" lon="10.9318007"><ele>98.28571428571428</ele><time>2026-05-01T08:46:50.842Z</time></trkpt><trkpt lat="43.6891711" lon="10.9317736"><ele>96.85714285714286</ele><time>2026-05-01T08:46:55.782Z</time></trkpt><trkpt lat="43.6892436" lon="10.9317423"><ele>95.42857142857143</ele><time>2026-05-01T08:47:00.842Z</time></trkpt><trkpt lat="43.6893073" lon="10.9317073"><ele>94.0</ele><time>2026-05-01T08:47:06.867Z</time></trkpt><trkpt lat="43.6893651" lon="10.9316693"><ele>94.0</ele><time>2026-05-01T08:47:11.842Z</time></trkpt><trkpt lat="43.6894303" lon="10.9315978"><ele>94.0</ele><time>2026-05-01T08:47:18.845Z</time></trkpt><trkpt lat="43.6894852" lon="10.9315439"><ele>94.0</ele><time>2026-05-01T08:47:23.841Z</time></trkpt><trkpt lat="43.6895378" lon="10.9314723"><ele>94.0</ele><time>2026-05-01T08:47:29.842Z</time></trkpt><trkpt lat="43.6895941" lon="10.9314113"><ele>94.0</ele><time>2026-05-01T08:47:34.841Z</time></trkpt><trkpt lat="43.6896447" lon="10.9313432"><ele>94.0</ele><time>2026-05-01T08:47:40.842Z</time></trkpt><trkpt lat="43.6897079" lon="10.9312766"><ele>94.0</ele><time>2026-05-01T08:47:47.841Z</time></trkpt><trkpt lat="43.6897652" lon="10.9312052"><ele>94.0</ele><time>2026-05-01T08:47:52.852Z</time></trkpt><trkpt lat="43.6898188" lon="10.9311348"><ele>94.0</ele><time>2026-05-01T08:47:58.841Z</time></trkpt><trkpt lat="43.6898738" lon="10.9310676"><ele>94.0</ele><time>2026-05-01T08:48:04.842Z</time></trkpt><trkpt lat="43.6899263" lon="10.9310014"><ele>94.0</ele><time>2026-05-01T08:48:10.842Z</time></trkpt><trkpt lat="43.6899833" lon="10.9309435"><ele>94.0</ele><time>2026-05-01T08:48:16.841Z</time></trkpt><trkpt lat="43.6900432" lon="10.9308819"><ele>94.0</ele><time>2026-05-01T08:48:22.862Z</time></trkpt><trkpt lat="43.6900929" lon="10.9308117"><ele>94.0</ele><time>2026-05-01T08:48:28.807Z</time></trkpt><trkpt lat="43.6901432" lon="10.9307584"><ele>93.28571428571428</ele><time>2026-05-01T08:48:33.842Z</time></trkpt><trkpt lat="43.6901963" lon="10.9306902"><ele>92.57142857142857</ele><time>2026-05-01T08:48:39.841Z</time></trkpt><trkpt lat="43.690247" lon="10.9306281"><ele>91.85714285714286</ele><time>2026-05-01T08:48:45.841Z</time></trkpt><trkpt lat="43.690296" lon="10.9305679"><ele>91.14285714285714</ele><time>2026-05-01T08:48:50.842Z</time></trkpt><trkpt lat="43.6903414" lon="10.9305012"><ele>90.42857142857143</ele><time>2026-05-01T08:48:55.841Z</time></trkpt><trkpt lat="43.6903936" lon="10.9304416"><ele>89.71428571428571</ele><time>2026-05-01T08:49:00.842Z</time></trkpt><trkpt lat="43.6904418" lon="10.9303837"><ele>89.0</ele><time>2026-05-01T08:49:07.842Z</time></trkpt><trkpt lat="43.6905049" lon="10.9303569"><ele>90.42857142857142</ele><time>2026-05-01T08:49:13.424Z</time></trkpt><trkpt lat="43.690579" lon="10.9303758"><ele>91.85714285714286</ele><time>2026-05-01T08:49:19.843Z</time></trkpt><trkpt lat="43.6906442" lon="10.9303858"><ele>93.28571428571428</ele><time>2026-05-01T08:49:27.843Z</time></trkpt><trkpt lat="43.6906658" lon="10.930284"><ele>94.71428571428571</ele><time>2026-05-01T08:49:32.857Z</time></trkpt><trkpt lat="43.6906747" lon="10.930191"><ele>96.14285714285714</ele><time>2026-05-01T08:49:38.843Z</time></trkpt><trkpt lat="43.6906978" lon="10.930099"><ele>97.57142857142857</ele><time>2026-05-01T08:49:45.854Z</time></trkpt><trkpt lat="43.6907273" lon="10.9300124"><ele>99.0</ele><time>2026-05-01T08:49:52.863Z</time></trkpt><trkpt lat="43.6907679" lon="10.9299248"><ele>100.14285714285715</ele><time>2026-05-01T08:50:00.842Z</time></trkpt><trkpt lat="43.6907908" lon="10.9298297"><ele>101.28571428571428</ele><time>2026-05-01T08:50:06.843Z</time></trkpt><trkpt lat="43.6907934" lon="10.929725"><ele>102.42857142857143</ele><time>2026-05-01T08:50:13.843Z</time></trkpt><trkpt lat="43.6907746" lon="10.9296314"><ele>103.57142857142858</ele><time>2026-05-01T08:50:19.86Z</time></trkpt><trkpt lat="43.6907479" lon="10.929552"><ele>104.71428571428572</ele><time>2026-05-01T08:50:24.806Z</time></trkpt><trkpt lat="43.6907298" lon="10.9294606"><ele>105.85714285714286</ele><time>2026-05-01T08:50:32.843Z</time></trkpt><trkpt lat="43.6907187" lon="10.9293745"><ele>107.0</ele><time>2026-05-01T08:50:39.843Z</time></trkpt><trkpt lat="43.6907105" lon="10.9292867"><ele>107.28571428571429</ele><time>2026-05-01T08:50:45.843Z</time></trkpt><trkpt lat="43.6906923" lon="10.9291855"><ele>107.57142857142857</ele><time>2026-05-01T08:50:52.843Z</time></trkpt><trkpt lat="43.6906786" lon="10.929099"><ele>107.85714285714286</ele><time>2026-05-01T08:50:56.843Z</time></trkpt><trkpt lat="43.6906647" lon="10.929006"><ele>108.14285714285714</ele><time>2026-05-01T08:51:02.843Z</time></trkpt><trkpt lat="43.6906442" lon="10.9289113"><ele>108.42857142857143</ele><time>2026-05-01T08:51:08.842Z</time></trkpt><trkpt lat="43.6906179" lon="10.9288195"><ele>108.71428571428572</ele><time>2026-05-01T08:51:14.842Z</time></trkpt><trkpt lat="43.6905921" lon="10.9287297"><ele>109.0</ele><time>2026-05-01T08:51:20.861Z</time></trkpt><trkpt lat="43.6905745" lon="10.9286443"><ele>109.0</ele><time>2026-05-01T08:51:25.837Z</time></trkpt><trkpt lat="43.6905532" lon="10.9285441"><ele>109.0</ele><time>2026-05-01T08:51:30.843Z</time></trkpt><trkpt lat="43.690541" lon="10.9284267"><ele>109.0</ele><time>2026-05-01T08:51:37.843Z</time></trkpt><trkpt lat="43.6905457" lon="10.928327"><ele>109.0</ele><time>2026-05-01T08:51:44.843Z</time></trkpt><trkpt lat="43.6905657" lon="10.9282393"><ele>109.0</ele><time>2026-05-01T08:51:50.843Z</time></trkpt><trkpt lat="43.6905871" lon="10.9281556"><ele>109.0</ele><time>2026-05-01T08:51:56.86Z</time></trkpt><trkpt lat="43.6906152" lon="10.9280702"><ele>109.0</ele><time>2026-05-01T08:52:01.763Z</time></trkpt><trkpt lat="43.6906703" lon="10.9280182"><ele>109.0</ele><time>2026-05-01T08:52:07.865Z</time></trkpt><trkpt lat="43.6907338" lon="10.9279724"><ele>109.0</ele><time>2026-05-01T08:52:12.842Z</time></trkpt><trkpt lat="43.6907925" lon="10.9279272"><ele>109.0</ele><time>2026-05-01T08:52:18.858Z</time></trkpt><trkpt lat="43.6908639" lon="10.9279168"><ele>109.0</ele><time>2026-05-01T08:52:23.843Z</time></trkpt><trkpt lat="43.6909336" lon="10.9278909"><ele>109.0</ele><time>2026-05-01T08:52:29.843Z</time></trkpt><trkpt lat="43.6910018" lon="10.9278553"><ele>109.0</ele><time>2026-05-01T08:52:34.851Z</time></trkpt><trkpt lat="43.6910605" lon="10.927813"><ele>109.0</ele><time>2026-05-01T08:52:41.776Z</time></trkpt><trkpt lat="43.6911192" lon="10.9277768"><ele>109.0</ele><time>2026-05-01T08:52:46.867Z</time></trkpt><trkpt lat="43.6911733" lon="10.9277134"><ele>109.0</ele><time>2026-05-01T08:52:52.854Z</time></trkpt><trkpt lat="43.6912385" lon="10.9277005"><ele>109.0</ele><time>2026-05-01T08:52:59.843Z</time></trkpt><trkpt lat="43.6913017" lon="10.9276622"><ele>109.0</ele><time>2026-05-01T08:53:04.843Z</time></trkpt><trkpt lat="43.6913685" lon="10.9276236"><ele>109.0</ele><time>2026-05-01T08:53:08.843Z</time></trkpt><trkpt lat="43.6914343" lon="10.9275919"><ele>109.0</ele><time>2026-05-01T08:53:14.843Z</time></trkpt><trkpt lat="43.6915046" lon="10.9275712"><ele>109.0</ele><time>2026-05-01T08:53:21.864Z</time></trkpt><trkpt lat="43.6915666" lon="10.9275527"><ele>109.0</ele><time>2026-05-01T08:53:25.843Z</time></trkpt><trkpt lat="43.6916405" lon="10.9275209"><ele>109.0</ele><time>2026-05-01T08:53:32.879Z</time></trkpt><trkpt lat="43.6917069" lon="10.9275156"><ele>109.0</ele><time>2026-05-01T08:53:38.834Z</time></trkpt><trkpt lat="43.6917859" lon="10.9275563"><ele>109.0</ele><time>2026-05-01T08:53:44.843Z</time></trkpt><trkpt lat="43.6918452" lon="10.9275927"><ele>109.0</ele><time>2026-05-01T08:53:49.881Z</time></trkpt><trkpt lat="43.6919117" lon="10.9276075"><ele>109.0</ele><time>2026-05-01T08:53:56.843Z</time></trkpt><trkpt lat="43.6919821" lon="10.9276161"><ele>109.0</ele><time>2026-05-01T08:54:01.843Z</time></trkpt><trkpt lat="43.6920511" lon="10.9276321"><ele>107.57142857142857</ele><time>2026-05-01T08:54:08.816Z</time></trkpt><trkpt lat="43.6921179" lon="10.9276645"><ele>106.14285714285714</ele><time>2026-05-01T08:54:14.821Z</time></trkpt><trkpt lat="43.6921721" lon="10.927714"><ele>104.71428571428572</ele><time>2026-05-01T08:54:18.843Z</time></trkpt><trkpt lat="43.6922179" lon="10.9277843"><ele>103.28571428571428</ele><time>2026-05-01T08:54:24.847Z</time></trkpt><trkpt lat="43.6922478" lon="10.9278625"><ele>101.85714285714285</ele><time>2026-05-01T08:54:30.843Z</time></trkpt><trkpt lat="43.6922511" lon="10.9279632"><ele>100.42857142857143</ele><time>2026-05-01T08:54:36.864Z</time></trkpt><trkpt lat="43.692267" lon="10.9280558"><ele>99.0</ele><time>2026-05-01T08:54:43.86Z</time></trkpt><trkpt lat="43.6922898" lon="10.9281385"><ele>99.0</ele><time>2026-05-01T08:54:49.86Z</time></trkpt><trkpt lat="43.692307" lon="10.9282269"><ele>99.0</ele><time>2026-05-01T08:54:56.859Z</time></trkpt><trkpt lat="43.6922894" lon="10.9283198"><ele>99.0</ele><time>2026-05-01T08:55:03.843Z</time></trkpt><trkpt lat="43.6922885" lon="10.9284092"><ele>99.0</ele><time>2026-05-01T08:55:08.854Z</time></trkpt><trkpt lat="43.6922991" lon="10.9285012"><ele>99.0</ele><time>2026-05-01T08:55:14.89Z</time></trkpt><trkpt lat="43.6923376" lon="10.9285833"><ele>99.0</ele><time>2026-05-01T08:55:22.843Z</time></trkpt><trkpt lat="43.6923902" lon="10.9286579"><ele>99.0</ele><time>2026-05-01T08:55:29.864Z</time></trkpt><trkpt lat="43.6924221" lon="10.9287502"><ele>98.71428571428572</ele><time>2026-05-01T08:55:36.801Z</time></trkpt><trkpt lat="43.6924584" lon="10.9288364"><ele>98.42857142857142</ele><time>2026-05-01T08:55:44.843Z</time></trkpt><trkpt lat="43.6925199" lon="10.928885"><ele>98.14285714285714</ele><time>2026-05-01T08:55:49.842Z</time></trkpt><trkpt lat="43.6925843" lon="10.9289112"><ele>97.85714285714286</ele><time>2026-05-01T08:55:55.789Z</time></trkpt><trkpt lat="43.6926486" lon="10.9289197"><ele>97.57142857142858</ele><time>2026-05-01T08:56:00.764Z</time></trkpt><trkpt lat="43.6927061" lon="10.9289662"><ele>97.28571428571428</ele><time>2026-05-01T08:56:05.862Z</time></trkpt><trkpt lat="43.6927674" lon="10.9290138"><ele>97.0</ele><time>2026-05-01T08:56:10.843Z</time></trkpt><trkpt lat="43.6928273" lon="10.929043"><ele>95.42857142857143</ele><time>2026-05-01T08:56:16.843Z</time></trkpt><trkpt lat="43.6928838" lon="10.929091"><ele>93.85714285714286</ele><time>2026-05-01T08:56:22.842Z</time></trkpt><trkpt lat="43.6929363" lon="10.9291536"><ele>92.28571428571429</ele><time>2026-05-01T08:56:29.82Z</time></trkpt><trkpt lat="43.6930098" lon="10.929153"><ele>90.71428571428572</ele><time>2026-05-01T08:56:37.843Z</time></trkpt><trkpt lat="43.6930699" lon="10.9291248"><ele>89.14285714285714</ele><time>2026-05-01T08:56:50.861Z</time></trkpt><trkpt lat="43.6931369" lon="10.9290987"><ele>87.57142857142858</ele><time>2026-05-01T08:57:13.862Z</time></trkpt><trkpt lat="43.6932076" lon="10.9290932"><ele>86.0</ele><time>2026-05-01T08:57:51.782Z</time></trkpt><trkpt lat="43.693273" lon="10.9290832"><ele>86.00000000000001</ele><time>2026-05-01T08:57:57.842Z</time></trkpt><trkpt lat="43.6933334" lon="10.9290555"><ele>86.0</ele><time>2026-05-01T08:58:04.843Z</time></trkpt><trkpt lat="43.6933965" lon="10.9290389"><ele>86.0</ele><time>2026-05-01T08:58:09.843Z</time></trkpt><trkpt lat="43.6934681" lon="10.9290309"><ele>86.0</ele><time>2026-05-01T08:58:17.842Z</time></trkpt><trkpt lat="43.6935214" lon="10.9289788"><ele>86.0</ele><time>2026-05-01T08:58:23.842Z</time></trkpt><trkpt lat="43.6935311" lon="10.9288897"><ele>86.00000000000001</ele><time>2026-05-01T08:58:30.752Z</time></trkpt><trkpt lat="43.6935569" lon="10.9288081"><ele>86.0</ele><time>2026-05-01T08:58:36.842Z</time></trkpt><trkpt lat="43.693591" lon="10.9287243"><ele>85.14285714285715</ele><time>2026-05-01T08:58:44.842Z</time></trkpt><trkpt lat="43.6936452" lon="10.928674"><ele>84.28571428571429</ele><time>2026-05-01T08:58:50.859Z</time></trkpt><trkpt lat="43.6937076" lon="10.9286402"><ele>83.42857142857143</ele><time>2026-05-01T08:58:56.843Z</time></trkpt><trkpt lat="43.6937692" lon="10.928608"><ele>82.57142857142858</ele><time>2026-05-01T08:59:02.855Z</time></trkpt><trkpt lat="43.6938415" lon="10.9286115"><ele>81.71428571428572</ele><time>2026-05-01T08:59:09.843Z</time></trkpt><trkpt lat="43.693905" lon="10.9286128"><ele>80.85714285714286</ele><time>2026-05-01T08:59:15.842Z</time></trkpt><trkpt lat="43.6939714" lon="10.9286037"><ele>80.0</ele><time>2026-05-01T08:59:21.843Z</time></trkpt><trkpt lat="43.6940264" lon="10.9286606"><ele>80.0</ele><time>2026-05-01T08:59:27.787Z</time></trkpt><trkpt lat="43.6940902" lon="10.9286902"><ele>80.0</ele><time>2026-05-01T08:59:33.857Z</time></trkpt><trkpt lat="43.694158" lon="10.9286993"><ele>80.0</ele><time>2026-05-01T08:59:40.843Z</time></trkpt><trkpt lat="43.6942212" lon="10.9286841"><ele>80.0</ele><time>2026-05-01T08:59:46.872Z</time></trkpt><trkpt lat="43.694286" lon="10.928683"><ele>80.0</ele><time>2026-05-01T08:59:53.26Z</time></trkpt><trkpt lat="43.694355" lon="10.9286644"><ele>80.0</ele><time>2026-05-01T08:59:58.844Z</time></trkpt><trkpt lat="43.6944215" lon="10.9286671"><ele>80.0</ele><time>2026-05-01T09:00:03.856Z</time></trkpt><trkpt lat="43.6944835" lon="10.9287068"><ele>79.0</ele><time>2026-05-01T09:00:09.864Z</time></trkpt><trkpt lat="43.6945557" lon="10.9287163"><ele>78.0</ele><time>2026-05-01T09:00:16.843Z</time></trkpt><trkpt lat="43.6946253" lon="10.9287024"><ele>77.0</ele><time>2026-05-01T09:00:22.863Z</time></trkpt><trkpt lat="43.6946943" lon="10.9286602"><ele>76.0</ele><time>2026-05-01T09:00:28.844Z</time></trkpt><trkpt lat="43.6947567" lon="10.9286466"><ele>75.0</ele><time>2026-05-01T09:00:33.814Z</time></trkpt><trkpt lat="43.694819" lon="10.9286336"><ele>74.0</ele><time>2026-05-01T09:00:38.864Z</time></trkpt><trkpt lat="43.6948801" lon="10.928611"><ele>73.0</ele><time>2026-05-01T09:00:43.844Z</time></trkpt><trkpt lat="43.6949448" lon="10.9286005"><ele>73.0</ele><time>2026-05-01T09:00:49.785Z</time></trkpt><trkpt lat="43.6950079" lon="10.9285892"><ele>73.0</ele><time>2026-05-01T09:00:55.844Z</time></trkpt><trkpt lat="43.6950732" lon="10.9285636"><ele>73.0</ele><time>2026-05-01T09:01:01.791Z</time></trkpt><trkpt lat="43.6951442" lon="10.9285613"><ele>73.0</ele><time>2026-05-01T09:01:07.863Z</time></trkpt><trkpt lat="43.6952145" lon="10.9285547"><ele>73.0</ele><time>2026-05-01T09:01:14.844Z</time></trkpt><trkpt lat="43.6952778" lon="10.9285279"><ele>73.0</ele><time>2026-05-01T09:01:20.86Z</time></trkpt><trkpt lat="43.6953452" lon="10.9285141"><ele>73.0</ele><time>2026-05-01T09:01:26.837Z</time></trkpt><trkpt lat="43.6954033" lon="10.9284624"><ele>72.28571428571428</ele><time>2026-05-01T09:01:32.844Z</time></trkpt><trkpt lat="43.6954645" lon="10.9284231"><ele>71.57142857142857</ele><time>2026-05-01T09:01:38.844Z</time></trkpt><trkpt lat="43.6955359" lon="10.9284261"><ele>70.85714285714286</ele><time>2026-05-01T09:01:46.843Z</time></trkpt><trkpt lat="43.6956015" lon="10.9284005"><ele>70.14285714285714</ele><time>2026-05-01T09:01:51.881Z</time></trkpt><trkpt lat="43.6956556" lon="10.928326"><ele>69.42857142857143</ele><time>2026-05-01T09:01:58.85Z</time></trkpt><trkpt lat="43.6957115" lon="10.9282742"><ele>68.71428571428571</ele><time>2026-05-01T09:02:04.859Z</time></trkpt><trkpt lat="43.6957686" lon="10.9282372"><ele>68.0</ele><time>2026-05-01T09:02:11.858Z</time></trkpt><trkpt lat="43.6958187" lon="10.9281799"><ele>67.99999999999999</ele><time>2026-05-01T09:02:18.856Z</time></trkpt><trkpt lat="43.6958695" lon="10.9281245"><ele>68.0</ele><time>2026-05-01T09:02:22.844Z</time></trkpt><trkpt lat="43.6959417" lon="10.9280837"><ele>68.0</ele><time>2026-05-01T09:02:30.853Z</time></trkpt><trkpt lat="43.696001" lon="10.9280336"><ele>68.0</ele><time>2026-05-01T09:02:37.844Z</time></trkpt><trkpt lat="43.6960683" lon="10.9279833"><ele>68.0</ele><time>2026-05-01T09:02:45.844Z</time></trkpt><trkpt lat="43.6961345" lon="10.927962"><ele>67.99999999999999</ele><time>2026-05-01T09:02:52.844Z</time></trkpt><trkpt lat="43.6961883" lon="10.9279133"><ele>68.0</ele><time>2026-05-01T09:03:02.855Z</time></trkpt><trkpt lat="43.6962437" lon="10.9278508"><ele>66.71428571428571</ele><time>2026-05-01T09:03:11.786Z</time></trkpt><trkpt lat="43.6962998" lon="10.9278052"><ele>65.42857142857143</ele><time>2026-05-01T09:03:18.857Z</time></trkpt><trkpt lat="43.6963607" lon="10.927746"><ele>64.14285714285714</ele><time>2026-05-01T09:03:25.884Z</time></trkpt><trkpt lat="43.6964263" lon="10.9276887"><ele>62.857142857142854</ele><time>2026-05-01T09:03:33.784Z</time></trkpt><trkpt lat="43.6964933" lon="10.9276491"><ele>61.57142857142857</ele><time>2026-05-01T09:03:40.844Z</time></trkpt><trkpt lat="43.6965624" lon="10.927616"><ele>60.285714285714285</ele><time>2026-05-01T09:03:47.843Z</time></trkpt><trkpt lat="43.6966195" lon="10.9275747"><ele>59.0</ele><time>2026-05-01T09:03:53.864Z</time></trkpt><trkpt lat="43.6966673" lon="10.9275156"><ele>59.0</ele><time>2026-05-01T09:03:58.881Z</time></trkpt><trkpt lat="43.6967265" lon="10.9274571"><ele>59.0</ele><time>2026-05-01T09:04:04.785Z</time></trkpt><trkpt lat="43.6967784" lon="10.9274062"><ele>59.0</ele><time>2026-05-01T09:04:10.843Z</time></trkpt><trkpt lat="43.6968219" lon="10.9273376"><ele>59.0</ele><time>2026-05-01T09:04:16.843Z</time></trkpt><trkpt lat="43.6968637" lon="10.9272681"><ele>59.0</ele><time>2026-05-01T09:04:22.863Z</time></trkpt><trkpt lat="43.6969094" lon="10.9272068"><ele>59.0</ele><time>2026-05-01T09:04:28.844Z</time></trkpt><trkpt lat="43.6969603" lon="10.9271421"><ele>59.0</ele><time>2026-05-01T09:04:34.858Z</time></trkpt><trkpt lat="43.6970045" lon="10.9270774"><ele>57.42857142857142</ele><time>2026-05-01T09:04:40.844Z</time></trkpt><trkpt lat="43.6970516" lon="10.927012"><ele>55.85714285714286</ele><time>2026-05-01T09:04:46.844Z</time></trkpt><trkpt lat="43.6971119" lon="10.9269659"><ele>54.285714285714285</ele><time>2026-05-01T09:04:52.862Z</time></trkpt><trkpt lat="43.6971705" lon="10.9269081"><ele>52.71428571428571</ele><time>2026-05-01T09:04:58.769Z</time></trkpt><trkpt lat="43.6972425" lon="10.9268806"><ele>51.14285714285714</ele><time>2026-05-01T09:05:05.792Z</time></trkpt><trkpt lat="43.6972894" lon="10.9268185"><ele>49.57142857142857</ele><time>2026-05-01T09:05:10.843Z</time></trkpt><trkpt lat="43.6973506" lon="10.9267719"><ele>48.0</ele><time>2026-05-01T09:05:16.844Z</time></trkpt><trkpt lat="43.6974204" lon="10.9267424"><ele>47.99999999999999</ele><time>2026-05-01T09:05:23.844Z</time></trkpt><trkpt lat="43.6974851" lon="10.9267469"><ele>48.0</ele><time>2026-05-01T09:05:29.843Z</time></trkpt><trkpt lat="43.6975484" lon="10.9267343"><ele>48.0</ele><time>2026-05-01T09:05:35.792Z</time></trkpt><trkpt lat="43.6976092" lon="10.9267084"><ele>48.0</ele><time>2026-05-01T09:05:41.843Z</time></trkpt><trkpt lat="43.6976775" lon="10.9267149"><ele>48.0</ele><time>2026-05-01T09:05:48.858Z</time></trkpt><trkpt lat="43.6977497" lon="10.9267215"><ele>47.99999999999999</ele><time>2026-05-01T09:05:55.844Z</time></trkpt><trkpt lat="43.6978152" lon="10.9267317"><ele>48.0</ele><time>2026-05-01T09:06:03.858Z</time></trkpt><trkpt lat="43.6978789" lon="10.9267569"><ele>46.71428571428571</ele><time>2026-05-01T09:06:08.864Z</time></trkpt><trkpt lat="43.6979292" lon="10.926701"><ele>45.42857142857143</ele><time>2026-05-01T09:06:16.788Z</time></trkpt><trkpt lat="43.6979497" lon="10.926605"><ele>44.14285714285714</ele><time>2026-05-01T09:06:52.844Z</time></trkpt><trkpt lat="43.6979726" lon="10.9265131"><ele>42.857142857142854</ele><time>2026-05-01T09:07:02.846Z</time></trkpt><trkpt lat="43.697931" lon="10.9264294"><ele>41.57142857142857</ele><time>2026-05-01T09:07:08.854Z</time></trkpt><trkpt lat="43.6979111" lon="10.9263432"><ele>40.285714285714285</ele><time>2026-05-01T09:07:14.808Z</time></trkpt><trkpt lat="43.6978974" lon="10.9262483"><ele>39.0</ele><time>2026-05-01T09:07:22.844Z</time></trkpt><trkpt lat="43.69789" lon="10.9261477"><ele>39.0</ele><time>2026-05-01T09:07:31.855Z</time></trkpt><trkpt lat="43.6978775" lon="10.926059"><ele>39.0</ele><time>2026-05-01T09:07:37.811Z</time></trkpt><trkpt lat="43.6978428" lon="10.9259835"><ele>39.0</ele><time>2026-05-01T09:07:44.844Z</time></trkpt><trkpt lat="43.6978136" lon="10.9259018"><ele>39.0</ele><time>2026-05-01T09:07:53.863Z</time></trkpt><trkpt lat="43.6978888" lon="10.925903"><ele>39.0</ele><time>2026-05-01T09:08:03.857Z</time></trkpt><trkpt lat="43.6979555" lon="10.925916"><ele>39.0</ele><time>2026-05-01T09:08:09.844Z</time></trkpt><trkpt lat="43.6980216" lon="10.9259315"><ele>39.0</ele><time>2026-05-01T09:08:15.843Z</time></trkpt><trkpt lat="43.6980798" lon="10.9259894"><ele>39.0</ele><time>2026-05-01T09:08:21.861Z</time></trkpt><trkpt lat="43.6981317" lon="10.926039"><ele>39.0</ele><time>2026-05-01T09:08:26.826Z</time></trkpt><trkpt lat="43.6982" lon="10.9260792"><ele>39.0</ele><time>2026-05-01T09:08:32.882Z</time></trkpt><trkpt lat="43.6982587" lon="10.9261155"><ele>39.0</ele><time>2026-05-01T09:08:37.863Z</time></trkpt><trkpt lat="43.6983208" lon="10.9261303"><ele>39.0</ele><time>2026-05-01T09:08:42.747Z</time></trkpt><trkpt lat="43.6983898" lon="10.9261415"><ele>39.0</ele><time>2026-05-01T09:08:47.856Z</time></trkpt><trkpt lat="43.6984556" lon="10.9261405"><ele>39.0</ele><time>2026-05-01T09:08:52.844Z</time></trkpt><trkpt lat="43.6985259" lon="10.926119"><ele>38.85714285714286</ele><time>2026-05-01T09:08:58.749Z</time></trkpt><trkpt lat="43.6985984" lon="10.9260907"><ele>38.71428571428571</ele><time>2026-05-01T09:09:04.859Z</time></trkpt><trkpt lat="43.6986598" lon="10.9260592"><ele>38.57142857142857</ele><time>2026-05-01T09:09:09.866Z</time></trkpt><trkpt lat="43.6987099" lon="10.9259949"><ele>38.42857142857143</ele><time>2026-05-01T09:09:14.844Z</time></trkpt><trkpt lat="43.6987593" lon="10.9259173"><ele>38.28571428571429</ele><time>2026-05-01T09:09:20.86Z</time></trkpt><trkpt lat="43.6988015" lon="10.9258456"><ele>38.14285714285714</ele><time>2026-05-01T09:09:25.765Z</time></trkpt><trkpt lat="43.6988489" lon="10.9257811"><ele>38.0</ele><time>2026-05-01T09:09:31.844Z</time></trkpt><trkpt lat="43.6989004" lon="10.9257063"><ele>38.285714285714285</ele><time>2026-05-01T09:09:37.863Z</time></trkpt><trkpt lat="43.6989466" lon="10.9256392"><ele>38.57142857142858</ele><time>2026-05-01T09:09:42.844Z</time></trkpt><trkpt lat="43.6989888" lon="10.9255713"><ele>38.85714285714286</ele><time>2026-05-01T09:09:47.844Z</time></trkpt><trkpt lat="43.6990355" lon="10.925494"><ele>39.14285714285714</ele><time>2026-05-01T09:09:53.863Z</time></trkpt><trkpt lat="43.6990788" lon="10.9254291"><ele>39.42857142857143</ele><time>2026-05-01T09:09:58.844Z</time></trkpt><trkpt lat="43.6991361" lon="10.9253643"><ele>39.714285714285715</ele><time>2026-05-01T09:10:04.858Z</time></trkpt><trkpt lat="43.6991937" lon="10.9253277"><ele>40.0</ele><time>2026-05-01T09:10:09.866Z</time></trkpt><trkpt lat="43.6992598" lon="10.9253534"><ele>40.0</ele><time>2026-05-01T09:10:14.848Z</time></trkpt><trkpt lat="43.6993318" lon="10.9253989"><ele>40.0</ele><time>2026-05-01T09:10:19.848Z</time></trkpt><trkpt lat="43.6993817" lon="10.9254568"><ele>40.0</ele><time>2026-05-01T09:10:24.855Z</time></trkpt><trkpt lat="43.6994244" lon="10.925523"><ele>40.0</ele><time>2026-05-01T09:10:29.862Z</time></trkpt><trkpt lat="43.6994984" lon="10.9255909"><ele>40.0</ele><time>2026-05-01T09:10:35.845Z</time></trkpt><trkpt lat="43.6995613" lon="10.925642"><ele>40.0</ele><time>2026-05-01T09:10:39.843Z</time></trkpt><trkpt lat="43.6996202" lon="10.9256922"><ele>40.0</ele><time>2026-05-01T09:10:44.848Z</time></trkpt><trkpt lat="43.6996865" lon="10.9257332"><ele>40.285714285714285</ele><time>2026-05-01T09:10:50.849Z</time></trkpt><trkpt lat="43.6997465" lon="10.9257616"><ele>40.57142857142857</ele><time>2026-05-01T09:10:55.849Z</time></trkpt><trkpt lat="43.6998153" lon="10.9258055"><ele>40.85714285714286</ele><time>2026-05-01T09:11:01.849Z</time></trkpt><trkpt lat="43.6998824" lon="10.9258309"><ele>41.14285714285714</ele><time>2026-05-01T09:11:07.848Z</time></trkpt><trkpt lat="43.699944" lon="10.9258631"><ele>41.42857142857143</ele><time>2026-05-01T09:11:12.86Z</time></trkpt><trkpt lat="43.7000126" lon="10.925886"><ele>41.714285714285715</ele><time>2026-05-01T09:11:18.848Z</time></trkpt><trkpt lat="43.7000863" lon="10.9259208"><ele>42.0</ele><time>2026-05-01T09:11:24.849Z</time></trkpt><trkpt lat="43.7001538" lon="10.9259611"><ele>41.0</ele><time>2026-05-01T09:11:31.849Z</time></trkpt><trkpt lat="43.7002196" lon="10.9259901"><ele>40.0</ele><time>2026-05-01T09:11:37.028Z</time></trkpt><trkpt lat="43.7002834" lon="10.925996"><ele>39.0</ele><time>2026-05-01T09:11:41.355Z</time></trkpt><trkpt lat="43.7003554" lon="10.9260267"><ele>38.0</ele><time>2026-05-01T09:11:46.692Z</time></trkpt><trkpt lat="43.7004263" lon="10.926056"><ele>37.0</ele><time>2026-05-01T09:11:52.811Z</time></trkpt><trkpt lat="43.7004894" lon="10.9260747"><ele>36.0</ele><time>2026-05-01T09:11:57.854Z</time></trkpt><trkpt lat="43.7005609" lon="10.92609"><ele>35.0</ele><time>2026-05-01T09:12:03.845Z</time></trkpt><trkpt lat="43.7006317" lon="10.9260938"><ele>34.857142857142854</ele><time>2026-05-01T09:12:09.855Z</time></trkpt><trkpt lat="43.7007027" lon="10.9261083"><ele>34.714285714285715</ele><time>2026-05-01T09:12:15.855Z</time></trkpt><trkpt lat="43.7007656" lon="10.926115"><ele>34.57142857142857</ele><time>2026-05-01T09:12:20.854Z</time></trkpt><trkpt lat="43.7008291" lon="10.9261335"><ele>34.42857142857143</ele><time>2026-05-01T09:12:25.855Z</time></trkpt><trkpt lat="43.7008952" lon="10.9261478"><ele>34.285714285714285</ele><time>2026-05-01T09:12:30.854Z</time></trkpt><trkpt lat="43.7009692" lon="10.9261623"><ele>34.14285714285714</ele><time>2026-05-01T09:12:36.823Z</time></trkpt><trkpt lat="43.7010359" lon="10.9261771"><ele>34.0</ele><time>2026-05-01T09:12:41.855Z</time></trkpt><trkpt lat="43.7010985" lon="10.9262026"><ele>33.99999999999999</ele><time>2026-05-01T09:12:46.842Z</time></trkpt><trkpt lat="43.7011701" lon="10.9262274"><ele>34.0</ele><time>2026-05-01T09:12:52.83Z</time></trkpt><trkpt lat="43.7012319" lon="10.9262512"><ele>34.0</ele><time>2026-05-01T09:12:57.855Z</time></trkpt><trkpt lat="43.7012929" lon="10.9262762"><ele>34.0</ele><time>2026-05-01T09:13:04.764Z</time></trkpt><trkpt lat="43.7013623" lon="10.926303"><ele>34.0</ele><time>2026-05-01T09:13:09.855Z</time></trkpt><trkpt lat="43.7014411" lon="10.926336"><ele>33.99999999999999</ele><time>2026-05-01T09:13:15.855Z</time></trkpt><trkpt lat="43.7015028" lon="10.9263656"><ele>34.0</ele><time>2026-05-01T09:13:21.862Z</time></trkpt><trkpt lat="43.7015797" lon="10.9263815"><ele>33.99999999999999</ele><time>2026-05-01T09:13:26.798Z</time></trkpt><trkpt lat="43.7016469" lon="10.926396"><ele>34.0</ele><time>2026-05-01T09:13:31.855Z</time></trkpt><trkpt lat="43.7017241" lon="10.9264216"><ele>34.0</ele><time>2026-05-01T09:13:37.854Z</time></trkpt><trkpt lat="43.701787" lon="10.9264312"><ele>34.0</ele><time>2026-05-01T09:13:41.855Z</time></trkpt><trkpt lat="43.7018498" lon="10.92645"><ele>34.0</ele><time>2026-05-01T09:13:46.864Z</time></trkpt><trkpt lat="43.7019117" lon="10.9264786"><ele>33.99999999999999</ele><time>2026-05-01T09:13:51.871Z</time></trkpt><trkpt lat="43.7019816" lon="10.9264957"><ele>34.0</ele><time>2026-05-01T09:13:56.777Z</time></trkpt><trkpt lat="43.702052" lon="10.92651"><ele>33.71428571428571</ele><time>2026-05-01T09:14:01.855Z</time></trkpt><trkpt lat="43.7021169" lon="10.9265242"><ele>33.42857142857143</ele><time>2026-05-01T09:14:06.799Z</time></trkpt><trkpt lat="43.7021881" lon="10.926548"><ele>33.14285714285714</ele><time>2026-05-01T09:14:11.854Z</time></trkpt><trkpt lat="43.7022551" lon="10.9265723"><ele>32.857142857142854</ele><time>2026-05-01T09:14:16.855Z</time></trkpt><trkpt lat="43.7023244" lon="10.9265959"><ele>32.57142857142857</ele><time>2026-05-01T09:14:22.817Z</time></trkpt><trkpt lat="43.7023861" lon="10.9266198"><ele>32.285714285714285</ele><time>2026-05-01T09:14:27.717Z</time></trkpt><trkpt lat="43.7024522" lon="10.9266513"><ele>32.0</ele><time>2026-05-01T09:14:32.855Z</time></trkpt><trkpt lat="43.7025123" lon="10.9266801"><ele>32.0</ele><time>2026-05-01T09:14:38.855Z</time></trkpt><trkpt lat="43.7025775" lon="10.9267075"><ele>31.999999999999996</ele><time>2026-05-01T09:14:43.81Z</time></trkpt><trkpt lat="43.7026372" lon="10.9267361"><ele>32.0</ele><time>2026-05-01T09:14:49.756Z</time></trkpt><trkpt lat="43.7027007" lon="10.9267673"><ele>32.0</ele><time>2026-05-01T09:14:54.884Z</time></trkpt><trkpt lat="43.7027621" lon="10.9267916"><ele>31.999999999999996</ele><time>2026-05-01T09:15:00.855Z</time></trkpt><trkpt lat="43.702822" lon="10.9268202"><ele>32.0</ele><time>2026-05-01T09:15:06.76Z</time></trkpt><trkpt lat="43.7028851" lon="10.9268437"><ele>32.0</ele><time>2026-05-01T09:15:10.855Z</time></trkpt><trkpt lat="43.7029472" lon="10.9268651"><ele>31.71428571428571</ele><time>2026-05-01T09:15:14.855Z</time></trkpt><trkpt lat="43.7030216" lon="10.9268993"><ele>31.428571428571423</ele><time>2026-05-01T09:15:19.855Z</time></trkpt><trkpt lat="43.7030841" lon="10.9269392"><ele>31.142857142857142</ele><time>2026-05-01T09:15:24.774Z</time></trkpt><trkpt lat="43.7031432" lon="10.9269051"><ele>30.857142857142854</ele><time>2026-05-01T09:15:29.854Z</time></trkpt><trkpt lat="43.7032138" lon="10.9269266"><ele>30.57142857142857</ele><time>2026-05-01T09:15:34.855Z</time></trkpt><trkpt lat="43.7032808" lon="10.9269632"><ele>30.285714285714285</ele><time>2026-05-01T09:15:40.854Z</time></trkpt><trkpt lat="43.7033435" lon="10.9269856"><ele>30.0</ele><time>2026-05-01T09:15:46.853Z</time></trkpt><trkpt lat="43.7034117" lon="10.9270056"><ele>30.0</ele><time>2026-05-01T09:15:50.854Z</time></trkpt><trkpt lat="43.703471" lon="10.927042"><ele>30.0</ele><time>2026-05-01T09:15:55.854Z</time></trkpt><trkpt lat="43.7035323" lon="10.9270739"><ele>30.0</ele><time>2026-05-01T09:16:00.855Z</time></trkpt><trkpt lat="43.703578" lon="10.9271567"><ele>30.0</ele><time>2026-05-01T09:16:07.855Z</time></trkpt><trkpt lat="43.7035868" lon="10.9270581"><ele>30.0</ele><time>2026-05-01T09:16:26.746Z</time></trkpt><trkpt lat="43.7035938" lon="10.9269684"><ele>30.0</ele><time>2026-05-01T09:16:31.844Z</time></trkpt><trkpt lat="43.7036195" lon="10.926879"><ele>30.0</ele><time>2026-05-01T09:16:36.861Z</time></trkpt><trkpt lat="43.7036488" lon="10.9267971"><ele>29.42857142857143</ele><time>2026-05-01T09:16:41.844Z</time></trkpt><trkpt lat="43.7036826" lon="10.9267184"><ele>28.857142857142854</ele><time>2026-05-01T09:16:46.833Z</time></trkpt><trkpt lat="43.7037179" lon="10.9266338"><ele>28.285714285714285</ele><time>2026-05-01T09:16:51.844Z</time></trkpt><trkpt lat="43.7037483" lon="10.9265565"><ele>27.714285714285715</ele><time>2026-05-01T09:16:56.844Z</time></trkpt><trkpt lat="43.7037999" lon="10.9264794"><ele>27.142857142857146</ele><time>2026-05-01T09:17:02.863Z</time></trkpt><trkpt lat="43.7038712" lon="10.9264912"><ele>26.57142857142857</ele><time>2026-05-01T09:17:07.772Z</time></trkpt><trkpt lat="43.7039387" lon="10.9264899"><ele>26.0</ele><time>2026-05-01T09:17:12.843Z</time></trkpt><trkpt lat="43.7040137" lon="10.9265046"><ele>26.0</ele><time>2026-05-01T09:17:18.858Z</time></trkpt><trkpt lat="43.7040785" lon="10.9264693"><ele>26.0</ele><time>2026-05-01T09:17:23.844Z</time></trkpt><trkpt lat="43.7041484" lon="10.9264706"><ele>26.0</ele><time>2026-05-01T09:17:30.844Z</time></trkpt><trkpt lat="43.7042186" lon="10.9264962"><ele>26.0</ele><time>2026-05-01T09:17:36.839Z</time></trkpt><trkpt lat="43.7042931" lon="10.9265024"><ele>26.0</ele><time>2026-05-01T09:17:42.844Z</time></trkpt><trkpt lat="43.7043595" lon="10.9265177"><ele>26.0</ele><time>2026-05-01T09:17:48.847Z</time></trkpt><trkpt lat="43.7044225" lon="10.9265232"><ele>26.0</ele><time>2026-05-01T09:17:53.844Z</time></trkpt><trkpt lat="43.7044896" lon="10.9265346"><ele>26.0</ele><time>2026-05-01T09:17:58.861Z</time></trkpt><trkpt lat="43.7045607" lon="10.9265484"><ele>26.0</ele><time>2026-05-01T09:18:04.844Z</time></trkpt><trkpt lat="43.7046236" lon="10.9265521"><ele>26.0</ele><time>2026-05-01T09:18:09.855Z</time></trkpt><trkpt lat="43.7046905" lon="10.9265619"><ele>26.0</ele><time>2026-05-01T09:18:14.844Z</time></trkpt><trkpt lat="43.7047559" lon="10.9265733"><ele>26.0</ele><time>2026-05-01T09:18:19.828Z</time></trkpt><trkpt lat="43.7048237" lon="10.9265818"><ele>26.0</ele><time>2026-05-01T09:18:24.875Z</time></trkpt><trkpt lat="43.7048907" lon="10.9265996"><ele>26.0</ele><time>2026-05-01T09:18:29.844Z</time></trkpt><trkpt lat="43.7049622" lon="10.9266113"><ele>26.0</ele><time>2026-05-01T09:18:35.843Z</time></trkpt><trkpt lat="43.7050289" lon="10.9266131"><ele>26.0</ele><time>2026-05-01T09:18:41.857Z</time></trkpt><trkpt lat="43.7050986" lon="10.9266162"><ele>26.0</ele><time>2026-05-01T09:18:47.866Z</time></trkpt><trkpt lat="43.705174" lon="10.9266127"><ele>26.0</ele><time>2026-05-01T09:18:53.844Z</time></trkpt><trkpt lat="43.7052381" lon="10.9266205"><ele>26.0</ele><time>2026-05-01T09:18:58.861Z</time></trkpt><trkpt lat="43.705308" lon="10.9266332"><ele>26.0</ele><time>2026-05-01T09:19:04.844Z</time></trkpt><trkpt lat="43.7053711" lon="10.9266456"><ele>26.0</ele><time>2026-05-01T09:19:10.814Z</time></trkpt><trkpt lat="43.7054464" lon="10.9266631"><ele>26.0</ele><time>2026-05-01T09:19:19.844Z</time></trkpt><trkpt lat="43.7055092" lon="10.9266712"><ele>26.0</ele><time>2026-05-01T09:19:28.829Z</time></trkpt><trkpt lat="43.705581" lon="10.9266869"><ele>26.0</ele><time>2026-05-01T09:19:32.843Z</time></trkpt><trkpt lat="43.7056558" lon="10.9266939"><ele>26.0</ele><time>2026-05-01T09:19:37.844Z</time></trkpt><trkpt lat="43.7057221" lon="10.9267008"><ele>26.0</ele><time>2026-05-01T09:19:41.848Z</time></trkpt><trkpt lat="43.7058" lon="10.926727"><ele>26.0</ele><time>2026-05-01T09:19:47.844Z</time></trkpt><trkpt lat="43.7058777" lon="10.9267481"><ele>26.0</ele><time>2026-05-01T09:19:55.843Z</time></trkpt><trkpt lat="43.705955" lon="10.9267596"><ele>26.0</ele><time>2026-05-01T09:20:00.72Z</time></trkpt><trkpt lat="43.706025" lon="10.9267709"><ele>26.0</ele><time>2026-05-01T09:20:05.844Z</time></trkpt><trkpt lat="43.7060927" lon="10.9267772"><ele>26.0</ele><time>2026-05-01T09:20:10.844Z</time></trkpt><trkpt lat="43.7061577" lon="10.9267904"><ele>26.0</ele><time>2026-05-01T09:20:15.844Z</time></trkpt><trkpt lat="43.7062203" lon="10.9268019"><ele>26.0</ele><time>2026-05-01T09:20:22.844Z</time></trkpt><trkpt lat="43.7062862" lon="10.9268118"><ele>26.0</ele><time>2026-05-01T09:20:32.866Z</time></trkpt><trkpt lat="43.7063604" lon="10.9268032"><ele>26.0</ele><time>2026-05-01T09:20:35.844Z</time></trkpt><trkpt lat="43.7064319" lon="10.9268013"><ele>25.999999999999996</ele><time>2026-05-01T09:20:45.844Z</time></trkpt><trkpt lat="43.7065232" lon="10.9267925"><ele>26.0</ele><time>2026-05-01T09:20:49.844Z</time></trkpt><trkpt lat="43.7065994" lon="10.926792"><ele>26.0</ele><time>2026-05-01T09:20:55.844Z</time></trkpt><trkpt lat="43.7066668" lon="10.9267707"><ele>26.0</ele><time>2026-05-01T09:21:01.864Z</time></trkpt><trkpt lat="43.7067362" lon="10.9267534"><ele>25.999999999999996</ele><time>2026-05-01T09:21:07.768Z</time></trkpt><trkpt lat="43.7068155" lon="10.92674"><ele>26.0</ele><time>2026-05-01T09:21:13.829Z</time></trkpt><trkpt lat="43.7068833" lon="10.9267424"><ele>25.857142857142858</ele><time>2026-05-01T09:21:17.844Z</time></trkpt><trkpt lat="43.7069534" lon="10.9267291"><ele>25.714285714285715</ele><time>2026-05-01T09:21:24.851Z</time></trkpt><trkpt lat="43.7070184" lon="10.9267157"><ele>25.571428571428573</ele><time>2026-05-01T09:21:31.32Z</time></trkpt><trkpt lat="43.7070888" lon="10.9267211"><ele>25.42857142857143</ele><time>2026-05-01T09:21:36.577Z</time></trkpt><trkpt lat="43.7071528" lon="10.9267108"><ele>25.285714285714285</ele><time>2026-05-01T09:21:41.847Z</time></trkpt><trkpt lat="43.7072151" lon="10.9266913"><ele>25.142857142857146</ele><time>2026-05-01T09:21:45.846Z</time></trkpt><trkpt lat="43.7072827" lon="10.9266973"><ele>25.0</ele><time>2026-05-01T09:21:51.797Z</time></trkpt><trkpt lat="43.7073573" lon="10.9266963"><ele>25.000000000000004</ele><time>2026-05-01T09:21:57.846Z</time></trkpt><trkpt lat="43.7074229" lon="10.9267154"><ele>25.0</ele><time>2026-05-01T09:22:02.846Z</time></trkpt><trkpt lat="43.7075001" lon="10.9267107"><ele>25.0</ele><time>2026-05-01T09:22:07.845Z</time></trkpt><trkpt lat="43.7075733" lon="10.9267261"><ele>25.0</ele><time>2026-05-01T09:22:12.848Z</time></trkpt><trkpt lat="43.7076363" lon="10.9267252"><ele>25.0</ele><time>2026-05-01T09:22:18.845Z</time></trkpt><trkpt lat="43.7076774" lon="10.9266239"><ele>25.000000000000004</ele><time>2026-05-01T09:22:25.846Z</time></trkpt><trkpt lat="43.7077441" lon="10.9266443"><ele>25.0</ele><time>2026-05-01T09:22:51.845Z</time></trkpt><trkpt lat="43.7078147" lon="10.9266626"><ele>25.000000000000004</ele><time>2026-05-01T09:22:56.846Z</time></trkpt><trkpt lat="43.7078835" lon="10.9266596"><ele>25.0</ele><time>2026-05-01T09:23:01.846Z</time></trkpt><trkpt lat="43.7079475" lon="10.926652"><ele>25.0</ele><time>2026-05-01T09:23:06.871Z</time></trkpt><trkpt lat="43.7080271" lon="10.9266578"><ele>25.0</ele><time>2026-05-01T09:23:12.845Z</time></trkpt><trkpt lat="43.7080965" lon="10.926689"><ele>25.0</ele><time>2026-05-01T09:23:18.762Z</time></trkpt><trkpt lat="43.7081652" lon="10.9267131"><ele>25.000000000000004</ele><time>2026-05-01T09:23:24.82Z</time></trkpt><trkpt lat="43.7082182" lon="10.9267647"><ele>25.0</ele><time>2026-05-01T09:23:29.846Z</time></trkpt><trkpt lat="43.7082806" lon="10.9268135"><ele>24.857142857142858</ele><time>2026-05-01T09:23:35.846Z</time></trkpt><trkpt lat="43.7083493" lon="10.9268527"><ele>24.714285714285715</ele><time>2026-05-01T09:23:41.883Z</time></trkpt><trkpt lat="43.7084096" lon="10.9268927"><ele>24.57142857142857</ele><time>2026-05-01T09:23:46.846Z</time></trkpt><trkpt lat="43.7084692" lon="10.9269235"><ele>24.42857142857143</ele><time>2026-05-01T09:23:51.849Z</time></trkpt><trkpt lat="43.7085274" lon="10.9269622"><ele>24.285714285714285</ele><time>2026-05-01T09:23:56.864Z</time></trkpt><trkpt lat="43.7085875" lon="10.9270107"><ele>24.142857142857142</ele><time>2026-05-01T09:24:01.77Z</time></trkpt><trkpt lat="43.7086374" lon="10.9270656"><ele>24.0</ele><time>2026-05-01T09:24:08.845Z</time></trkpt><trkpt lat="43.7086974" lon="10.9271053"><ele>23.999999999999996</ele><time>2026-05-01T09:24:14.787Z</time></trkpt><trkpt lat="43.7087627" lon="10.9271152"><ele>24.0</ele><time>2026-05-01T09:24:18.846Z</time></trkpt><trkpt lat="43.7088284" lon="10.9271373"><ele>24.0</ele><time>2026-05-01T09:24:23.846Z</time></trkpt><trkpt lat="43.7089116" lon="10.9271799"><ele>24.0</ele><time>2026-05-01T09:24:29.846Z</time></trkpt><trkpt lat="43.7089776" lon="10.9272215"><ele>24.0</ele><time>2026-05-01T09:24:36.845Z</time></trkpt><trkpt lat="43.7090352" lon="10.9272586"><ele>23.999999999999996</ele><time>2026-05-01T09:24:41.846Z</time></trkpt><trkpt lat="43.7090999" lon="10.9272872"><ele>24.0</ele><time>2026-05-01T09:24:46.759Z</time></trkpt><trkpt lat="43.7091609" lon="10.9273231"><ele>23.999999999999996</ele><time>2026-05-01T09:24:50.846Z</time></trkpt><trkpt lat="43.7092174" lon="10.9273651"><ele>24.0</ele><time>2026-05-01T09:24:56.846Z</time></trkpt><trkpt lat="43.7092881" lon="10.9273963"><ele>24.0</ele><time>2026-05-01T09:25:03.846Z</time></trkpt><trkpt lat="43.7093538" lon="10.9274499"><ele>24.0</ele><time>2026-05-01T09:25:09.853Z</time></trkpt><trkpt lat="43.7094191" lon="10.9274771"><ele>24.0</ele><time>2026-05-01T09:25:14.846Z</time></trkpt><trkpt lat="43.709487" lon="10.927515"><ele>23.999999999999996</ele><time>2026-05-01T09:25:20.835Z</time></trkpt><trkpt lat="43.7095492" lon="10.9275569"><ele>24.0</ele><time>2026-05-01T09:25:26.845Z</time></trkpt><trkpt lat="43.7096063" lon="10.9275943"><ele>23.999999999999996</ele><time>2026-05-01T09:25:34.775Z</time></trkpt><trkpt lat="43.7096779" lon="10.9276206"><ele>24.0</ele><time>2026-05-01T09:25:38.845Z</time></trkpt><trkpt lat="43.7097503" lon="10.9276548"><ele>24.0</ele><time>2026-05-01T09:25:43.846Z</time></trkpt><trkpt lat="43.7098064" lon="10.9277043"><ele>24.0</ele><time>2026-05-01T09:25:48.846Z</time></trkpt><trkpt lat="43.7098786" lon="10.9277386"><ele>24.0</ele><time>2026-05-01T09:25:56.823Z</time></trkpt><trkpt lat="43.7099436" lon="10.9277777"><ele>23.999999999999996</ele><time>2026-05-01T09:26:00.846Z</time></trkpt><trkpt lat="43.7100022" lon="10.927818"><ele>24.0</ele><time>2026-05-01T09:26:07.846Z</time></trkpt><trkpt lat="43.7100693" lon="10.9278623"><ele>23.999999999999996</ele><time>2026-05-01T09:26:12.845Z</time></trkpt><trkpt lat="43.7101382" lon="10.9279107"><ele>24.0</ele><time>2026-05-01T09:26:19.803Z</time></trkpt><trkpt lat="43.7101973" lon="10.9279425"><ele>24.0</ele><time>2026-05-01T09:26:23.818Z</time></trkpt><trkpt lat="43.7102573" lon="10.9279749"><ele>24.0</ele><time>2026-05-01T09:26:29.846Z</time></trkpt><trkpt lat="43.7103393" lon="10.928028"><ele>24.0</ele><time>2026-05-01T09:26:36.846Z</time></trkpt><trkpt lat="43.7104066" lon="10.9280642"><ele>23.999999999999996</ele><time>2026-05-01T09:26:43.777Z</time></trkpt><trkpt lat="43.7104658" lon="10.9281039"><ele>24.0</ele><time>2026-05-01T09:26:47.845Z</time></trkpt><trkpt lat="43.7105491" lon="10.9281403"><ele>23.999999999999996</ele><time>2026-05-01T09:26:54.845Z</time></trkpt><trkpt lat="43.7106067" lon="10.9281945"><ele>24.0</ele><time>2026-05-01T09:26:59.844Z</time></trkpt><trkpt lat="43.7106677" lon="10.9282297"><ele>24.0</ele><time>2026-05-01T09:27:06.847Z</time></trkpt><trkpt lat="43.7107388" lon="10.9282646"><ele>24.0</ele><time>2026-05-01T09:27:10.846Z</time></trkpt><trkpt lat="43.710815" lon="10.9283056"><ele>24.0</ele><time>2026-05-01T09:27:17.845Z</time></trkpt><trkpt lat="43.7108746" lon="10.9283462"><ele>23.999999999999996</ele><time>2026-05-01T09:27:23.846Z</time></trkpt><trkpt lat="43.7109541" lon="10.9283945"><ele>24.0</ele><time>2026-05-01T09:27:31.846Z</time></trkpt><trkpt lat="43.711023" lon="10.9284478"><ele>23.857142857142854</ele><time>2026-05-01T09:27:42.783Z</time></trkpt><trkpt lat="43.7110863" lon="10.9284718"><ele>23.714285714285715</ele><time>2026-05-01T09:27:45.859Z</time></trkpt><trkpt lat="43.7111739" lon="10.928526"><ele>23.57142857142857</ele><time>2026-05-01T09:27:49.846Z</time></trkpt><trkpt lat="43.711233" lon="10.928565"><ele>23.428571428571427</ele><time>2026-05-01T09:27:55.846Z</time></trkpt><trkpt lat="43.7112968" lon="10.9285777"><ele>23.285714285714285</ele><time>2026-05-01T09:28:00.845Z</time></trkpt><trkpt lat="43.7113494" lon="10.9286314"><ele>23.142857142857142</ele><time>2026-05-01T09:28:05.845Z</time></trkpt><trkpt lat="43.7114156" lon="10.9286703"><ele>23.0</ele><time>2026-05-01T09:28:11.811Z</time></trkpt><trkpt lat="43.7114742" lon="10.9287053"><ele>23.0</ele><time>2026-05-01T09:28:16.857Z</time></trkpt><trkpt lat="43.7115367" lon="10.9287383"><ele>23.0</ele><time>2026-05-01T09:28:20.846Z</time></trkpt><trkpt lat="43.7116006" lon="10.9287788"><ele>23.0</ele><time>2026-05-01T09:28:28.845Z</time></trkpt><trkpt lat="43.711662" lon="10.9288077"><ele>23.0</ele><time>2026-05-01T09:28:35.846Z</time></trkpt><trkpt lat="43.7117324" lon="10.9288477"><ele>23.0</ele><time>2026-05-01T09:28:42.845Z</time></trkpt><trkpt lat="43.7117901" lon="10.9288952"><ele>23.0</ele><time>2026-05-01T09:28:48.862Z</time></trkpt><trkpt lat="43.7118912" lon="10.9289414"><ele>23.0</ele><time>2026-05-01T09:28:55.846Z</time></trkpt><trkpt lat="43.7119502" lon="10.9289801"><ele>23.0</ele><time>2026-05-01T09:29:06.841Z</time></trkpt><trkpt lat="43.7120062" lon="10.9290356"><ele>23.0</ele><time>2026-05-01T09:29:09.846Z</time></trkpt><trkpt lat="43.712069" lon="10.9290859"><ele>23.0</ele><time>2026-05-01T09:29:13.845Z</time></trkpt><trkpt lat="43.7121286" lon="10.9291264"><ele>23.0</ele><time>2026-05-01T09:29:17.856Z</time></trkpt><trkpt lat="43.7121922" lon="10.9291462"><ele>23.0</ele><time>2026-05-01T09:29:21.821Z</time></trkpt><trkpt lat="43.7122503" lon="10.9291963"><ele>23.0</ele><time>2026-05-01T09:29:25.846Z</time></trkpt><trkpt lat="43.712286" lon="10.9292683"><ele>23.0</ele><time>2026-05-01T09:29:29.845Z</time></trkpt><trkpt lat="43.7122908" lon="10.9293584"><ele>23.0</ele><time>2026-05-01T09:29:34.77Z</time></trkpt><trkpt lat="43.7122685" lon="10.9294516"><ele>23.0</ele><time>2026-05-01T09:29:39.845Z</time></trkpt><trkpt lat="43.7122587" lon="10.9295383"><ele>23.0</ele><time>2026-05-01T09:29:44.843Z</time></trkpt><trkpt lat="43.71224" lon="10.9296348"><ele>23.0</ele><time>2026-05-01T09:29:50.853Z</time></trkpt><trkpt lat="43.7122281" lon="10.9297287"><ele>23.0</ele><time>2026-05-01T09:29:56.846Z</time></trkpt><trkpt lat="43.7122137" lon="10.9298378"><ele>23.0</ele><time>2026-05-01T09:30:03.845Z</time></trkpt><trkpt lat="43.7121982" lon="10.9299322"><ele>23.0</ele><time>2026-05-01T09:30:08.847Z</time></trkpt><trkpt lat="43.712181" lon="10.9300397"><ele>23.0</ele><time>2026-05-01T09:30:14.846Z</time></trkpt><trkpt lat="43.7121623" lon="10.9301354"><ele>23.0</ele><time>2026-05-01T09:30:19.845Z</time></trkpt><trkpt lat="43.7121592" lon="10.9302305"><ele>23.0</ele><time>2026-05-01T09:30:27.845Z</time></trkpt><trkpt lat="43.7121368" lon="10.93033"><ele>23.0</ele><time>2026-05-01T09:30:41.849Z</time></trkpt><trkpt lat="43.7121271" lon="10.9304204"><ele>23.0</ele><time>2026-05-01T09:30:45.845Z</time></trkpt><trkpt lat="43.7121113" lon="10.9305146"><ele>23.0</ele><time>2026-05-01T09:30:50.846Z</time></trkpt><trkpt lat="43.7121009" lon="10.9306169"><ele>23.0</ele><time>2026-05-01T09:30:56.849Z</time></trkpt><trkpt lat="43.7120959" lon="10.9307053"><ele>23.0</ele><time>2026-05-01T09:31:01.846Z</time></trkpt><trkpt lat="43.7120808" lon="10.9308034"><ele>23.0</ele><time>2026-05-01T09:31:07.845Z</time></trkpt><trkpt lat="43.7120668" lon="10.9308891"><ele>23.0</ele><time>2026-05-01T09:31:12.847Z</time></trkpt><trkpt lat="43.7120631" lon="10.9309785"><ele>23.0</ele><time>2026-05-01T09:31:18.798Z</time></trkpt><trkpt lat="43.7120545" lon="10.93108"><ele>23.0</ele><time>2026-05-01T09:31:23.845Z</time></trkpt><trkpt lat="43.7120414" lon="10.9311659"><ele>23.0</ele><time>2026-05-01T09:31:28.811Z</time></trkpt><trkpt lat="43.7120302" lon="10.931267"><ele>23.0</ele><time>2026-05-01T09:31:34.845Z</time></trkpt><trkpt lat="43.7120185" lon="10.9313678"><ele>23.0</ele><time>2026-05-01T09:31:40.849Z</time></trkpt><trkpt lat="43.7120018" lon="10.9314669"><ele>23.0</ele><time>2026-05-01T09:31:46.845Z</time></trkpt><trkpt lat="43.7119881" lon="10.9315582"><ele>23.0</ele><time>2026-05-01T09:31:51.846Z</time></trkpt><trkpt lat="43.7119721" lon="10.9316552"><ele>23.0</ele><time>2026-05-01T09:31:57.846Z</time></trkpt><trkpt lat="43.711958" lon="10.9317611"><ele>23.0</ele><time>2026-05-01T09:32:03.766Z</time></trkpt><trkpt lat="43.7119393" lon="10.9318589"><ele>23.0</ele><time>2026-05-01T09:32:09.846Z</time></trkpt><trkpt lat="43.7119202" lon="10.9319573"><ele>22.857142857142858</ele><time>2026-05-01T09:32:15.842Z</time></trkpt><trkpt lat="43.7119063" lon="10.9320587"><ele>22.71428571428571</ele><time>2026-05-01T09:32:21.846Z</time></trkpt><trkpt lat="43.7118914" lon="10.9321549"><ele>22.57142857142857</ele><time>2026-05-01T09:32:26.85Z</time></trkpt><trkpt lat="43.7118806" lon="10.9322469"><ele>22.42857142857143</ele><time>2026-05-01T09:32:32.845Z</time></trkpt><trkpt lat="43.7118705" lon="10.932333"><ele>22.285714285714285</ele><time>2026-05-01T09:32:37.846Z</time></trkpt><trkpt lat="43.7118565" lon="10.9324211"><ele>22.142857142857142</ele><time>2026-05-01T09:32:42.85Z</time></trkpt><trkpt lat="43.7118431" lon="10.93253"><ele>22.0</ele><time>2026-05-01T09:32:48.846Z</time></trkpt><trkpt lat="43.7118276" lon="10.9326269"><ele>22.0</ele><time>2026-05-01T09:32:54.847Z</time></trkpt><trkpt lat="43.7118108" lon="10.9327284"><ele>22.0</ele><time>2026-05-01T09:33:00.846Z</time></trkpt><trkpt lat="43.7118002" lon="10.9328282"><ele>22.0</ele><time>2026-05-01T09:33:06.772Z</time></trkpt><trkpt lat="43.7117886" lon="10.9329197"><ele>22.0</ele><time>2026-05-01T09:33:11.85Z</time></trkpt><trkpt lat="43.7117755" lon="10.9330202"><ele>22.0</ele><time>2026-05-01T09:33:17.845Z</time></trkpt><trkpt lat="43.7117642" lon="10.9331103"><ele>22.0</ele><time>2026-05-01T09:33:22.846Z</time></trkpt><trkpt lat="43.7117518" lon="10.9332002"><ele>22.0</ele><time>2026-05-01T09:33:27.852Z</time></trkpt><trkpt lat="43.7117408" lon="10.9332882"><ele>22.0</ele><time>2026-05-01T09:33:32.845Z</time></trkpt><trkpt lat="43.7117257" lon="10.9333743"><ele>22.0</ele><time>2026-05-01T09:33:37.846Z</time></trkpt><trkpt lat="43.7117201" lon="10.9334616"><ele>22.0</ele><time>2026-05-01T09:33:42.846Z</time></trkpt><trkpt lat="43.711707" lon="10.9335496"><ele>22.0</ele><time>2026-05-01T09:33:47.846Z</time></trkpt><trkpt lat="43.711694" lon="10.9336524"><ele>22.0</ele><time>2026-05-01T09:33:53.846Z</time></trkpt><trkpt lat="43.7116819" lon="10.9337528"><ele>22.0</ele><time>2026-05-01T09:33:59.846Z</time></trkpt><trkpt lat="43.7116716" lon="10.9338527"><ele>22.0</ele><time>2026-05-01T09:34:05.845Z</time></trkpt><trkpt lat="43.7116602" lon="10.9339436"><ele>22.142857142857142</ele><time>2026-05-01T09:34:11.85Z</time></trkpt><trkpt lat="43.711649" lon="10.9340442"><ele>22.285714285714285</ele><time>2026-05-01T09:34:17.846Z</time></trkpt><trkpt lat="43.7116288" lon="10.9341296"><ele>22.42857142857143</ele><time>2026-05-01T09:34:22.842Z</time></trkpt><trkpt lat="43.7116147" lon="10.9342212"><ele>22.57142857142857</ele><time>2026-05-01T09:34:27.86Z</time></trkpt><trkpt lat="43.7116071" lon="10.93432"><ele>22.71428571428571</ele><time>2026-05-01T09:34:33.845Z</time></trkpt><trkpt lat="43.711589" lon="10.9344176"><ele>22.857142857142858</ele><time>2026-05-01T09:34:39.837Z</time></trkpt><trkpt lat="43.7115545" lon="10.9344936"><ele>23.0</ele><time>2026-05-01T09:34:44.845Z</time></trkpt><trkpt lat="43.7115338" lon="10.9345764"><ele>23.28571428571429</ele><time>2026-05-01T09:34:49.893Z</time></trkpt><trkpt lat="43.7115159" lon="10.9346688"><ele>23.57142857142857</ele><time>2026-05-01T09:34:54.875Z</time></trkpt><trkpt lat="43.7114927" lon="10.9347543"><ele>23.857142857142858</ele><time>2026-05-01T09:34:59.846Z</time></trkpt><trkpt lat="43.7114757" lon="10.9348514"><ele>24.142857142857146</ele><time>2026-05-01T09:35:05.845Z</time></trkpt><trkpt lat="43.7114627" lon="10.9349482"><ele>24.42857142857143</ele><time>2026-05-01T09:35:11.851Z</time></trkpt><trkpt lat="43.7114516" lon="10.9350508"><ele>24.714285714285715</ele><time>2026-05-01T09:35:18.845Z</time></trkpt><trkpt lat="43.7114394" lon="10.9351434"><ele>25.0</ele><time>2026-05-01T09:35:23.847Z</time></trkpt><trkpt lat="43.7114285" lon="10.9352334"><ele>25.000000000000004</ele><time>2026-05-01T09:35:28.845Z</time></trkpt><trkpt lat="43.7114073" lon="10.9353297"><ele>25.0</ele><time>2026-05-01T09:35:34.811Z</time></trkpt><trkpt lat="43.7113831" lon="10.9354127"><ele>25.0</ele><time>2026-05-01T09:35:39.849Z</time></trkpt><trkpt lat="43.7113644" lon="10.9355013"><ele>25.0</ele><time>2026-05-01T09:35:44.846Z</time></trkpt><trkpt lat="43.7113398" lon="10.9355998"><ele>25.0</ele><time>2026-05-01T09:35:50.846Z</time></trkpt><trkpt lat="43.7113189" lon="10.9356893"><ele>25.000000000000004</ele><time>2026-05-01T09:35:55.851Z</time></trkpt><trkpt lat="43.7113042" lon="10.9357828"><ele>25.0</ele><time>2026-05-01T09:36:01.366Z</time></trkpt><trkpt lat="43.7112718" lon="10.9358776"><ele>25.142857142857146</ele><time>2026-05-01T09:36:07.783Z</time></trkpt><trkpt lat="43.7112427" lon="10.9359556"><ele>25.285714285714285</ele><time>2026-05-01T09:36:12.847Z</time></trkpt><trkpt lat="43.7112201" lon="10.9360429"><ele>25.42857142857143</ele><time>2026-05-01T09:36:17.847Z</time></trkpt><trkpt lat="43.7111774" lon="10.9361175"><ele>25.571428571428573</ele><time>2026-05-01T09:36:23.849Z</time></trkpt><trkpt lat="43.7111392" lon="10.9361976"><ele>25.714285714285715</ele><time>2026-05-01T09:36:29.847Z</time></trkpt><trkpt lat="43.7111053" lon="10.9362858"><ele>25.857142857142858</ele><time>2026-05-01T09:36:36.837Z</time></trkpt><trkpt lat="43.7110677" lon="10.9363585"><ele>26.0</ele><time>2026-05-01T09:36:40.75Z</time></trkpt><trkpt lat="43.7110237" lon="10.9364408"><ele>26.142857142857142</ele><time>2026-05-01T09:36:44.847Z</time></trkpt><trkpt lat="43.710977" lon="10.936513"><ele>26.28571428571429</ele><time>2026-05-01T09:36:49.847Z</time></trkpt><trkpt lat="43.7109344" lon="10.9365862"><ele>26.42857142857143</ele><time>2026-05-01T09:36:55.847Z</time></trkpt><trkpt lat="43.7108935" lon="10.9366666"><ele>26.57142857142857</ele><time>2026-05-01T09:37:02.846Z</time></trkpt><trkpt lat="43.7108457" lon="10.9367463"><ele>26.714285714285715</ele><time>2026-05-01T09:37:07.848Z</time></trkpt><trkpt lat="43.7108068" lon="10.9368246"><ele>26.857142857142858</ele><time>2026-05-01T09:37:12.846Z</time></trkpt><trkpt lat="43.7107648" lon="10.9369086"><ele>27.0</ele><time>2026-05-01T09:37:18.846Z</time></trkpt><trkpt lat="43.7107286" lon="10.9369874"><ele>27.0</ele><time>2026-05-01T09:37:24.847Z</time></trkpt><trkpt lat="43.7106922" lon="10.9370601"><ele>27.0</ele><time>2026-05-01T09:37:29.868Z</time></trkpt><trkpt lat="43.7106552" lon="10.9371326"><ele>27.0</ele><time>2026-05-01T09:37:34.846Z</time></trkpt><trkpt lat="43.7106092" lon="10.9372116"><ele>27.0</ele><time>2026-05-01T09:37:40.847Z</time></trkpt><trkpt lat="43.7105549" lon="10.937268"><ele>27.0</ele><time>2026-05-01T09:37:50.847Z</time></trkpt><trkpt lat="43.7105196" lon="10.9373405"><ele>27.0</ele><time>2026-05-01T09:37:55.846Z</time></trkpt><trkpt lat="43.710491" lon="10.9374265"><ele>27.0</ele><time>2026-05-01T09:38:01.846Z</time></trkpt><trkpt lat="43.710461" lon="10.9375176"><ele>27.0</ele><time>2026-05-01T09:38:07.85Z</time></trkpt><trkpt lat="43.710417" lon="10.937594"><ele>27.0</ele><time>2026-05-01T09:38:14.847Z</time></trkpt><trkpt lat="43.7103563" lon="10.9375552"><ele>27.0</ele><time>2026-05-01T09:38:18.802Z</time></trkpt><trkpt lat="43.7102944" lon="10.9375222"><ele>27.0</ele><time>2026-05-01T09:38:23.811Z</time></trkpt><trkpt lat="43.7102415" lon="10.937447"><ele>27.0</ele><time>2026-05-01T09:38:28.847Z</time></trkpt><trkpt lat="43.7101853" lon="10.9373912"><ele>27.0</ele><time>2026-05-01T09:38:34.846Z</time></trkpt><trkpt lat="43.7101127" lon="10.9373925"><ele>27.0</ele><time>2026-05-01T09:38:38.847Z</time></trkpt><trkpt lat="43.7100384" lon="10.9373839"><ele>26.857142857142858</ele><time>2026-05-01T09:38:44.848Z</time></trkpt><trkpt lat="43.7099774" lon="10.9373344"><ele>26.714285714285715</ele><time>2026-05-01T09:38:50.847Z</time></trkpt><trkpt lat="43.7099197" lon="10.9372789"><ele>26.57142857142857</ele><time>2026-05-01T09:38:55.844Z</time></trkpt><trkpt lat="43.7098598" lon="10.9372267"><ele>26.42857142857143</ele><time>2026-05-01T09:39:00.77Z</time></trkpt><trkpt lat="43.7098021" lon="10.9371772"><ele>26.28571428571429</ele><time>2026-05-01T09:39:05.846Z</time></trkpt><trkpt lat="43.7097442" lon="10.9371372"><ele>26.142857142857142</ele><time>2026-05-01T09:39:11.846Z</time></trkpt><trkpt lat="43.7096765" lon="10.9370914"><ele>26.0</ele><time>2026-05-01T09:39:17.761Z</time></trkpt><trkpt lat="43.7096173" lon="10.9370546"><ele>26.0</ele><time>2026-05-01T09:39:22.846Z</time></trkpt><trkpt lat="43.7095508" lon="10.9370235"><ele>26.0</ele><time>2026-05-01T09:39:30.846Z</time></trkpt><trkpt lat="43.7094877" lon="10.9369737"><ele>26.0</ele><time>2026-05-01T09:39:35.846Z</time></trkpt><trkpt lat="43.7094308" lon="10.9369357"><ele>26.0</ele><time>2026-05-01T09:39:40.846Z</time></trkpt><trkpt lat="43.7093696" lon="10.9369009"><ele>26.0</ele><time>2026-05-01T09:39:45.847Z</time></trkpt><trkpt lat="43.7093088" lon="10.9368716"><ele>26.0</ele><time>2026-05-01T09:39:50.846Z</time></trkpt><trkpt lat="43.709243" lon="10.9368488"><ele>26.0</ele><time>2026-05-01T09:39:55.768Z</time></trkpt><trkpt lat="43.7091763" lon="10.9368259"><ele>25.857142857142858</ele><time>2026-05-01T09:40:01.847Z</time></trkpt><trkpt lat="43.7091029" lon="10.9368124"><ele>25.714285714285715</ele><time>2026-05-01T09:40:07.841Z</time></trkpt><trkpt lat="43.7090391" lon="10.9368101"><ele>25.571428571428573</ele><time>2026-05-01T09:40:12.767Z</time></trkpt><trkpt lat="43.7089725" lon="10.9368024"><ele>25.42857142857143</ele><time>2026-05-01T09:40:17.846Z</time></trkpt><trkpt lat="43.7089084" lon="10.9367904"><ele>25.285714285714285</ele><time>2026-05-01T09:40:22.846Z</time></trkpt><trkpt lat="43.7088337" lon="10.9367844"><ele>25.142857142857146</ele><time>2026-05-01T09:40:28.46Z</time></trkpt><trkpt lat="43.7087613" lon="10.9367757"><ele>25.0</ele><time>2026-05-01T09:40:33.756Z</time></trkpt><trkpt lat="43.7086979" lon="10.9367631"><ele>25.000000000000004</ele><time>2026-05-01T09:40:38.847Z</time></trkpt><trkpt lat="43.7086288" lon="10.9367497"><ele>25.0</ele><time>2026-05-01T09:40:43.847Z</time></trkpt><trkpt lat="43.7085564" lon="10.9367294"><ele>25.0</ele><time>2026-05-01T09:40:49.799Z</time></trkpt><trkpt lat="43.7084825" lon="10.9367087"><ele>25.0</ele><time>2026-05-01T09:40:55.849Z</time></trkpt><trkpt lat="43.7084192" lon="10.9366916"><ele>25.0</ele><time>2026-05-01T09:41:00.847Z</time></trkpt><trkpt lat="43.7083583" lon="10.9366647"><ele>25.000000000000004</ele><time>2026-05-01T09:41:05.846Z</time></trkpt><trkpt lat="43.7082956" lon="10.9366334"><ele>25.0</ele><time>2026-05-01T09:41:10.85Z</time></trkpt><trkpt lat="43.7082345" lon="10.9366005"><ele>25.000000000000004</ele><time>2026-05-01T09:41:15.847Z</time></trkpt><trkpt lat="43.7081715" lon="10.9365534"><ele>25.0</ele><time>2026-05-01T09:41:20.78Z</time></trkpt><trkpt lat="43.7081098" lon="10.9365016"><ele>25.0</ele><time>2026-05-01T09:41:26.847Z</time></trkpt><trkpt lat="43.7080472" lon="10.9364441"><ele>25.0</ele><time>2026-05-01T09:41:32.847Z</time></trkpt><trkpt lat="43.7079922" lon="10.9363873"><ele>25.0</ele><time>2026-05-01T09:41:37.847Z</time></trkpt><trkpt lat="43.707943" lon="10.9363249"><ele>25.000000000000004</ele><time>2026-05-01T09:41:42.79Z</time></trkpt><trkpt lat="43.7078951" lon="10.9362615"><ele>25.0</ele><time>2026-05-01T09:41:47.847Z</time></trkpt><trkpt lat="43.7078409" lon="10.9361915"><ele>25.000000000000004</ele><time>2026-05-01T09:41:53.747Z</time></trkpt><trkpt lat="43.7077906" lon="10.9361234"><ele>25.0</ele><time>2026-05-01T09:41:58.847Z</time></trkpt><trkpt lat="43.7077389" lon="10.9360517"><ele>25.0</ele><time>2026-05-01T09:42:04.75Z</time></trkpt><trkpt lat="43.7076829" lon="10.9359807"><ele>25.0</ele><time>2026-05-01T09:42:10.846Z</time></trkpt><trkpt lat="43.7076375" lon="10.9359056"><ele>25.0</ele><time>2026-05-01T09:42:16.847Z</time></trkpt><trkpt lat="43.7075988" lon="10.9358265"><ele>25.000000000000004</ele><time>2026-05-01T09:42:21.876Z</time></trkpt><trkpt lat="43.707554" lon="10.9357588"><ele>25.0</ele><time>2026-05-01T09:42:26.847Z</time></trkpt><trkpt lat="43.7075051" lon="10.9356895"><ele>25.000000000000004</ele><time>2026-05-01T09:42:31.847Z</time></trkpt><trkpt lat="43.7074551" lon="10.9356187"><ele>25.0</ele><time>2026-05-01T09:42:36.848Z</time></trkpt><trkpt lat="43.7074129" lon="10.9355531"><ele>25.0</ele><time>2026-05-01T09:42:41.847Z</time></trkpt><trkpt lat="43.7073709" lon="10.9354855"><ele>25.0</ele><time>2026-05-01T09:42:46.879Z</time></trkpt><trkpt lat="43.7073281" lon="10.9354206"><ele>25.0</ele><time>2026-05-01T09:42:51.847Z</time></trkpt><trkpt lat="43.7072834" lon="10.9353581"><ele>25.000000000000004</ele><time>2026-05-01T09:42:56.847Z</time></trkpt><trkpt lat="43.7072336" lon="10.9352792"><ele>25.0</ele><time>2026-05-01T09:43:02.846Z</time></trkpt><trkpt lat="43.7071877" lon="10.935209"><ele>25.000000000000004</ele><time>2026-05-01T09:43:07.85Z</time></trkpt><trkpt lat="43.7071381" lon="10.9351437"><ele>25.0</ele><time>2026-05-01T09:43:13.799Z</time></trkpt><trkpt lat="43.7070933" lon="10.9350598"><ele>25.0</ele><time>2026-05-01T09:43:18.847Z</time></trkpt><trkpt lat="43.7070496" lon="10.9349963"><ele>25.0</ele><time>2026-05-01T09:43:23.846Z</time></trkpt><trkpt lat="43.7070062" lon="10.9349307"><ele>25.0</ele><time>2026-05-01T09:43:28.847Z</time></trkpt><trkpt lat="43.7069561" lon="10.9348439"><ele>25.000000000000004</ele><time>2026-05-01T09:43:34.848Z</time></trkpt><trkpt lat="43.7069175" lon="10.9347548"><ele>25.0</ele><time>2026-05-01T09:43:40.846Z</time></trkpt><trkpt lat="43.7068775" lon="10.9346851"><ele>25.000000000000004</ele><time>2026-05-01T09:43:45.812Z</time></trkpt><trkpt lat="43.7068304" lon="10.9346269"><ele>25.0</ele><time>2026-05-01T09:43:50.778Z</time></trkpt><trkpt lat="43.7068311" lon="10.9345349"><ele>25.0</ele><time>2026-05-01T09:43:56.847Z</time></trkpt><trkpt lat="43.7068763" lon="10.9344623"><ele>25.0</ele><time>2026-05-01T09:44:02.846Z</time></trkpt><trkpt lat="43.7068085" lon="10.9344844"><ele>25.0</ele><time>2026-05-01T09:44:15.847Z</time></trkpt><trkpt lat="43.706742" lon="10.9344561"><ele>25.000000000000004</ele><time>2026-05-01T09:44:21.847Z</time></trkpt><trkpt lat="43.7066844" lon="10.9344107"><ele>25.0</ele><time>2026-05-01T09:44:28.847Z</time></trkpt><trkpt lat="43.7066312" lon="10.9343615"><ele>25.000000000000004</ele><time>2026-05-01T09:44:35.851Z</time></trkpt><trkpt lat="43.7066003" lon="10.9342822"><ele>25.0</ele><time>2026-05-01T09:44:43.761Z</time></trkpt><trkpt lat="43.7065448" lon="10.9342199"><ele>25.0</ele><time>2026-05-01T09:44:48.849Z</time></trkpt><trkpt lat="43.7064839" lon="10.9341721"><ele>25.0</ele><time>2026-05-01T09:44:54.784Z</time></trkpt><trkpt lat="43.706429" lon="10.9341125"><ele>25.0</ele><time>2026-05-01T09:45:00.844Z</time></trkpt><trkpt lat="43.7063663" lon="10.9340604"><ele>25.000000000000004</ele><time>2026-05-01T09:45:06.847Z</time></trkpt><trkpt lat="43.7063045" lon="10.9340043"><ele>25.0</ele><time>2026-05-01T09:45:12.82Z</time></trkpt><trkpt lat="43.7062403" lon="10.9339499"><ele>25.000000000000004</ele><time>2026-05-01T09:45:18.847Z</time></trkpt><trkpt lat="43.706185" lon="10.9339014"><ele>25.0</ele><time>2026-05-01T09:45:23.846Z</time></trkpt><trkpt lat="43.7061204" lon="10.9338691"><ele>25.0</ele><time>2026-05-01T09:45:30.847Z</time></trkpt><trkpt lat="43.706051" lon="10.9338659"><ele>25.0</ele><time>2026-05-01T09:45:35.847Z</time></trkpt><trkpt lat="43.7059867" lon="10.9338116"><ele>25.0</ele><time>2026-05-01T09:45:41.881Z</time></trkpt><trkpt lat="43.7059271" lon="10.9337559"><ele>25.000000000000004</ele><time>2026-05-01T09:45:47.869Z</time></trkpt><trkpt lat="43.7058687" lon="10.9337016"><ele>25.0</ele><time>2026-05-01T09:45:53.847Z</time></trkpt><trkpt lat="43.7058036" lon="10.9336561"><ele>25.000000000000004</ele><time>2026-05-01T09:45:59.846Z</time></trkpt><trkpt lat="43.7057459" lon="10.9336161"><ele>25.0</ele><time>2026-05-01T09:46:04.847Z</time></trkpt><trkpt lat="43.7056834" lon="10.9335629"><ele>25.0</ele><time>2026-05-01T09:46:11.846Z</time></trkpt><trkpt lat="43.7056245" lon="10.9335128"><ele>25.0</ele><time>2026-05-01T09:46:16.847Z</time></trkpt><trkpt lat="43.7055686" lon="10.9334492"><ele>25.0</ele><time>2026-05-01T09:46:22.847Z</time></trkpt><trkpt lat="43.7055049" lon="10.933392"><ele>25.000000000000004</ele><time>2026-05-01T09:46:28.847Z</time></trkpt><trkpt lat="43.7054468" lon="10.933352"><ele>25.0</ele><time>2026-05-01T09:46:33.847Z</time></trkpt><trkpt lat="43.7053877" lon="10.9332952"><ele>24.857142857142858</ele><time>2026-05-01T09:46:39.77Z</time></trkpt><trkpt lat="43.7053243" lon="10.9332513"><ele>24.714285714285715</ele><time>2026-05-01T09:46:45.846Z</time></trkpt><trkpt lat="43.7052648" lon="10.9332008"><ele>24.57142857142857</ele><time>2026-05-01T09:46:51.637Z</time></trkpt><trkpt lat="43.7052084" lon="10.9331399"><ele>24.42857142857143</ele><time>2026-05-01T09:46:57.847Z</time></trkpt><trkpt lat="43.7051418" lon="10.9330898"><ele>24.285714285714285</ele><time>2026-05-01T09:47:04.847Z</time></trkpt><trkpt lat="43.7050884" lon="10.9330002"><ele>24.142857142857142</ele><time>2026-05-01T09:47:12.755Z</time></trkpt><trkpt lat="43.7050213" lon="10.9329902"><ele>24.0</ele><time>2026-05-01T09:47:17.761Z</time></trkpt><trkpt lat="43.7049604" lon="10.9329351"><ele>23.999999999999996</ele><time>2026-05-01T09:47:22.846Z</time></trkpt><trkpt lat="43.7048999" lon="10.9328758"><ele>24.0</ele><time>2026-05-01T09:47:28.785Z</time></trkpt><trkpt lat="43.7048443" lon="10.9328345"><ele>24.0</ele><time>2026-05-01T09:47:33.771Z</time></trkpt><trkpt lat="43.7047871" lon="10.9327856"><ele>24.0</ele><time>2026-05-01T09:47:38.845Z</time></trkpt><trkpt lat="43.7047312" lon="10.9327368"><ele>24.0</ele><time>2026-05-01T09:47:43.849Z</time></trkpt><trkpt lat="43.7046665" lon="10.9326896"><ele>23.999999999999996</ele><time>2026-05-01T09:47:49.845Z</time></trkpt><trkpt lat="43.7046105" lon="10.9326397"><ele>24.0</ele><time>2026-05-01T09:47:54.846Z</time></trkpt><trkpt lat="43.7045574" lon="10.9325895"><ele>23.999999999999996</ele><time>2026-05-01T09:47:59.751Z</time></trkpt><trkpt lat="43.7044944" lon="10.9325419"><ele>24.0</ele><time>2026-05-01T09:48:05.767Z</time></trkpt><trkpt lat="43.7044389" lon="10.9324983"><ele>24.0</ele><time>2026-05-01T09:48:10.847Z</time></trkpt><trkpt lat="43.7043747" lon="10.9324448"><ele>24.0</ele><time>2026-05-01T09:48:16.412Z</time></trkpt><trkpt lat="43.7043117" lon="10.9323951"><ele>24.0</ele><time>2026-05-01T09:48:22.811Z</time></trkpt><trkpt lat="43.704255" lon="10.9323464"><ele>23.999999999999996</ele><time>2026-05-01T09:48:27.85Z</time></trkpt><trkpt lat="43.7041944" lon="10.9322934"><ele>24.0</ele><time>2026-05-01T09:48:33.767Z</time></trkpt><trkpt lat="43.7041244" lon="10.9322381"><ele>23.999999999999996</ele><time>2026-05-01T09:48:39.855Z</time></trkpt><trkpt lat="43.7040676" lon="10.9321842"><ele>24.0</ele><time>2026-05-01T09:48:45.846Z</time></trkpt><trkpt lat="43.7040141" lon="10.9321333"><ele>24.0</ele><time>2026-05-01T09:48:50.828Z</time></trkpt><trkpt lat="43.7039567" lon="10.9320928"><ele>24.0</ele><time>2026-05-01T09:48:55.775Z</time></trkpt><trkpt lat="43.7039015" lon="10.9320449"><ele>24.0</ele><time>2026-05-01T09:49:00.846Z</time></trkpt><trkpt lat="43.7038393" lon="10.9319943"><ele>23.999999999999996</ele><time>2026-05-01T09:49:06.812Z</time></trkpt><trkpt lat="43.7037824" lon="10.9319493"><ele>24.0</ele><time>2026-05-01T09:49:11.847Z</time></trkpt><trkpt lat="43.7037221" lon="10.9318981"><ele>23.999999999999996</ele><time>2026-05-01T09:49:17.846Z</time></trkpt><trkpt lat="43.7036598" lon="10.9318417"><ele>24.0</ele><time>2026-05-01T09:49:23.847Z</time></trkpt><trkpt lat="43.7035946" lon="10.9317913"><ele>24.0</ele><time>2026-05-01T09:49:29.846Z</time></trkpt><trkpt lat="43.7035429" lon="10.9317392"><ele>24.0</ele><time>2026-05-01T09:49:34.845Z</time></trkpt><trkpt lat="43.7034803" lon="10.9316956"><ele>24.0</ele><time>2026-05-01T09:49:40.809Z</time></trkpt><trkpt lat="43.7034249" lon="10.9316468"><ele>23.999999999999996</ele><time>2026-05-01T09:49:45.846Z</time></trkpt><trkpt lat="43.7033604" lon="10.9316163"><ele>24.0</ele><time>2026-05-01T09:49:52.887Z</time></trkpt><trkpt lat="43.7033122" lon="10.9315367"><ele>24.428571428571427</ele><time>2026-05-01T09:49:57.845Z</time></trkpt><trkpt lat="43.7032586" lon="10.9314676"><ele>24.857142857142858</ele><time>2026-05-01T09:50:03.846Z</time></trkpt><trkpt lat="43.7032072" lon="10.931416"><ele>25.285714285714285</ele><time>2026-05-01T09:50:09.85Z</time></trkpt><trkpt lat="43.7031697" lon="10.9313413"><ele>25.714285714285715</ele><time>2026-05-01T09:50:14.846Z</time></trkpt><trkpt lat="43.7031277" lon="10.931271"><ele>26.142857142857142</ele><time>2026-05-01T09:50:20.845Z</time></trkpt><trkpt lat="43.7030603" lon="10.9312848"><ele>26.57142857142857</ele><time>2026-05-01T09:50:50.849Z</time></trkpt><trkpt lat="43.7030213" lon="10.9311947"><ele>27.0</ele><time>2026-05-01T09:50:55.846Z</time></trkpt><trkpt lat="43.7029757" lon="10.9311191"><ele>27.0</ele><time>2026-05-01T09:51:00.814Z</time></trkpt><trkpt lat="43.702923" lon="10.9310534"><ele>27.0</ele><time>2026-05-01T09:51:05.829Z</time></trkpt><trkpt lat="43.702869" lon="10.9309948"><ele>27.0</ele><time>2026-05-01T09:51:10.845Z</time></trkpt><trkpt lat="43.7028077" lon="10.9309321"><ele>27.0</ele><time>2026-05-01T09:51:16.846Z</time></trkpt><trkpt lat="43.7027507" lon="10.9308721"><ele>27.0</ele><time>2026-05-01T09:51:21.846Z</time></trkpt><trkpt lat="43.7026902" lon="10.9308184"><ele>27.0</ele><time>2026-05-01T09:51:27.845Z</time></trkpt><trkpt lat="43.7026387" lon="10.9307596"><ele>27.0</ele><time>2026-05-01T09:51:32.849Z</time></trkpt><trkpt lat="43.702586" lon="10.9307091"><ele>28.0</ele><time>2026-05-01T09:51:38.845Z</time></trkpt><trkpt lat="43.7025296" lon="10.9306557"><ele>29.0</ele><time>2026-05-01T09:51:44.776Z</time></trkpt><trkpt lat="43.7024689" lon="10.9306235"><ele>30.0</ele><time>2026-05-01T09:51:49.85Z</time></trkpt><trkpt lat="43.7024051" lon="10.9305871"><ele>31.0</ele><time>2026-05-01T09:51:55.846Z</time></trkpt><trkpt lat="43.7023439" lon="10.9305616"><ele>32.0</ele><time>2026-05-01T09:52:02.845Z</time></trkpt><trkpt lat="43.7022743" lon="10.930518"><ele>32.99999999999999</ele><time>2026-05-01T09:52:08.846Z</time></trkpt><trkpt lat="43.7022059" lon="10.9304822"><ele>34.0</ele><time>2026-05-01T09:52:13.846Z</time></trkpt><trkpt lat="43.7021387" lon="10.9304621"><ele>33.99999999999999</ele><time>2026-05-01T09:52:19.846Z</time></trkpt><trkpt lat="43.7020773" lon="10.9304408"><ele>34.0</ele><time>2026-05-01T09:52:25.846Z</time></trkpt><trkpt lat="43.7020131" lon="10.9304268"><ele>34.0</ele><time>2026-05-01T09:52:31.846Z</time></trkpt><trkpt lat="43.7019475" lon="10.9304083"><ele>34.0</ele><time>2026-05-01T09:52:37.849Z</time></trkpt><trkpt lat="43.7018775" lon="10.9304203"><ele>34.0</ele><time>2026-05-01T09:52:44.846Z</time></trkpt><trkpt lat="43.7018112" lon="10.9304446"><ele>33.99999999999999</ele><time>2026-05-01T09:52:50.849Z</time></trkpt><trkpt lat="43.7017464" lon="10.9304318"><ele>34.0</ele><time>2026-05-01T09:52:55.846Z</time></trkpt><trkpt lat="43.7016684" lon="10.9304427"><ele>35.57142857142857</ele><time>2026-05-01T09:53:01.804Z</time></trkpt><trkpt lat="43.7016008" lon="10.930442"><ele>37.14285714285714</ele><time>2026-05-01T09:53:07.845Z</time></trkpt><trkpt lat="43.7015312" lon="10.9304398"><ele>38.71428571428571</ele><time>2026-05-01T09:53:13.845Z</time></trkpt><trkpt lat="43.7014586" lon="10.9304376"><ele>40.285714285714285</ele><time>2026-05-01T09:53:19.755Z</time></trkpt><trkpt lat="43.7013886" lon="10.9304569"><ele>41.85714285714286</ele><time>2026-05-01T09:53:24.865Z</time></trkpt><trkpt lat="43.7013239" lon="10.9304688"><ele>43.42857142857142</ele><time>2026-05-01T09:53:29.846Z</time></trkpt><trkpt lat="43.7012534" lon="10.9304925"><ele>45.0</ele><time>2026-05-01T09:53:35.811Z</time></trkpt><trkpt lat="43.7011852" lon="10.9304967"><ele>45.0</ele><time>2026-05-01T09:53:41.846Z</time></trkpt><trkpt lat="43.7011128" lon="10.9304982"><ele>45.0</ele><time>2026-05-01T09:53:47.849Z</time></trkpt><trkpt lat="43.7010417" lon="10.9304683"><ele>45.0</ele><time>2026-05-01T09:53:53.764Z</time></trkpt><trkpt lat="43.7009698" lon="10.9304324"><ele>45.0</ele><time>2026-05-01T09:53:59.908Z</time></trkpt><trkpt lat="43.7009146" lon="10.930383"><ele>45.0</ele><time>2026-05-01T09:54:04.846Z</time></trkpt><trkpt lat="43.700859" lon="10.9303255"><ele>45.0</ele><time>2026-05-01T09:54:10.754Z</time></trkpt><trkpt lat="43.7008106" lon="10.9302623"><ele>45.0</ele><time>2026-05-01T09:54:15.847Z</time></trkpt><trkpt lat="43.7007602" lon="10.9301969"><ele>45.857142857142854</ele><time>2026-05-01T09:54:21.845Z</time></trkpt><trkpt lat="43.7006998" lon="10.930141"><ele>46.714285714285715</ele><time>2026-05-01T09:54:27.845Z</time></trkpt><trkpt lat="43.7006437" lon="10.9300864"><ele>47.57142857142857</ele><time>2026-05-01T09:54:33.846Z</time></trkpt><trkpt lat="43.7005933" lon="10.9300299"><ele>48.42857142857143</ele><time>2026-05-01T09:54:38.845Z</time></trkpt><trkpt lat="43.7005372" lon="10.9299638"><ele>49.28571428571429</ele><time>2026-05-01T09:54:44.847Z</time></trkpt><trkpt lat="43.7004826" lon="10.9299082"><ele>50.142857142857146</ele><time>2026-05-01T09:54:50.845Z</time></trkpt><trkpt lat="43.7004283" lon="10.9298435"><ele>51.0</ele><time>2026-05-01T09:54:56.852Z</time></trkpt><trkpt lat="43.7003708" lon="10.9297851"><ele>51.0</ele><time>2026-05-01T09:55:02.845Z</time></trkpt><trkpt lat="43.7003131" lon="10.9297299"><ele>51.0</ele><time>2026-05-01T09:55:08.845Z</time></trkpt><trkpt lat="43.7002569" lon="10.9296682"><ele>51.0</ele><time>2026-05-01T09:55:14.848Z</time></trkpt><trkpt lat="43.7002057" lon="10.9296019"><ele>51.0</ele><time>2026-05-01T09:55:20.845Z</time></trkpt><trkpt lat="43.7001575" lon="10.9295438"><ele>51.0</ele><time>2026-05-01T09:55:25.845Z</time></trkpt><trkpt lat="43.7001005" lon="10.9294892"><ele>51.0</ele><time>2026-05-01T09:55:31.845Z</time></trkpt><trkpt lat="43.700047" lon="10.9294376"><ele>51.0</ele><time>2026-05-01T09:55:36.848Z</time></trkpt><trkpt lat="43.6999794" lon="10.9294282"><ele>52.0</ele><time>2026-05-01T09:55:41.845Z</time></trkpt><trkpt lat="43.6999268" lon="10.9294772"><ele>53.0</ele><time>2026-05-01T09:55:46.846Z</time></trkpt><trkpt lat="43.6998992" lon="10.929562"><ele>54.0</ele><time>2026-05-01T09:55:51.849Z</time></trkpt><trkpt lat="43.6998795" lon="10.9296501"><ele>55.0</ele><time>2026-05-01T09:55:56.846Z</time></trkpt><trkpt lat="43.6998561" lon="10.9297333"><ele>56.0</ele><time>2026-05-01T09:56:01.845Z</time></trkpt><trkpt lat="43.699835" lon="10.929817"><ele>57.00000000000001</ele><time>2026-05-01T09:56:06.85Z</time></trkpt><trkpt lat="43.6998107" lon="10.9299006"><ele>58.00000000000001</ele><time>2026-05-01T09:56:11.846Z</time></trkpt><trkpt lat="43.6997826" lon="10.9299924"><ele>58.14285714285715</ele><time>2026-05-01T09:56:17.813Z</time></trkpt><trkpt lat="43.6997573" lon="10.9300855"><ele>58.28571428571429</ele><time>2026-05-01T09:56:23.846Z</time></trkpt><trkpt lat="43.6997265" lon="10.9301769"><ele>58.42857142857143</ele><time>2026-05-01T09:56:29.748Z</time></trkpt><trkpt lat="43.6996973" lon="10.9302816"><ele>58.57142857142858</ele><time>2026-05-01T09:56:35.849Z</time></trkpt><trkpt lat="43.6996704" lon="10.9303704"><ele>58.71428571428572</ele><time>2026-05-01T09:56:41.796Z</time></trkpt><trkpt lat="43.6996456" lon="10.9304651"><ele>58.857142857142854</ele><time>2026-05-01T09:56:47.846Z</time></trkpt><trkpt lat="43.6996222" lon="10.9305579"><ele>59.0</ele><time>2026-05-01T09:56:53.85Z</time></trkpt><trkpt lat="43.6995924" lon="10.9306501"><ele>59.0</ele><time>2026-05-01T09:56:59.846Z</time></trkpt><trkpt lat="43.6995616" lon="10.9307426"><ele>59.0</ele><time>2026-05-01T09:57:05.829Z</time></trkpt><trkpt lat="43.6995366" lon="10.9308391"><ele>59.0</ele><time>2026-05-01T09:57:11.846Z</time></trkpt><trkpt lat="43.6995109" lon="10.9309194"><ele>59.0</ele><time>2026-05-01T09:57:16.846Z</time></trkpt><trkpt lat="43.6994865" lon="10.9310101"><ele>59.0</ele><time>2026-05-01T09:57:22.853Z</time></trkpt><trkpt lat="43.6994606" lon="10.931091"><ele>59.0</ele><time>2026-05-01T09:57:27.846Z</time></trkpt><trkpt lat="43.6994332" lon="10.9311824"><ele>59.0</ele><time>2026-05-01T09:57:33.848Z</time></trkpt><trkpt lat="43.6994007" lon="10.9312769"><ele>59.285714285714285</ele><time>2026-05-01T09:57:39.845Z</time></trkpt><trkpt lat="43.6993783" lon="10.9313692"><ele>59.57142857142857</ele><time>2026-05-01T09:57:45.845Z</time></trkpt><trkpt lat="43.699348" lon="10.9314613"><ele>59.857142857142854</ele><time>2026-05-01T09:57:51.846Z</time></trkpt><trkpt lat="43.6993277" lon="10.93156"><ele>60.14285714285714</ele><time>2026-05-01T09:57:57.845Z</time></trkpt><trkpt lat="43.699305" lon="10.9316426"><ele>60.42857142857143</ele><time>2026-05-01T09:58:02.849Z</time></trkpt><trkpt lat="43.6992741" lon="10.9317287"><ele>60.71428571428571</ele><time>2026-05-01T09:58:08.866Z</time></trkpt><trkpt lat="43.6992556" lon="10.9318267"><ele>60.99999999999999</ele><time>2026-05-01T09:58:14.845Z</time></trkpt><trkpt lat="43.6992334" lon="10.9319087"><ele>61.428571428571416</ele><time>2026-05-01T09:58:19.846Z</time></trkpt><trkpt lat="43.6992076" lon="10.9320044"><ele>61.857142857142854</ele><time>2026-05-01T09:58:25.846Z</time></trkpt><trkpt lat="43.6991801" lon="10.9320981"><ele>62.28571428571428</ele><time>2026-05-01T09:58:31.848Z</time></trkpt><trkpt lat="43.6991539" lon="10.9321864"><ele>62.71428571428571</ele><time>2026-05-01T09:58:37.846Z</time></trkpt><trkpt lat="43.699131" lon="10.9322712"><ele>63.14285714285714</ele><time>2026-05-01T09:58:42.845Z</time></trkpt><trkpt lat="43.6991035" lon="10.9323643"><ele>63.57142857142857</ele><time>2026-05-01T09:58:48.779Z</time></trkpt><trkpt lat="43.6990719" lon="10.932452"><ele>64.0</ele><time>2026-05-01T09:58:54.845Z</time></trkpt><trkpt lat="43.6990471" lon="10.9325379"><ele>63.857142857142854</ele><time>2026-05-01T09:58:59.846Z</time></trkpt><trkpt lat="43.6990188" lon="10.9326209"><ele>63.71428571428571</ele><time>2026-05-01T09:59:04.894Z</time></trkpt><trkpt lat="43.6989914" lon="10.9327062"><ele>63.57142857142857</ele><time>2026-05-01T09:59:09.845Z</time></trkpt><trkpt lat="43.6989635" lon="10.932795"><ele>63.42857142857143</ele><time>2026-05-01T09:59:15.819Z</time></trkpt><trkpt lat="43.6989405" lon="10.9328773"><ele>63.285714285714285</ele><time>2026-05-01T09:59:20.927Z</time></trkpt><trkpt lat="43.6989146" lon="10.9329731"><ele>63.14285714285714</ele><time>2026-05-01T09:59:26.846Z</time></trkpt><trkpt lat="43.6988923" lon="10.9330728"><ele>63.0</ele><time>2026-05-01T09:59:32.892Z</time></trkpt><trkpt lat="43.6988634" lon="10.9331657"><ele>63.0</ele><time>2026-05-01T09:59:38.845Z</time></trkpt><trkpt lat="43.6988341" lon="10.9332547"><ele>63.0</ele><time>2026-05-01T09:59:44.865Z</time></trkpt><trkpt lat="43.6988057" lon="10.9333483"><ele>63.0</ele><time>2026-05-01T09:59:50.846Z</time></trkpt><trkpt lat="43.6987802" lon="10.9334455"><ele>63.0</ele><time>2026-05-01T09:59:56.754Z</time></trkpt><trkpt lat="43.6987642" lon="10.933538"><ele>63.0</ele><time>2026-05-01T10:00:02.845Z</time></trkpt><trkpt lat="43.6987363" lon="10.933631"><ele>63.0</ele><time>2026-05-01T10:00:08.892Z</time></trkpt><trkpt lat="43.6987137" lon="10.9337209"><ele>63.0</ele><time>2026-05-01T10:00:14.286Z</time></trkpt><trkpt lat="43.6986867" lon="10.9338119"><ele>63.14285714285714</ele><time>2026-05-01T10:00:19.777Z</time></trkpt><trkpt lat="43.6986619" lon="10.9338961"><ele>63.285714285714285</ele><time>2026-05-01T10:00:24.851Z</time></trkpt><trkpt lat="43.6986189" lon="10.9339789"><ele>63.42857142857143</ele><time>2026-05-01T10:00:30.846Z</time></trkpt><trkpt lat="43.6985434" lon="10.9339732"><ele>63.57142857142857</ele><time>2026-05-01T10:00:36.846Z</time></trkpt><trkpt lat="43.6984793" lon="10.9339407"><ele>63.71428571428571</ele><time>2026-05-01T10:00:41.845Z</time></trkpt><trkpt lat="43.6984074" lon="10.9339214"><ele>63.857142857142854</ele><time>2026-05-01T10:00:48.847Z</time></trkpt><trkpt lat="43.6983414" lon="10.9338822"><ele>64.0</ele><time>2026-05-01T10:00:53.845Z</time></trkpt><trkpt lat="43.6982772" lon="10.9338971"><ele>64.28571428571428</ele><time>2026-05-01T10:00:59.846Z</time></trkpt><trkpt lat="43.6982155" lon="10.9338627"><ele>64.57142857142857</ele><time>2026-05-01T10:01:05.85Z</time></trkpt><trkpt lat="43.6981439" lon="10.9338462"><ele>64.85714285714286</ele><time>2026-05-01T10:01:11.845Z</time></trkpt><trkpt lat="43.6980797" lon="10.9338342"><ele>65.14285714285714</ele><time>2026-05-01T10:01:17.846Z</time></trkpt><trkpt lat="43.6980163" lon="10.9338285"><ele>65.42857142857143</ele><time>2026-05-01T10:01:23.846Z</time></trkpt><trkpt lat="43.6979465" lon="10.9338122"><ele>65.71428571428571</ele><time>2026-05-01T10:01:29.813Z</time></trkpt><trkpt lat="43.697885" lon="10.933781"><ele>66.0</ele><time>2026-05-01T10:01:35.83Z</time></trkpt><trkpt lat="43.6978193" lon="10.933745"><ele>65.42857142857143</ele><time>2026-05-01T10:01:41.845Z</time></trkpt><trkpt lat="43.6977451" lon="10.9337244"><ele>64.85714285714286</ele><time>2026-05-01T10:01:47.846Z</time></trkpt><trkpt lat="43.6976818" lon="10.9337015"><ele>64.28571428571429</ele><time>2026-05-01T10:01:52.848Z</time></trkpt><trkpt lat="43.6976201" lon="10.9336692"><ele>63.714285714285715</ele><time>2026-05-01T10:01:58.846Z</time></trkpt><trkpt lat="43.6975472" lon="10.9336498"><ele>63.14285714285715</ele><time>2026-05-01T10:02:04.846Z</time></trkpt><trkpt lat="43.6974813" lon="10.9336124"><ele>62.57142857142858</ele><time>2026-05-01T10:02:10.845Z</time></trkpt><trkpt lat="43.6974152" lon="10.9336062"><ele>62.0</ele><time>2026-05-01T10:02:15.846Z</time></trkpt><trkpt lat="43.697351" lon="10.9335885"><ele>62.0</ele><time>2026-05-01T10:02:21.248Z</time></trkpt><trkpt lat="43.6972759" lon="10.9335734"><ele>62.00000000000001</ele><time>2026-05-01T10:02:27.855Z</time></trkpt><trkpt lat="43.6972145" lon="10.9335535"><ele>62.0</ele><time>2026-05-01T10:02:32.846Z</time></trkpt><trkpt lat="43.6971407" lon="10.9335414"><ele>62.0</ele><time>2026-05-01T10:02:38.841Z</time></trkpt><trkpt lat="43.6970668" lon="10.9335507"><ele>62.00000000000001</ele><time>2026-05-01T10:02:44.847Z</time></trkpt><trkpt lat="43.6970049" lon="10.9335678"><ele>62.0</ele><time>2026-05-01T10:02:49.846Z</time></trkpt><trkpt lat="43.6969419" lon="10.9335822"><ele>62.0</ele><time>2026-05-01T10:02:54.857Z</time></trkpt><trkpt lat="43.6968702" lon="10.9335994"><ele>62.28571428571429</ele><time>2026-05-01T10:03:00.847Z</time></trkpt><trkpt lat="43.6968031" lon="10.933629"><ele>62.57142857142858</ele><time>2026-05-01T10:03:06.78Z</time></trkpt><trkpt lat="43.6967434" lon="10.9336639"><ele>62.85714285714286</ele><time>2026-05-01T10:03:12.847Z</time></trkpt><trkpt lat="43.6966644" lon="10.9336808"><ele>63.14285714285714</ele><time>2026-05-01T10:03:18.757Z</time></trkpt><trkpt lat="43.6966039" lon="10.9337192"><ele>63.42857142857142</ele><time>2026-05-01T10:03:24.859Z</time></trkpt><trkpt lat="43.6965351" lon="10.9337539"><ele>63.71428571428571</ele><time>2026-05-01T10:03:30.846Z</time></trkpt><trkpt lat="43.6964674" lon="10.9337911"><ele>64.0</ele><time>2026-05-01T10:03:36.855Z</time></trkpt><trkpt lat="43.6964009" lon="10.9338193"><ele>64.0</ele><time>2026-05-01T10:03:42.832Z</time></trkpt><trkpt lat="43.6963299" lon="10.9338456"><ele>63.99999999999999</ele><time>2026-05-01T10:03:48.852Z</time></trkpt><trkpt lat="43.6962672" lon="10.9338696"><ele>64.0</ele><time>2026-05-01T10:03:53.858Z</time></trkpt><trkpt lat="43.6962052" lon="10.9338961"><ele>64.0</ele><time>2026-05-01T10:03:59.847Z</time></trkpt><trkpt lat="43.6961356" lon="10.9339232"><ele>63.99999999999999</ele><time>2026-05-01T10:04:05.855Z</time></trkpt><trkpt lat="43.696068" lon="10.9339552"><ele>64.0</ele><time>2026-05-01T10:04:11.872Z</time></trkpt><trkpt lat="43.6959996" lon="10.9339901"><ele>64.0</ele><time>2026-05-01T10:04:17.851Z</time></trkpt><trkpt lat="43.6959331" lon="10.9340113"><ele>64.28571428571428</ele><time>2026-05-01T10:04:23.847Z</time></trkpt><trkpt lat="43.695858" lon="10.9340421"><ele>64.57142857142857</ele><time>2026-05-01T10:04:29.846Z</time></trkpt><trkpt lat="43.6957991" lon="10.9340919"><ele>64.85714285714286</ele><time>2026-05-01T10:04:35.856Z</time></trkpt><trkpt lat="43.6957557" lon="10.9341727"><ele>65.14285714285714</ele><time>2026-05-01T10:04:41.847Z</time></trkpt><trkpt lat="43.6957195" lon="10.9342577"><ele>65.42857142857143</ele><time>2026-05-01T10:04:47.853Z</time></trkpt><trkpt lat="43.6957005" lon="10.9343488"><ele>65.71428571428571</ele><time>2026-05-01T10:04:53.847Z</time></trkpt><trkpt lat="43.6956793" lon="10.9344309"><ele>66.0</ele><time>2026-05-01T10:04:58.847Z</time></trkpt><trkpt lat="43.695654" lon="10.9345282"><ele>66.14285714285714</ele><time>2026-05-01T10:05:04.857Z</time></trkpt><trkpt lat="43.6956358" lon="10.9346165"><ele>66.28571428571429</ele><time>2026-05-01T10:05:10.847Z</time></trkpt><trkpt lat="43.6956225" lon="10.9347109"><ele>66.42857142857143</ele><time>2026-05-01T10:05:16.852Z</time></trkpt><trkpt lat="43.6955851" lon="10.9347983"><ele>66.57142857142857</ele><time>2026-05-01T10:05:22.847Z</time></trkpt><trkpt lat="43.6955364" lon="10.9348543"><ele>66.71428571428571</ele><time>2026-05-01T10:05:27.846Z</time></trkpt><trkpt lat="43.6954671" lon="10.9348625"><ele>66.85714285714286</ele><time>2026-05-01T10:05:33.844Z</time></trkpt><trkpt lat="43.6953996" lon="10.9348641"><ele>67.0</ele><time>2026-05-01T10:05:38.847Z</time></trkpt><trkpt lat="43.6953266" lon="10.9348551"><ele>67.0</ele><time>2026-05-01T10:05:44.852Z</time></trkpt><trkpt lat="43.6952557" lon="10.9348404"><ele>67.0</ele><time>2026-05-01T10:05:50.749Z</time></trkpt><trkpt lat="43.6951918" lon="10.93483"><ele>67.0</ele><time>2026-05-01T10:05:55.847Z</time></trkpt><trkpt lat="43.69512" lon="10.9348163"><ele>67.0</ele><time>2026-05-01T10:06:01.856Z</time></trkpt><trkpt lat="43.6950502" lon="10.9348077"><ele>67.0</ele><time>2026-05-01T10:06:07.847Z</time></trkpt><trkpt lat="43.6949807" lon="10.9348038"><ele>67.0</ele><time>2026-05-01T10:06:12.851Z</time></trkpt><trkpt lat="43.6949155" lon="10.934792"><ele>67.0</ele><time>2026-05-01T10:06:18.859Z</time></trkpt><trkpt lat="43.6948432" lon="10.9347798"><ele>67.0</ele><time>2026-05-01T10:06:24.847Z</time></trkpt><trkpt lat="43.6947781" lon="10.9347589"><ele>67.0</ele><time>2026-05-01T10:06:29.892Z</time></trkpt><trkpt lat="43.6947042" lon="10.9347474"><ele>67.0</ele><time>2026-05-01T10:06:35.846Z</time></trkpt><trkpt lat="43.6946336" lon="10.9347367"><ele>67.0</ele><time>2026-05-01T10:06:41.859Z</time></trkpt><trkpt lat="43.6945698" lon="10.9347237"><ele>67.0</ele><time>2026-05-01T10:06:47.846Z</time></trkpt><trkpt lat="43.6944988" lon="10.934707"><ele>67.0</ele><time>2026-05-01T10:06:53.842Z</time></trkpt><trkpt lat="43.6944347" lon="10.9347035"><ele>67.0</ele><time>2026-05-01T10:06:58.853Z</time></trkpt><trkpt lat="43.6943713" lon="10.9346863"><ele>66.85714285714286</ele><time>2026-05-01T10:07:03.847Z</time></trkpt><trkpt lat="43.6943018" lon="10.93467"><ele>66.71428571428571</ele><time>2026-05-01T10:07:09.847Z</time></trkpt><trkpt lat="43.6942382" lon="10.9346638"><ele>66.57142857142857</ele><time>2026-05-01T10:07:14.856Z</time></trkpt><trkpt lat="43.6941622" lon="10.9346554"><ele>66.42857142857143</ele><time>2026-05-01T10:07:20.847Z</time></trkpt><trkpt lat="43.6940955" lon="10.9346393"><ele>66.28571428571429</ele><time>2026-05-01T10:07:26.78Z</time></trkpt><trkpt lat="43.6940241" lon="10.9346304"><ele>66.14285714285714</ele><time>2026-05-01T10:07:32.847Z</time></trkpt><trkpt lat="43.6939612" lon="10.9346177"><ele>66.0</ele><time>2026-05-01T10:07:37.816Z</time></trkpt><trkpt lat="43.6938903" lon="10.9346016"><ele>66.0</ele><time>2026-05-01T10:07:43.846Z</time></trkpt><trkpt lat="43.6938208" lon="10.9345713"><ele>66.0</ele><time>2026-05-01T10:07:49.882Z</time></trkpt><trkpt lat="43.69375" lon="10.9345512"><ele>66.0</ele><time>2026-05-01T10:07:55.852Z</time></trkpt><trkpt lat="43.6936834" lon="10.9345227"><ele>66.0</ele><time>2026-05-01T10:08:01.846Z</time></trkpt><trkpt lat="43.6936182" lon="10.9344983"><ele>66.0</ele><time>2026-05-01T10:08:07.555Z</time></trkpt><trkpt lat="43.6935464" lon="10.9344759"><ele>66.0</ele><time>2026-05-01T10:08:13.836Z</time></trkpt><trkpt lat="43.693479" lon="10.9344452"><ele>66.0</ele><time>2026-05-01T10:08:19.793Z</time></trkpt><trkpt lat="43.6934115" lon="10.9344225"><ele>66.42857142857143</ele><time>2026-05-01T10:08:25.854Z</time></trkpt><trkpt lat="43.6933469" lon="10.9343976"><ele>66.85714285714286</ele><time>2026-05-01T10:08:31.781Z</time></trkpt><trkpt lat="43.6932735" lon="10.9343695"><ele>67.28571428571429</ele><time>2026-05-01T10:08:37.846Z</time></trkpt><trkpt lat="43.6932081" lon="10.9343463"><ele>67.71428571428572</ele><time>2026-05-01T10:08:43.847Z</time></trkpt><trkpt lat="43.6931508" lon="10.9343089"><ele>68.14285714285715</ele><time>2026-05-01T10:08:48.847Z</time></trkpt><trkpt lat="43.6930784" lon="10.934282"><ele>68.57142857142857</ele><time>2026-05-01T10:08:56.847Z</time></trkpt><trkpt lat="43.6930187" lon="10.9342492"><ele>69.0</ele><time>2026-05-01T10:09:01.852Z</time></trkpt><trkpt lat="43.6929445" lon="10.9342215"><ele>69.57142857142857</ele><time>2026-05-01T10:09:08.846Z</time></trkpt><trkpt lat="43.6928885" lon="10.9341639"><ele>70.14285714285715</ele><time>2026-05-01T10:09:13.798Z</time></trkpt><trkpt lat="43.6928201" lon="10.9341219"><ele>70.71428571428572</ele><time>2026-05-01T10:09:19.858Z</time></trkpt><trkpt lat="43.6927547" lon="10.9340834"><ele>71.28571428571429</ele><time>2026-05-01T10:09:25.847Z</time></trkpt><trkpt lat="43.6926972" lon="10.9340404"><ele>71.85714285714286</ele><time>2026-05-01T10:09:30.79Z</time></trkpt><trkpt lat="43.6926361" lon="10.9339918"><ele>72.42857142857143</ele><time>2026-05-01T10:09:36.847Z</time></trkpt><trkpt lat="43.6925736" lon="10.9339466"><ele>73.0</ele><time>2026-05-01T10:09:42.847Z</time></trkpt><trkpt lat="43.692509" lon="10.9338925"><ele>73.0</ele><time>2026-05-01T10:09:48.786Z</time></trkpt><trkpt lat="43.6924457" lon="10.9338448"><ele>73.0</ele><time>2026-05-01T10:09:54.847Z</time></trkpt><trkpt lat="43.6923874" lon="10.9337971"><ele>73.0</ele><time>2026-05-01T10:09:59.853Z</time></trkpt><trkpt lat="43.692328" lon="10.9337532"><ele>73.0</ele><time>2026-05-01T10:10:05.846Z</time></trkpt><trkpt lat="43.692267" lon="10.933702"><ele>73.0</ele><time>2026-05-01T10:10:11.846Z</time></trkpt><trkpt lat="43.692208" lon="10.9336483"><ele>73.0</ele><time>2026-05-01T10:10:17.846Z</time></trkpt><trkpt lat="43.6921536" lon="10.9335895"><ele>73.0</ele><time>2026-05-01T10:10:23.794Z</time></trkpt><trkpt lat="43.6921019" lon="10.9335328"><ele>73.0</ele><time>2026-05-01T10:10:29.855Z</time></trkpt><trkpt lat="43.6920433" lon="10.9334971"><ele>73.0</ele><time>2026-05-01T10:10:34.846Z</time></trkpt><trkpt lat="43.6919902" lon="10.9334493"><ele>73.0</ele><time>2026-05-01T10:10:39.847Z</time></trkpt><trkpt lat="43.6919372" lon="10.9333821"><ele>73.0</ele><time>2026-05-01T10:10:46.838Z</time></trkpt><trkpt lat="43.6918877" lon="10.933314"><ele>73.0</ele><time>2026-05-01T10:10:52.763Z</time></trkpt><trkpt lat="43.6918436" lon="10.9332402"><ele>73.0</ele><time>2026-05-01T10:10:58.854Z</time></trkpt><trkpt lat="43.6918135" lon="10.9331628"><ele>73.0</ele><time>2026-05-01T10:11:03.846Z</time></trkpt><trkpt lat="43.6917855" lon="10.9330815"><ele>73.14285714285714</ele><time>2026-05-01T10:11:08.847Z</time></trkpt><trkpt lat="43.6917504" lon="10.9330028"><ele>73.28571428571429</ele><time>2026-05-01T10:11:14.856Z</time></trkpt><trkpt lat="43.6917094" lon="10.932928"><ele>73.42857142857143</ele><time>2026-05-01T10:11:20.846Z</time></trkpt><trkpt lat="43.6916691" lon="10.9328504"><ele>73.57142857142857</ele><time>2026-05-01T10:11:26.821Z</time></trkpt><trkpt lat="43.6916343" lon="10.9327723"><ele>73.71428571428571</ele><time>2026-05-01T10:11:32.82Z</time></trkpt><trkpt lat="43.6915953" lon="10.9326898"><ele>73.85714285714286</ele><time>2026-05-01T10:11:38.85Z</time></trkpt><trkpt lat="43.6915634" lon="10.9326049"><ele>74.0</ele><time>2026-05-01T10:11:45.847Z</time></trkpt><trkpt lat="43.6915307" lon="10.9325281"><ele>75.71428571428572</ele><time>2026-05-01T10:11:51.808Z</time></trkpt><trkpt lat="43.69149" lon="10.9324523"><ele>77.42857142857143</ele><time>2026-05-01T10:11:57.856Z</time></trkpt><trkpt lat="43.6914589" lon="10.9323727"><ele>79.14285714285714</ele><time>2026-05-01T10:12:03.772Z</time></trkpt><trkpt lat="43.6914285" lon="10.9322815"><ele>80.85714285714286</ele><time>2026-05-01T10:12:09.853Z</time></trkpt><trkpt lat="43.6913953" lon="10.9322035"><ele>82.57142857142857</ele><time>2026-05-01T10:12:15.847Z</time></trkpt><trkpt lat="43.6913602" lon="10.9321189"><ele>84.28571428571429</ele><time>2026-05-01T10:12:21.847Z</time></trkpt><trkpt lat="43.6913214" lon="10.932041"><ele>86.0</ele><time>2026-05-01T10:12:27.858Z</time></trkpt><trkpt lat="43.6912887" lon="10.9319627"><ele>86.00000000000001</ele><time>2026-05-01T10:12:33.847Z</time></trkpt><trkpt lat="43.6912551" lon="10.9318774"><ele>86.0</ele><time>2026-05-01T10:12:39.874Z</time></trkpt><trkpt lat="43.6912181" lon="10.9317987"><ele>86.0</ele><time>2026-05-01T10:12:45.847Z</time></trkpt><trkpt lat="43.6911893" lon="10.9317053"><ele>86.0</ele><time>2026-05-01T10:12:51.851Z</time></trkpt><trkpt lat="43.691158" lon="10.9316076"><ele>86.0</ele><time>2026-05-01T10:12:57.847Z</time></trkpt><trkpt lat="43.6911287" lon="10.9315201"><ele>86.00000000000001</ele><time>2026-05-01T10:13:03.875Z</time></trkpt><trkpt lat="43.6911" lon="10.9314403"><ele>86.0</ele><time>2026-05-01T10:13:08.854Z</time></trkpt><trkpt lat="43.6910776" lon="10.9313477"><ele>86.57142857142858</ele><time>2026-05-01T10:13:14.847Z</time></trkpt><trkpt lat="43.6910572" lon="10.9312494"><ele>87.14285714285714</ele><time>2026-05-01T10:13:20.851Z</time></trkpt><trkpt lat="43.691033" lon="10.9311555"><ele>87.71428571428572</ele><time>2026-05-01T10:13:27.847Z</time></trkpt><trkpt lat="43.6909898" lon="10.9310773"><ele>88.28571428571429</ele><time>2026-05-01T10:13:33.847Z</time></trkpt><trkpt lat="43.6909328" lon="10.9310148"><ele>88.85714285714286</ele><time>2026-05-01T10:13:39.857Z</time></trkpt><trkpt lat="43.6908865" lon="10.930952"><ele>89.42857142857143</ele><time>2026-05-01T10:13:44.85Z</time></trkpt><trkpt lat="43.6908399" lon="10.930881"><ele>90.0</ele><time>2026-05-01T10:13:50.829Z</time></trkpt><trkpt lat="43.6908038" lon="10.9308007"><ele>91.28571428571428</ele><time>2026-05-01T10:13:56.846Z</time></trkpt><trkpt lat="43.6907709" lon="10.9307169"><ele>92.57142857142858</ele><time>2026-05-01T10:14:02.885Z</time></trkpt><trkpt lat="43.6907337" lon="10.9306261"><ele>93.85714285714286</ele><time>2026-05-01T10:14:08.824Z</time></trkpt><trkpt lat="43.6906983" lon="10.9305424"><ele>95.14285714285714</ele><time>2026-05-01T10:14:15.846Z</time></trkpt><trkpt lat="43.6906531" lon="10.9304759"><ele>96.42857142857142</ele><time>2026-05-01T10:14:20.892Z</time></trkpt><trkpt lat="43.6906069" lon="10.9304033"><ele>97.71428571428572</ele><time>2026-05-01T10:14:26.847Z</time></trkpt><trkpt lat="43.6905409" lon="10.9303613"><ele>99.0</ele><time>2026-05-01T10:14:32.847Z</time></trkpt><trkpt lat="43.6904827" lon="10.930326"><ele>99.0</ele><time>2026-05-01T10:14:41.891Z</time></trkpt><trkpt lat="43.6904138" lon="10.9303413"><ele>99.0</ele><time>2026-05-01T10:14:47.85Z</time></trkpt><trkpt lat="43.6903622" lon="10.9303993"><ele>99.0</ele><time>2026-05-01T10:14:55.147Z</time></trkpt><trkpt lat="43.6903085" lon="10.930468"><ele>99.0</ele><time>2026-05-01T10:15:02.729Z</time></trkpt><trkpt lat="43.690263" lon="10.9305319"><ele>99.0</ele><time>2026-05-01T10:15:06.849Z</time></trkpt><trkpt lat="43.6902075" lon="10.9305933"><ele>99.0</ele><time>2026-05-01T10:15:12.849Z</time></trkpt><trkpt lat="43.6901602" lon="10.9306706"><ele>99.0</ele><time>2026-05-01T10:15:18.853Z</time></trkpt><trkpt lat="43.6901133" lon="10.9307425"><ele>98.28571428571429</ele><time>2026-05-01T10:15:24.849Z</time></trkpt><trkpt lat="43.6900576" lon="10.9307921"><ele>97.57142857142857</ele><time>2026-05-01T10:15:29.849Z</time></trkpt><trkpt lat="43.690006" lon="10.9308452"><ele>96.85714285714286</ele><time>2026-05-01T10:15:34.849Z</time></trkpt><trkpt lat="43.6899462" lon="10.9309057"><ele>96.14285714285714</ele><time>2026-05-01T10:15:40.849Z</time></trkpt><trkpt lat="43.6898924" lon="10.9309754"><ele>95.42857142857142</ele><time>2026-05-01T10:15:46.851Z</time></trkpt><trkpt lat="43.6898443" lon="10.9310406"><ele>94.71428571428571</ele><time>2026-05-01T10:15:52.779Z</time></trkpt><trkpt lat="43.6897957" lon="10.9311072"><ele>94.0</ele><time>2026-05-01T10:15:58.756Z</time></trkpt><trkpt lat="43.6897453" lon="10.9311747"><ele>94.0</ele><time>2026-05-01T10:16:04.849Z</time></trkpt><trkpt lat="43.6896928" lon="10.9312422"><ele>94.0</ele><time>2026-05-01T10:16:10.848Z</time></trkpt><trkpt lat="43.6896391" lon="10.9313018"><ele>94.0</ele><time>2026-05-01T10:16:16.849Z</time></trkpt><trkpt lat="43.6895853" lon="10.931362"><ele>94.0</ele><time>2026-05-01T10:16:22.849Z</time></trkpt><trkpt lat="43.6895336" lon="10.9314319"><ele>94.0</ele><time>2026-05-01T10:16:27.849Z</time></trkpt><trkpt lat="43.6894835" lon="10.9314967"><ele>94.0</ele><time>2026-05-01T10:16:33.849Z</time></trkpt><trkpt lat="43.6894267" lon="10.9315659"><ele>94.0</ele><time>2026-05-01T10:16:39.822Z</time></trkpt><trkpt lat="43.6893705" lon="10.9316301"><ele>94.0</ele><time>2026-05-01T10:16:46.801Z</time></trkpt><trkpt lat="43.6893128" lon="10.9316754"><ele>94.0</ele><time>2026-05-01T10:16:52.849Z</time></trkpt><trkpt lat="43.6892451" lon="10.9317124"><ele>94.0</ele><time>2026-05-01T10:16:58.852Z</time></trkpt><trkpt lat="43.6891767" lon="10.931741"><ele>94.0</ele><time>2026-05-01T10:17:04.849Z</time></trkpt><trkpt lat="43.6891132" lon="10.9317739"><ele>94.0</ele><time>2026-05-01T10:17:10.848Z</time></trkpt><trkpt lat="43.6890477" lon="10.931798"><ele>94.0</ele><time>2026-05-01T10:17:16.849Z</time></trkpt><trkpt lat="43.6889825" lon="10.9318203"><ele>94.0</ele><time>2026-05-01T10:17:22.849Z</time></trkpt><trkpt lat="43.6889141" lon="10.9318484"><ele>93.85714285714286</ele><time>2026-05-01T10:17:28.874Z</time></trkpt><trkpt lat="43.6888511" lon="10.93188"><ele>93.71428571428571</ele><time>2026-05-01T10:17:34.849Z</time></trkpt><trkpt lat="43.6887862" lon="10.9319027"><ele>93.57142857142858</ele><time>2026-05-01T10:17:40.851Z</time></trkpt><trkpt lat="43.6887203" lon="10.9319281"><ele>93.42857142857143</ele><time>2026-05-01T10:17:46.758Z</time></trkpt><trkpt lat="43.6886518" lon="10.9319616"><ele>93.28571428571429</ele><time>2026-05-01T10:17:52.849Z</time></trkpt><trkpt lat="43.6885838" lon="10.9319788"><ele>93.14285714285715</ele><time>2026-05-01T10:17:58.848Z</time></trkpt><trkpt lat="43.6885281" lon="10.9320263"><ele>93.0</ele><time>2026-05-01T10:18:06.845Z</time></trkpt><trkpt lat="43.6884652" lon="10.9320561"><ele>94.57142857142858</ele><time>2026-05-01T10:18:11.848Z</time></trkpt><trkpt lat="43.6883966" lon="10.9320806"><ele>96.14285714285714</ele><time>2026-05-01T10:18:17.849Z</time></trkpt><trkpt lat="43.6883352" lon="10.932104"><ele>97.71428571428572</ele><time>2026-05-01T10:18:22.85Z</time></trkpt><trkpt lat="43.6882673" lon="10.9321316"><ele>99.28571428571429</ele><time>2026-05-01T10:18:28.849Z</time></trkpt><trkpt lat="43.6882036" lon="10.9321518"><ele>100.85714285714286</ele><time>2026-05-01T10:18:34.849Z</time></trkpt><trkpt lat="43.6881339" lon="10.9321823"><ele>102.42857142857143</ele><time>2026-05-01T10:18:42.849Z</time></trkpt><trkpt lat="43.6880669" lon="10.9321894"><ele>104.0</ele><time>2026-05-01T10:18:48.783Z</time></trkpt><trkpt lat="43.6879967" lon="10.932213"><ele>104.0</ele><time>2026-05-01T10:18:55.848Z</time></trkpt><trkpt lat="43.6879328" lon="10.9322368"><ele>104.0</ele><time>2026-05-01T10:19:01.848Z</time></trkpt><trkpt lat="43.6878701" lon="10.9322675"><ele>104.0</ele><time>2026-05-01T10:19:07.849Z</time></trkpt><trkpt lat="43.68781" lon="10.9323049"><ele>104.0</ele><time>2026-05-01T10:19:13.849Z</time></trkpt><trkpt lat="43.6877452" lon="10.9323376"><ele>104.0</ele><time>2026-05-01T10:19:19.849Z</time></trkpt><trkpt lat="43.6876797" lon="10.9323663"><ele>104.0</ele><time>2026-05-01T10:19:25.849Z</time></trkpt><trkpt lat="43.6876075" lon="10.9323904"><ele>104.0</ele><time>2026-05-01T10:19:31.851Z</time></trkpt><trkpt lat="43.6875375" lon="10.932413"><ele>104.14285714285714</ele><time>2026-05-01T10:19:37.849Z</time></trkpt><trkpt lat="43.6874653" lon="10.9324333"><ele>104.28571428571429</ele><time>2026-05-01T10:19:43.886Z</time></trkpt><trkpt lat="43.6873916" lon="10.9324486"><ele>104.42857142857143</ele><time>2026-05-01T10:19:49.845Z</time></trkpt><trkpt lat="43.6873329" lon="10.9324818"><ele>104.57142857142857</ele><time>2026-05-01T10:19:54.848Z</time></trkpt><trkpt lat="43.6872627" lon="10.9325056"><ele>104.71428571428572</ele><time>2026-05-01T10:20:00.849Z</time></trkpt><trkpt lat="43.6871989" lon="10.93249"><ele>104.85714285714286</ele><time>2026-05-01T10:20:06.849Z</time></trkpt><trkpt lat="43.687133" lon="10.932503"><ele>105.0</ele><time>2026-05-01T10:20:11.849Z</time></trkpt><trkpt lat="43.6870697" lon="10.932509"><ele>105.0</ele><time>2026-05-01T10:20:16.767Z</time></trkpt><trkpt lat="43.6869957" lon="10.9325172"><ele>105.0</ele><time>2026-05-01T10:20:22.706Z</time></trkpt><trkpt lat="43.6869332" lon="10.9325316"><ele>105.0</ele><time>2026-05-01T10:20:27.848Z</time></trkpt><trkpt lat="43.6868585" lon="10.9325239"><ele>105.0</ele><time>2026-05-01T10:20:33.848Z</time></trkpt><trkpt lat="43.6867878" lon="10.9325014"><ele>105.0</ele><time>2026-05-01T10:20:39.849Z</time></trkpt><trkpt lat="43.686721" lon="10.932449"><ele>105.0</ele><time>2026-05-01T10:20:45.848Z</time></trkpt><trkpt lat="43.6866694" lon="10.932395"><ele>105.0</ele><time>2026-05-01T10:20:50.848Z</time></trkpt><trkpt lat="43.6866196" lon="10.9323194"><ele>104.85714285714286</ele><time>2026-05-01T10:20:56.848Z</time></trkpt><trkpt lat="43.6865743" lon="10.9322555"><ele>104.71428571428572</ele><time>2026-05-01T10:21:01.85Z</time></trkpt><trkpt lat="43.6865208" lon="10.9322085"><ele>104.57142857142857</ele><time>2026-05-01T10:21:07.849Z</time></trkpt><trkpt lat="43.6864812" lon="10.9321333"><ele>104.42857142857143</ele><time>2026-05-01T10:21:19.848Z</time></trkpt><trkpt lat="43.6864268" lon="10.9320759"><ele>104.28571428571429</ele><time>2026-05-01T10:21:24.794Z</time></trkpt><trkpt lat="43.6863773" lon="10.9320113"><ele>104.14285714285714</ele><time>2026-05-01T10:21:30.849Z</time></trkpt><trkpt lat="43.6863204" lon="10.9319351"><ele>104.0</ele><time>2026-05-01T10:21:36.849Z</time></trkpt><trkpt lat="43.6862725" lon="10.9318731"><ele>104.0</ele><time>2026-05-01T10:21:42.856Z</time></trkpt><trkpt lat="43.6862377" lon="10.9317934"><ele>104.0</ele><time>2026-05-01T10:21:48.848Z</time></trkpt><trkpt lat="43.6861832" lon="10.9317294"><ele>104.0</ele><time>2026-05-01T10:21:54.848Z</time></trkpt><trkpt lat="43.6861318" lon="10.931676"><ele>104.0</ele><time>2026-05-01T10:21:59.849Z</time></trkpt><trkpt lat="43.6860851" lon="10.9316043"><ele>104.0</ele><time>2026-05-01T10:22:05.851Z</time></trkpt><trkpt lat="43.6860346" lon="10.9315403"><ele>104.0</ele><time>2026-05-01T10:22:10.849Z</time></trkpt><trkpt lat="43.6859856" lon="10.9314828"><ele>104.0</ele><time>2026-05-01T10:22:15.849Z</time></trkpt><trkpt lat="43.6859283" lon="10.9314228"><ele>104.85714285714285</ele><time>2026-05-01T10:22:21.848Z</time></trkpt><trkpt lat="43.6858674" lon="10.9313798"><ele>105.71428571428572</ele><time>2026-05-01T10:22:27.849Z</time></trkpt><trkpt lat="43.6857992" lon="10.9313591"><ele>106.57142857142857</ele><time>2026-05-01T10:22:33.875Z</time></trkpt><trkpt lat="43.6857367" lon="10.9313375"><ele>107.42857142857142</ele><time>2026-05-01T10:22:38.849Z</time></trkpt><trkpt lat="43.6856716" lon="10.9313093"><ele>108.28571428571428</ele><time>2026-05-01T10:22:44.861Z</time></trkpt><trkpt lat="43.6856018" lon="10.9312841"><ele>109.14285714285714</ele><time>2026-05-01T10:22:50.848Z</time></trkpt><trkpt lat="43.6855294" lon="10.9312725"><ele>110.0</ele><time>2026-05-01T10:22:56.852Z</time></trkpt><trkpt lat="43.6854627" lon="10.9312922"><ele>109.99999999999999</ele><time>2026-05-01T10:23:02.848Z</time></trkpt><trkpt lat="43.6854156" lon="10.931359"><ele>110.0</ele><time>2026-05-01T10:23:08.758Z</time></trkpt><trkpt lat="43.6853771" lon="10.9314441"><ele>110.0</ele><time>2026-05-01T10:23:15.848Z</time></trkpt><trkpt lat="43.6853403" lon="10.931529"><ele>110.0</ele><time>2026-05-01T10:23:26.849Z</time></trkpt><trkpt lat="43.6853089" lon="10.9316249"><ele>110.0</ele><time>2026-05-01T10:23:32.85Z</time></trkpt><trkpt lat="43.6852835" lon="10.9317081"><ele>109.99999999999999</ele><time>2026-05-01T10:23:38.848Z</time></trkpt><trkpt lat="43.6852511" lon="10.9317892"><ele>110.0</ele><time>2026-05-01T10:23:44.849Z</time></trkpt><trkpt lat="43.685224" lon="10.9318679"><ele>112.57142857142856</ele><time>2026-05-01T10:23:49.849Z</time></trkpt><trkpt lat="43.6851934" lon="10.931963"><ele>115.14285714285714</ele><time>2026-05-01T10:23:55.848Z</time></trkpt><trkpt lat="43.6851628" lon="10.9320462"><ele>117.71428571428571</ele><time>2026-05-01T10:24:01.848Z</time></trkpt><trkpt lat="43.6851356" lon="10.9321374"><ele>120.28571428571428</ele><time>2026-05-01T10:24:07.822Z</time></trkpt><trkpt lat="43.6851113" lon="10.9322267"><ele>122.85714285714285</ele><time>2026-05-01T10:24:13.849Z</time></trkpt><trkpt lat="43.6851181" lon="10.9323223"><ele>125.42857142857142</ele><time>2026-05-01T10:24:19.849Z</time></trkpt><trkpt lat="43.6851335" lon="10.9324222"><ele>128.0</ele><time>2026-05-01T10:24:25.884Z</time></trkpt><trkpt lat="43.6851509" lon="10.9325169"><ele>128.42857142857142</ele><time>2026-05-01T10:24:31.849Z</time></trkpt><trkpt lat="43.6851621" lon="10.9326031"><ele>128.85714285714283</ele><time>2026-05-01T10:24:36.807Z</time></trkpt><trkpt lat="43.6851838" lon="10.9327031"><ele>129.28571428571428</ele><time>2026-05-01T10:24:42.849Z</time></trkpt><trkpt lat="43.6851997" lon="10.9327926"><ele>129.71428571428572</ele><time>2026-05-01T10:24:48.848Z</time></trkpt><trkpt lat="43.6852198" lon="10.9328859"><ele>130.14285714285717</ele><time>2026-05-01T10:24:54.849Z</time></trkpt><trkpt lat="43.6852341" lon="10.9329739"><ele>130.57142857142858</ele><time>2026-05-01T10:24:59.848Z</time></trkpt><trkpt lat="43.6852497" lon="10.9330592"><ele>131.0</ele><time>2026-05-01T10:25:04.848Z</time></trkpt><trkpt lat="43.6852689" lon="10.9331462"><ele>128.71428571428572</ele><time>2026-05-01T10:25:09.748Z</time></trkpt><trkpt lat="43.6852832" lon="10.933232"><ele>126.42857142857144</ele><time>2026-05-01T10:25:14.806Z</time></trkpt><trkpt lat="43.6852963" lon="10.9333354"><ele>124.14285714285714</ele><time>2026-05-01T10:25:20.848Z</time></trkpt><trkpt lat="43.685308" lon="10.9334228"><ele>121.85714285714286</ele><time>2026-05-01T10:25:25.893Z</time></trkpt><trkpt lat="43.6853248" lon="10.9335188"><ele>119.57142857142857</ele><time>2026-05-01T10:25:31.849Z</time></trkpt><trkpt lat="43.6853426" lon="10.9336028"><ele>117.28571428571428</ele><time>2026-05-01T10:25:36.901Z</time></trkpt><trkpt lat="43.6853614" lon="10.9336894"><ele>114.99999999999999</ele><time>2026-05-01T10:25:41.849Z</time></trkpt><trkpt lat="43.6853751" lon="10.9337931"><ele>114.99999999999999</ele><time>2026-05-01T10:25:47.848Z</time></trkpt><trkpt lat="43.685395" lon="10.9338834"><ele>115.0</ele><time>2026-05-01T10:25:52.849Z</time></trkpt><trkpt lat="43.6854177" lon="10.93398"><ele>114.99999999999999</ele><time>2026-05-01T10:25:58.874Z</time></trkpt><trkpt lat="43.6854418" lon="10.9340776"><ele>114.99999999999999</ele><time>2026-05-01T10:26:04.849Z</time></trkpt><trkpt lat="43.6854285" lon="10.9341683"><ele>115.0</ele><time>2026-05-01T10:26:09.85Z</time></trkpt><trkpt lat="43.6853961" lon="10.9342542"><ele>114.99999999999999</ele><time>2026-05-01T10:26:14.849Z</time></trkpt><trkpt lat="43.6853475" lon="10.9343261"><ele>114.99999999999999</ele><time>2026-05-01T10:26:20.849Z</time></trkpt><trkpt lat="43.6852976" lon="10.9343829"><ele>114.99999999999999</ele><time>2026-05-01T10:26:25.854Z</time></trkpt><trkpt lat="43.6852478" lon="10.934455"><ele>115.0</ele><time>2026-05-01T10:26:31.849Z</time></trkpt><trkpt lat="43.6852048" lon="10.9345186"><ele>114.99999999999999</ele><time>2026-05-01T10:26:36.818Z</time></trkpt><trkpt lat="43.6851526" lon="10.9345788"><ele>114.99999999999999</ele><time>2026-05-01T10:26:42.848Z</time></trkpt><trkpt lat="43.6851108" lon="10.9346511"><ele>115.0</ele><time>2026-05-01T10:26:48.763Z</time></trkpt><trkpt lat="43.6850614" lon="10.9347097"><ele>114.99999999999999</ele><time>2026-05-01T10:26:53.853Z</time></trkpt><trkpt lat="43.6850146" lon="10.9347758"><ele>114.99999999999999</ele><time>2026-05-01T10:26:59.863Z</time></trkpt><trkpt lat="43.684969" lon="10.9348384"><ele>114.99999999999999</ele><time>2026-05-01T10:27:04.87Z</time></trkpt><trkpt lat="43.6849226" lon="10.9349024"><ele>115.0</ele><time>2026-05-01T10:27:11.849Z</time></trkpt><trkpt lat="43.68487" lon="10.9349732"><ele>114.99999999999999</ele><time>2026-05-01T10:27:17.868Z</time></trkpt><trkpt lat="43.6848162" lon="10.9350426"><ele>114.99999999999999</ele><time>2026-05-01T10:27:23.849Z</time></trkpt><trkpt lat="43.6847675" lon="10.9351059"><ele>115.0</ele><time>2026-05-01T10:27:29.866Z</time></trkpt><trkpt lat="43.6847142" lon="10.9351553"><ele>114.99999999999999</ele><time>2026-05-01T10:27:34.849Z</time></trkpt><trkpt lat="43.6846604" lon="10.9352252"><ele>114.99999999999999</ele><time>2026-05-01T10:27:40.849Z</time></trkpt><trkpt lat="43.684611" lon="10.9352925"><ele>114.28571428571426</ele><time>2026-05-01T10:27:45.828Z</time></trkpt><trkpt lat="43.684576" lon="10.9353701"><ele>113.57142857142857</ele><time>2026-05-01T10:27:51.849Z</time></trkpt><trkpt lat="43.6845313" lon="10.9354368"><ele>112.85714285714285</ele><time>2026-05-01T10:27:56.865Z</time></trkpt><trkpt lat="43.6844757" lon="10.9355053"><ele>112.14285714285714</ele><time>2026-05-01T10:28:02.849Z</time></trkpt><trkpt lat="43.6844151" lon="10.9355637"><ele>111.42857142857142</ele><time>2026-05-01T10:28:08.848Z</time></trkpt><trkpt lat="43.6843689" lon="10.9356287"><ele>110.71428571428571</ele><time>2026-05-01T10:28:13.868Z</time></trkpt><trkpt lat="43.6843239" lon="10.9357038"><ele>110.0</ele><time>2026-05-01T10:28:19.849Z</time></trkpt><trkpt lat="43.684281" lon="10.9357676"><ele>109.99999999999999</ele><time>2026-05-01T10:28:24.864Z</time></trkpt><trkpt lat="43.68423" lon="10.9358207"><ele>110.0</ele><time>2026-05-01T10:28:29.848Z</time></trkpt><trkpt lat="43.6841789" lon="10.9358825"><ele>110.0</ele><time>2026-05-01T10:28:34.797Z</time></trkpt><trkpt lat="43.6841361" lon="10.9359632"><ele>110.0</ele><time>2026-05-01T10:28:40.868Z</time></trkpt><trkpt lat="43.684077" lon="10.9360216"><ele>110.0</ele><time>2026-05-01T10:28:46.885Z</time></trkpt><trkpt lat="43.6840337" lon="10.9360997"><ele>109.99999999999999</ele><time>2026-05-01T10:28:52.866Z</time></trkpt><trkpt lat="43.6839825" lon="10.9361753"><ele>110.0</ele><time>2026-05-01T10:28:58.849Z</time></trkpt><trkpt lat="43.6839424" lon="10.9362438"><ele>109.99999999999999</ele><time>2026-05-01T10:29:05.864Z</time></trkpt><trkpt lat="43.6839122" lon="10.9363326"><ele>110.0</ele><time>2026-05-01T10:29:10.871Z</time></trkpt><trkpt lat="43.6838615" lon="10.9364024"><ele>110.0</ele><time>2026-05-01T10:29:16.849Z</time></trkpt><trkpt lat="43.6837913" lon="10.936425"><ele>110.0</ele><time>2026-05-01T10:29:22.848Z</time></trkpt><trkpt lat="43.6837519" lon="10.9365061"><ele>110.0</ele><time>2026-05-01T10:29:29.848Z</time></trkpt><trkpt lat="43.6837108" lon="10.9365899"><ele>109.99999999999999</ele><time>2026-05-01T10:29:35.868Z</time></trkpt><trkpt lat="43.6836682" lon="10.9366596"><ele>110.0</ele><time>2026-05-01T10:29:41.848Z</time></trkpt><trkpt lat="43.6836156" lon="10.936732"><ele>109.42857142857142</ele><time>2026-05-01T10:29:47.886Z</time></trkpt><trkpt lat="43.6835564" lon="10.9367938"><ele>108.85714285714286</ele><time>2026-05-01T10:29:53.848Z</time></trkpt><trkpt lat="43.6834931" lon="10.9368114"><ele>108.28571428571428</ele><time>2026-05-01T10:30:00.865Z</time></trkpt><trkpt lat="43.6834557" lon="10.9368865"><ele>107.71428571428571</ele><time>2026-05-01T10:30:05.781Z</time></trkpt><trkpt lat="43.6834183" lon="10.93696"><ele>107.14285714285714</ele><time>2026-05-01T10:30:10.849Z</time></trkpt><trkpt lat="43.6833636" lon="10.9370253"><ele>106.57142857142857</ele><time>2026-05-01T10:30:17.869Z</time></trkpt><trkpt lat="43.6833197" lon="10.9371025"><ele>106.0</ele><time>2026-05-01T10:30:22.849Z</time></trkpt><trkpt lat="43.6832642" lon="10.9371544"><ele>106.0</ele><time>2026-05-01T10:30:27.821Z</time></trkpt><trkpt lat="43.6832153" lon="10.937211"><ele>106.0</ele><time>2026-05-01T10:30:32.848Z</time></trkpt><trkpt lat="43.683157" lon="10.9372669"><ele>106.0</ele><time>2026-05-01T10:30:38.849Z</time></trkpt><trkpt lat="43.6830973" lon="10.9373232"><ele>106.0</ele><time>2026-05-01T10:30:44.869Z</time></trkpt><trkpt lat="43.6830504" lon="10.9374035"><ele>106.0</ele><time>2026-05-01T10:30:50.847Z</time></trkpt><trkpt lat="43.6830038" lon="10.93748"><ele>106.0</ele><time>2026-05-01T10:30:56.867Z</time></trkpt><trkpt lat="43.6829553" lon="10.9375559"><ele>106.0</ele><time>2026-05-01T10:31:02.849Z</time></trkpt><trkpt lat="43.6829037" lon="10.9376192"><ele>105.71428571428572</ele><time>2026-05-01T10:31:08.864Z</time></trkpt><trkpt lat="43.6828426" lon="10.9376727"><ele>105.42857142857142</ele><time>2026-05-01T10:31:14.848Z</time></trkpt><trkpt lat="43.6827875" lon="10.9377185"><ele>105.14285714285714</ele><time>2026-05-01T10:31:19.849Z</time></trkpt><trkpt lat="43.6827203" lon="10.9377634"><ele>104.85714285714286</ele><time>2026-05-01T10:31:25.87Z</time></trkpt><trkpt lat="43.6826548" lon="10.9378099"><ele>104.57142857142858</ele><time>2026-05-01T10:31:31.848Z</time></trkpt><trkpt lat="43.6825897" lon="10.9378619"><ele>104.28571428571428</ele><time>2026-05-01T10:31:37.866Z</time></trkpt><trkpt lat="43.6825309" lon="10.9379148"><ele>104.0</ele><time>2026-05-01T10:31:43.848Z</time></trkpt><trkpt lat="43.6824684" lon="10.9379666"><ele>104.0</ele><time>2026-05-01T10:31:49.864Z</time></trkpt><trkpt lat="43.6824112" lon="10.9380243"><ele>104.0</ele><time>2026-05-01T10:31:55.848Z</time></trkpt><trkpt lat="43.6823551" lon="10.9380853"><ele>104.0</ele><time>2026-05-01T10:32:01.849Z</time></trkpt><trkpt lat="43.6823005" lon="10.9381533"><ele>104.0</ele><time>2026-05-01T10:32:07.872Z</time></trkpt><trkpt lat="43.6822498" lon="10.9382203"><ele>104.0</ele><time>2026-05-01T10:32:13.849Z</time></trkpt><trkpt lat="43.6821942" lon="10.9382875"><ele>104.0</ele><time>2026-05-01T10:32:19.869Z</time></trkpt><trkpt lat="43.6821435" lon="10.9383516"><ele>104.0</ele><time>2026-05-01T10:32:25.848Z</time></trkpt><trkpt lat="43.6820908" lon="10.9384195"><ele>104.28571428571428</ele><time>2026-05-01T10:32:31.867Z</time></trkpt><trkpt lat="43.6820365" lon="10.9384849"><ele>104.57142857142858</ele><time>2026-05-01T10:32:37.849Z</time></trkpt><trkpt lat="43.6819869" lon="10.9385483"><ele>104.85714285714286</ele><time>2026-05-01T10:32:43.865Z</time></trkpt><trkpt lat="43.6819333" lon="10.9386132"><ele>105.14285714285714</ele><time>2026-05-01T10:32:49.848Z</time></trkpt><trkpt lat="43.6818801" lon="10.9386773"><ele>105.42857142857142</ele><time>2026-05-01T10:32:55.849Z</time></trkpt><trkpt lat="43.681827" lon="10.9387424"><ele>105.71428571428572</ele><time>2026-05-01T10:33:01.849Z</time></trkpt><trkpt lat="43.6817753" lon="10.9388148"><ele>106.0</ele><time>2026-05-01T10:33:07.848Z</time></trkpt><trkpt lat="43.681724" lon="10.9388822"><ele>106.0</ele><time>2026-05-01T10:33:13.869Z</time></trkpt><trkpt lat="43.6816766" lon="10.9389633"><ele>106.0</ele><time>2026-05-01T10:33:19.806Z</time></trkpt><trkpt lat="43.6816484" lon="10.9390496"><ele>106.0</ele><time>2026-05-01T10:33:25.825Z</time></trkpt><trkpt lat="43.6816197" lon="10.9391286"><ele>106.0</ele><time>2026-05-01T10:33:30.849Z</time></trkpt><trkpt lat="43.6815809" lon="10.9392006"><ele>106.0</ele><time>2026-05-01T10:33:35.862Z</time></trkpt><trkpt lat="43.6815438" lon="10.9392745"><ele>106.0</ele><time>2026-05-01T10:33:40.868Z</time></trkpt><trkpt lat="43.68151" lon="10.9393558"><ele>106.0</ele><time>2026-05-01T10:33:46.859Z</time></trkpt><trkpt lat="43.6814845" lon="10.9394499"><ele>106.85714285714286</ele><time>2026-05-01T10:33:52.868Z</time></trkpt><trkpt lat="43.6814653" lon="10.9395433"><ele>107.71428571428571</ele><time>2026-05-01T10:33:58.849Z</time></trkpt><trkpt lat="43.6814586" lon="10.9396443"><ele>108.57142857142857</ele><time>2026-05-01T10:34:04.866Z</time></trkpt><trkpt lat="43.6814618" lon="10.9397383"><ele>109.42857142857143</ele><time>2026-05-01T10:34:10.849Z</time></trkpt><trkpt lat="43.6814801" lon="10.9398277"><ele>110.28571428571428</ele><time>2026-05-01T10:34:16.863Z</time></trkpt><trkpt lat="43.6814935" lon="10.9399168"><ele>111.14285714285714</ele><time>2026-05-01T10:34:21.799Z</time></trkpt><trkpt lat="43.6815096" lon="10.9400152"><ele>112.0</ele><time>2026-05-01T10:34:27.849Z</time></trkpt><trkpt lat="43.6815408" lon="10.940097"><ele>112.85714285714286</ele><time>2026-05-01T10:34:33.87Z</time></trkpt><trkpt lat="43.6815632" lon="10.9401903"><ele>113.71428571428572</ele><time>2026-05-01T10:34:39.848Z</time></trkpt><trkpt lat="43.6815808" lon="10.9402884"><ele>114.57142857142857</ele><time>2026-05-01T10:34:45.836Z</time></trkpt><trkpt lat="43.681609" lon="10.9403801"><ele>115.42857142857143</ele><time>2026-05-01T10:34:51.849Z</time></trkpt><trkpt lat="43.6816361" lon="10.9404678"><ele>116.28571428571429</ele><time>2026-05-01T10:34:57.849Z</time></trkpt><trkpt lat="43.6816636" lon="10.9405603"><ele>117.14285714285714</ele><time>2026-05-01T10:35:03.855Z</time></trkpt><trkpt lat="43.6817057" lon="10.9406407"><ele>118.0</ele><time>2026-05-01T10:35:09.864Z</time></trkpt><trkpt lat="43.681736" lon="10.9407287"><ele>118.0</ele><time>2026-05-01T10:35:15.789Z</time></trkpt><trkpt lat="43.6817548" lon="10.9408219"><ele>118.0</ele><time>2026-05-01T10:35:21.848Z</time></trkpt><trkpt lat="43.6817658" lon="10.9409264"><ele>118.0</ele><time>2026-05-01T10:35:27.819Z</time></trkpt><trkpt lat="43.6817868" lon="10.9410185"><ele>118.0</ele><time>2026-05-01T10:35:33.849Z</time></trkpt><trkpt lat="43.6818117" lon="10.9411107"><ele>118.0</ele><time>2026-05-01T10:35:39.868Z</time></trkpt><trkpt lat="43.6818435" lon="10.9411957"><ele>118.0</ele><time>2026-05-01T10:35:45.755Z</time></trkpt><trkpt lat="43.6818655" lon="10.9412799"><ele>118.0</ele><time>2026-05-01T10:35:50.864Z</time></trkpt><trkpt lat="43.6818773" lon="10.9413685"><ele>118.28571428571428</ele><time>2026-05-01T10:35:55.848Z</time></trkpt><trkpt lat="43.6819054" lon="10.9414479"><ele>118.57142857142858</ele><time>2026-05-01T10:36:01.862Z</time></trkpt><trkpt lat="43.6819298" lon="10.9415364"><ele>118.85714285714286</ele><time>2026-05-01T10:36:07.848Z</time></trkpt><trkpt lat="43.681949" lon="10.9416243"><ele>119.14285714285714</ele><time>2026-05-01T10:36:13.86Z</time></trkpt><trkpt lat="43.681966" lon="10.9417181"><ele>119.42857142857142</ele><time>2026-05-01T10:36:33.849Z</time></trkpt><trkpt lat="43.681907" lon="10.9417553"><ele>119.71428571428572</ele><time>2026-05-01T10:36:38.849Z</time></trkpt><trkpt lat="43.6818376" lon="10.9417694"><ele>120.0</ele><time>2026-05-01T10:36:43.864Z</time></trkpt><trkpt lat="43.6818116" lon="10.9418488"><ele>120.71428571428572</ele><time>2026-05-01T10:36:48.872Z</time></trkpt><trkpt lat="43.6818143" lon="10.9419475"><ele>121.42857142857142</ele><time>2026-05-01T10:36:54.768Z</time></trkpt><trkpt lat="43.6818132" lon="10.9420446"><ele>122.14285714285714</ele><time>2026-05-01T10:37:00.888Z</time></trkpt><trkpt lat="43.6818068" lon="10.9421355"><ele>122.85714285714286</ele><time>2026-05-01T10:37:06.849Z</time></trkpt><trkpt lat="43.6817902" lon="10.9422279"><ele>123.57142857142858</ele><time>2026-05-01T10:37:12.783Z</time></trkpt><trkpt lat="43.6817815" lon="10.942322"><ele>124.28571428571428</ele><time>2026-05-01T10:37:18.848Z</time></trkpt><trkpt lat="43.6817358" lon="10.9424025"><ele>125.0</ele><time>2026-05-01T10:37:24.866Z</time></trkpt><trkpt lat="43.6816982" lon="10.9424936"><ele>124.57142857142857</ele><time>2026-05-01T10:37:31.823Z</time></trkpt><trkpt lat="43.6816646" lon="10.9425802"><ele>124.14285714285714</ele><time>2026-05-01T10:37:38.121Z</time></trkpt><trkpt lat="43.6816115" lon="10.9426319"><ele>123.71428571428571</ele><time>2026-05-01T10:37:43.85Z</time></trkpt><trkpt lat="43.6815714" lon="10.9427005"><ele>123.28571428571428</ele><time>2026-05-01T10:38:04.866Z</time></trkpt><trkpt lat="43.6815324" lon="10.942769"><ele>122.85714285714286</ele><time>2026-05-01T10:38:08.85Z</time></trkpt><trkpt lat="43.6814954" lon="10.942841"><ele>122.42857142857142</ele><time>2026-05-01T10:38:13.857Z</time></trkpt><trkpt lat="43.6814509" lon="10.9429075"><ele>121.99999999999999</ele><time>2026-05-01T10:38:19.868Z</time></trkpt><trkpt lat="43.6814213" lon="10.9429931"><ele>121.99999999999999</ele><time>2026-05-01T10:38:28.862Z</time></trkpt><trkpt lat="43.6813868" lon="10.9430689"><ele>122.0</ele><time>2026-05-01T10:38:34.87Z</time></trkpt><trkpt lat="43.6813592" lon="10.9431476"><ele>121.99999999999999</ele><time>2026-05-01T10:38:40.85Z</time></trkpt><trkpt lat="43.6813006" lon="10.9432098"><ele>121.99999999999999</ele><time>2026-05-01T10:38:46.837Z</time></trkpt><trkpt lat="43.6812445" lon="10.9432541"><ele>122.0</ele><time>2026-05-01T10:38:52.851Z</time></trkpt><trkpt lat="43.681186" lon="10.9433151"><ele>121.99999999999999</ele><time>2026-05-01T10:38:58.865Z</time></trkpt><trkpt lat="43.6811317" lon="10.9433771"><ele>121.99999999999999</ele><time>2026-05-01T10:39:04.851Z</time></trkpt><trkpt lat="43.6810838" lon="10.9434361"><ele>121.28571428571428</ele><time>2026-05-01T10:39:09.9Z</time></trkpt><trkpt lat="43.6810295" lon="10.9434816"><ele>120.57142857142857</ele><time>2026-05-01T10:39:14.87Z</time></trkpt><trkpt lat="43.6809648" lon="10.9435247"><ele>119.85714285714286</ele><time>2026-05-01T10:39:20.851Z</time></trkpt><trkpt lat="43.6808995" lon="10.9434945"><ele>119.14285714285714</ele><time>2026-05-01T10:39:26.867Z</time></trkpt><trkpt lat="43.6808416" lon="10.9435416"><ele>118.42857142857144</ele><time>2026-05-01T10:39:32.851Z</time></trkpt><trkpt lat="43.6807847" lon="10.9435875"><ele>117.71428571428572</ele><time>2026-05-01T10:39:38.865Z</time></trkpt><trkpt lat="43.6807274" lon="10.9436277"><ele>117.0</ele><time>2026-05-01T10:39:44.85Z</time></trkpt><trkpt lat="43.6806629" lon="10.9436696"><ele>117.0</ele><time>2026-05-01T10:39:51.864Z</time></trkpt><trkpt lat="43.6806319" lon="10.9437498"><ele>117.00000000000001</ele><time>2026-05-01T10:40:07.767Z</time></trkpt><trkpt lat="43.6805689" lon="10.9437611"><ele>117.0</ele><time>2026-05-01T10:40:12.851Z</time></trkpt><trkpt lat="43.6805062" lon="10.9437136"><ele>117.0</ele><time>2026-05-01T10:40:38.851Z</time></trkpt><trkpt lat="43.6804576" lon="10.9437715"><ele>117.00000000000001</ele><time>2026-05-01T10:40:43.851Z</time></trkpt><trkpt lat="43.6804119" lon="10.9438347"><ele>117.0</ele><time>2026-05-01T10:40:49.869Z</time></trkpt><trkpt lat="43.6804566" lon="10.9439113"><ele>117.0</ele><time>2026-05-01T10:40:53.851Z</time></trkpt><trkpt lat="43.6805054" lon="10.9439879"><ele>117.0</ele><time>2026-05-01T10:40:59.863Z</time></trkpt><trkpt lat="43.6805385" lon="10.9440703"><ele>117.00000000000001</ele><time>2026-05-01T10:41:04.87Z</time></trkpt><trkpt lat="43.6805594" lon="10.9441666"><ele>117.0</ele><time>2026-05-01T10:41:09.85Z</time></trkpt><trkpt lat="43.6805775" lon="10.9442556"><ele>117.0</ele><time>2026-05-01T10:41:14.866Z</time></trkpt><trkpt lat="43.6806408" lon="10.9442781"><ele>117.00000000000001</ele><time>2026-05-01T10:41:22.851Z</time></trkpt><trkpt lat="43.6805771" lon="10.9442485"><ele>117.0</ele><time>2026-05-01T10:42:55.851Z</time></trkpt><trkpt lat="43.6805517" lon="10.9441522"><ele>117.0</ele><time>2026-05-01T10:43:01.851Z</time></trkpt><trkpt lat="43.6805183" lon="10.9440683"><ele>117.0</ele><time>2026-05-01T10:43:07.871Z</time></trkpt><trkpt lat="43.680485" lon="10.9439856"><ele>117.0</ele><time>2026-05-01T10:43:13.851Z</time></trkpt><trkpt lat="43.6804627" lon="10.9438895"><ele>117.0</ele><time>2026-05-01T10:43:20.869Z</time></trkpt><trkpt lat="43.6804615" lon="10.94379"><ele>117.0</ele><time>2026-05-01T10:43:26.777Z</time></trkpt><trkpt lat="43.6804484" lon="10.9436958"><ele>117.0</ele><time>2026-05-01T10:43:35.771Z</time></trkpt></trkseg></trk></gpx>